Provisional Data: Chemung River at West Elmira, NY


Please select a monitoring station.
Please select start date.
Please select start date.

Toggle Unit: C/F Toggle Unit: C/F
Sample Time Temperature (C) Temperature (F) Specific Conductivity (mS/cm) pH   Turbidity (NTU+) DO (mg/L)
10/17/2022 12:00:00 AM 12.99 55.382 0.443 8.15 2.48 10.06
10/17/2022 12:15:00 AM 12.94 55.292 0.441 8.13 2.56 10
10/17/2022 12:30:00 AM 12.89 55.202 0.443 8.13 2.57 9.96
10/17/2022 12:45:00 AM 12.84 55.112 0.442 8.12 2.48 9.93
10/17/2022 1:00:00 AM 12.79 55.022 0.443 8.11 2.44 9.89
10/17/2022 1:15:00 AM 12.75 54.95 0.442 8.1 2.47 9.84
10/17/2022 1:30:00 AM 12.7 54.86 0.443 8.08 2.53 9.8
10/17/2022 1:45:00 AM 12.66 54.788 0.443 8.08 2.39 9.78
10/17/2022 2:00:00 AM 12.63 54.734 0.443 8.07 2.53 9.74
10/17/2022 2:15:00 AM 12.6 54.68 0.442 8.07 2.6 9.71
10/17/2022 2:30:00 AM 12.58 54.644 0.442 8.06 2.44 9.68
10/17/2022 2:45:00 AM 12.56 54.608 0.442 8.06 2.53 9.66
10/17/2022 3:00:00 AM 12.54 54.572 0.441 8.05 2.53 9.63
10/17/2022 3:15:00 AM 12.52 54.536 0.442 8.05 2.69 9.61
10/17/2022 3:30:00 AM 12.51 54.518 0.441 8.05 2.61 9.6
10/17/2022 3:45:00 AM 12.49 54.482 0.442 8.04 2.5 9.56
10/17/2022 4:00:00 AM 12.47 54.446 0.441 8.04 2.45 9.54
10/17/2022 4:15:00 AM 12.46 54.428 0.441 8.03 2.42 9.53
10/17/2022 4:30:00 AM 12.45 54.41 0.441 8.04 2.4 9.52
10/17/2022 4:45:00 AM 12.43 54.374 0.44 8.04 2.46 9.51
10/17/2022 5:00:00 AM 12.41 54.338 0.441 8.04 2.86 9.5
10/17/2022 5:15:00 AM 12.39 54.302 0.439 8.03 2.6 9.49
10/17/2022 5:30:00 AM 12.37 54.266 0.44 8.03 2.89 9.47
10/17/2022 5:45:00 AM 12.35 54.23 0.439 8.03 2.64 9.47
10/17/2022 6:00:00 AM 11.47 52.646 0.409 7.47 2.22 8.79
10/17/2022 6:15:00 AM 12.2 53.96 0.434 7.95 2.57 9.35
10/17/2022 6:30:00 AM 12.29 54.122 0.438 8.02 2.56 9.42
10/17/2022 6:45:00 AM 12.28 54.104 0.439 8.02 2.52 9.42
10/17/2022 7:00:00 AM 12.26 54.068 0.439 8.02 2.59 9.41
10/17/2022 7:15:00 AM 12.24 54.032 0.437 8.01 2.76 9.4
10/17/2022 7:30:00 AM 12.23 54.014 0.438 8.02 2.73 9.37
10/17/2022 7:45:00 AM 12.21 53.978 0.438 8.01 2.49 9.36
10/17/2022 8:00:00 AM 12.19 53.942 0.438 8 3.5 9.32
10/17/2022 8:15:00 AM 12.18 53.924 0.438 8 2.86 9.29
10/17/2022 8:30:00 AM 12.16 53.888 0.438 8 3.55 9.23
10/17/2022 8:45:00 AM 12.15 53.87 0.438 8 2.66 9.33
10/17/2022 9:00:00 AM 12.15 53.87 0.437 8 2.46 9.35
10/17/2022 9:15:00 AM 12.14 53.852 0.437 8 2.49 9.36
10/17/2022 9:30:00 AM 12.14 53.852 0.437 8 2.53 9.36
10/17/2022 9:45:00 AM 12.14 53.852 0.436 8 2.31 9.39
10/17/2022 10:00:00 AM 12.15 53.87 0.436 8.01 2.23 9.44
10/17/2022 10:15:00 AM 12.16 53.888 0.436 8.02 2.28 9.48
10/17/2022 10:30:00 AM 12.18 53.924 0.436 8.02 2.21 9.53
10/17/2022 10:45:00 AM 12.21 53.978 0.435 8.03 2.26 9.6
10/17/2022 11:00:00 AM 12.24 54.032 0.435 8.04 2.13 9.69
10/17/2022 11:15:00 AM 12.29 54.122 0.435 8.06 2.3 9.78
10/17/2022 11:30:00 AM 12.34 54.212 0.435 8.07 2.14 9.88
10/17/2022 11:45:00 AM 12.39 54.302 0.435 8.09 2.19 9.98
10/17/2022 12:00:00 PM 12.44 54.392 0.435 8.1 2.13 10.08
10/17/2022 12:15:00 PM 12.48 54.464 0.435 8.13 2.14 10.22
10/17/2022 12:30:00 PM 12.53 54.554 0.434 8.15 2.58 10.38
10/17/2022 12:45:00 PM 12.58 54.644 0.433 8.17 2.28 10.5
10/17/2022 1:00:00 PM 12.63 54.734 0.434 8.2 2.18 10.64
10/17/2022 1:15:00 PM 12.65 54.77 0.433 8.21 2.34 10.72
10/17/2022 1:30:00 PM 12.66 54.788 0.433 8.24 2.22 10.81
10/17/2022 1:45:00 PM 12.7 54.86 0.432 8.26 2.2 10.9
10/17/2022 2:00:00 PM 12.75 54.95 0.433 8.27 2.13 11.01
10/17/2022 2:15:00 PM 12.78 55.004 0.432 8.29 2.08 11.12
10/17/2022 2:30:00 PM 12.83 55.094 0.432 8.31 2.28 11.22
10/17/2022 2:45:00 PM 12.86 55.148 0.431 8.31 2.08 11.28
10/17/2022 3:00:00 PM 12.89 55.202 0.432 8.33 2.05 11.33
10/17/2022 3:15:00 PM 12.91 55.238 0.431 8.34 2.07 11.38
10/17/2022 3:30:00 PM 12.92 55.256 0.43 8.35 2.09 11.42
10/17/2022 3:45:00 PM 12.93 55.274 0.429 8.35 2.09 11.46
10/17/2022 4:00:00 PM 12.93 55.274 0.431 8.37 2.09 11.49
10/17/2022 4:15:00 PM 12.89 55.202 0.43 8.38 2.74 11.53
10/17/2022 4:30:00 PM 12.88 55.184 0.429 8.39 2.55 11.59
10/17/2022 4:45:00 PM 12.86 55.148 0.43 8.4 2.2 11.66
10/17/2022 5:00:00 PM 12.83 55.094 0.43 8.41 2.13 11.7
10/17/2022 5:15:00 PM 12.82 55.076 0.429 8.42 2.06 11.74
10/17/2022 5:30:00 PM 12.79 55.022 0.43 8.43 2.05 11.77
10/17/2022 5:45:00 PM 12.77 54.986 0.429 8.44 2.04 11.8
10/17/2022 6:00:00 PM 12.75 54.95 0.43 8.44 2.04 11.69
10/17/2022 6:15:00 PM 12.73 54.914 0.429 8.44 2.22 11.75
10/17/2022 6:30:00 PM 12.69 54.842 0.429 8.43 2.04 11.73
10/17/2022 6:45:00 PM 12.68 54.824 0.43 8.43 2.13 11.72
10/17/2022 7:00:00 PM 12.64 54.752 0.43 8.43 2.14 11.68
10/17/2022 7:15:00 PM 12.6 54.68 0.43 8.42 2.07 11.61
10/17/2022 7:30:00 PM 12.56 54.608 0.43 8.4 2.16 11.54
10/17/2022 7:45:00 PM 12.52 54.536 0.429 8.4 2.08 11.45
10/17/2022 8:00:00 PM 12.49 54.482 0.429 8.38 2.09 11.36
10/17/2022 8:15:00 PM 12.47 54.446 0.429 8.36 2.08 11.28
10/17/2022 8:30:00 PM 12.43 54.374 0.431 8.35 2.18 11.18
10/17/2022 8:45:00 PM 12.4 54.32 0.431 8.33 2.3 11.08
10/17/2022 9:00:00 PM 12.36 54.248 0.43 8.31 2.14 10.97
10/17/2022 9:15:00 PM 12.31 54.158 0.431 8.29 2.25 10.87
10/17/2022 9:30:00 PM 12.26 54.068 0.431 8.28 2.26 10.77
10/17/2022 9:45:00 PM 12.22 53.996 0.431 8.26 2.24 10.68
10/17/2022 10:00:00 PM 12.16 53.888 0.432 8.24 2.16 10.6
10/17/2022 10:15:00 PM 12.13 53.834 0.431 8.23 2.16 10.54
10/17/2022 10:30:00 PM 12.07 53.726 0.432 8.21 2.19 10.48
10/17/2022 10:45:00 PM 12.02 53.636 0.431 8.21 2.1 10.43
10/17/2022 11:00:00 PM 11.98 53.564 0.431 8.19 2.13 10.38
10/17/2022 11:15:00 PM 11.95 53.51 0.431 8.17 2.28 10.33
10/17/2022 11:30:00 PM 11.91 53.438 0.431 8.16 2.4 10.28
10/17/2022 11:45:00 PM 11.88 53.384 0.432 8.16 2.36 10.24
10/18/2022 12:00:00 AM 11.84 53.312 0.432 8.15 2.34 10.19
10/18/2022 12:15:00 AM 11.8 53.24 0.432 8.14 2.37 10.15
10/18/2022 12:30:00 AM 11.75 53.15 0.432 8.13 2.32 10.09
10/18/2022 12:45:00 AM 11.69 53.042 0.433 8.12 2.46 10.04
10/18/2022 1:00:00 AM 11.63 52.934 0.434 8.11 2.47 10.01
10/18/2022 1:15:00 AM 11.58 52.844 0.433 8.1 2.57 9.97
10/18/2022 1:30:00 AM 11.53 52.754 0.433 8.09 2.43 9.95
10/18/2022 1:45:00 AM 11.46 52.628 0.434 8.07 2.31 9.92
10/18/2022 2:00:00 AM 11.4 52.52 0.433 8.07 2.31 9.9
10/18/2022 2:15:00 AM 11.34 52.412 0.434 8.06 2.4 9.87
10/18/2022 2:30:00 AM 11.28 52.304 0.434 8.06 2.34 9.83
10/18/2022 2:45:00 AM 11.22 52.196 0.435 8.05 2.31 9.8
10/18/2022 3:00:00 AM 11.17 52.106 0.434 8.04 2.39 9.77
10/18/2022 3:15:00 AM 11.12 52.016 0.434 8.04 2.47 9.73
10/18/2022 3:30:00 AM 11.08 51.944 0.434 8.04 2.63 9.72
10/18/2022 3:45:00 AM 11.03 51.854 0.436 8.03 2.38 9.72
10/18/2022 4:00:00 AM 10.98 51.764 0.435 8.02 2.25 9.68
10/18/2022 4:15:00 AM 10.48 50.864 0.417 7.7 2.28 9.28
10/18/2022 4:30:00 AM 10.82 51.476 0.432 7.98 2.54 9.61
10/18/2022 4:45:00 AM 10.83 51.494 0.436 8.01 2.39 9.65
10/18/2022 5:00:00 AM 10.78 51.404 0.435 8.01 2.49 9.64
10/18/2022 5:15:00 AM 10.73 51.314 0.435 8.01 2.32 9.63
10/18/2022 5:30:00 AM 10.68 51.224 0.435 8.01 2.29 9.63
10/18/2022 5:45:00 AM 10.63 51.134 0.435 8.01 2.3 9.63
10/18/2022 6:00:00 AM 10.58 51.044 0.436 8 2.35 9.63
10/18/2022 6:15:00 AM 10.53 50.954 0.436 8 2.34 9.62
10/18/2022 6:30:00 AM 10.47 50.846 0.435 8 2.41 9.61
10/18/2022 6:45:00 AM 10.43 50.774 0.437 7.99 2.5 9.6
10/18/2022 7:00:00 AM 9.64 49.352 0.405 7.42 2.16 8.91
10/18/2022 7:15:00 AM 10.24 50.432 0.432 7.91 2.42 9.5
10/18/2022 7:30:00 AM 10.29 50.522 0.436 7.99 2.31 9.58
10/18/2022 7:45:00 AM 10.26 50.468 0.436 7.99 2.31 9.58
10/18/2022 8:00:00 AM 10.22 50.396 0.436 7.99 2.26 9.59
10/18/2022 8:15:00 AM 10.17 50.306 0.438 7.99 2.24 9.6
10/18/2022 8:30:00 AM 10.14 50.252 0.436 7.99 2.25 9.62
10/18/2022 8:45:00 AM 10.12 50.216 0.438 8 2.14 9.65
10/18/2022 9:00:00 AM 10.11 50.198 0.437 8 2.11 9.68
10/18/2022 9:15:00 AM 10.13 50.234 0.438 8.01 2.17 9.73
10/18/2022 9:30:00 AM 10.15 50.27 0.437 8.01 2.17 9.79
10/18/2022 9:45:00 AM 10.18 50.324 0.437 8.03 2.2 9.85
10/18/2022 10:00:00 AM 10.19 50.342 0.436 8.04 2.13 9.95
10/18/2022 10:15:00 AM 10.22 50.396 0.438 8.06 2.28 10.04
10/18/2022 10:30:00 AM 10.23 50.414 0.436 8.06 2.16 10.11
10/18/2022 10:45:00 AM 10.24 50.432 0.437 8.09 2.24 10.23
10/18/2022 11:00:00 AM 10.28 50.504 0.437 8.11 3.35 10.43
10/18/2022 11:15:00 AM 10.32 50.576 0.438 8.14 2.6 10.56
10/18/2022 11:30:00 AM 10.37 50.666 0.436 8.15 2.35 10.68
10/18/2022 11:45:00 AM 10.41 50.738 0.436 8.19 2.23 10.86
10/18/2022 12:00:00 PM 10.45 50.81 0.436 8.22 2.35 11.01
10/18/2022 12:15:00 PM 10.49 50.882 0.437 8.25 2.26 11.15
10/18/2022 12:30:00 PM 10.52 50.936 0.436 8.26 2.29 11.26
10/18/2022 12:45:00 PM 10.58 51.044 0.435 8.29 2.17 11.43
10/18/2022 1:00:00 PM 10.62 51.116 0.435 8.31 2.16 11.52
10/18/2022 1:15:00 PM 10.68 51.224 0.436 8.33 2.3 11.61
10/18/2022 1:30:00 PM 10.73 51.314 0.436 8.33 2.19 11.67
10/18/2022 1:45:00 PM 10.78 51.404 0.435 8.36 2.07 11.79
10/18/2022 2:00:00 PM 10.82 51.476 0.435 8.38 2.11 11.87
10/18/2022 2:15:00 PM 10.85 51.53 0.436 8.38 2.07 11.9
10/18/2022 2:30:00 PM 10.42 50.756 0.418 8.05 1.99 11.49
10/18/2022 2:45:00 PM 10.82 51.476 0.433 8.36 2.05 11.97
10/18/2022 3:00:00 PM 10.88 51.584 0.435 8.41 2.07 12.08
10/18/2022 3:15:00 PM 10.88 51.584 0.436 8.42 2.08 12.12
10/18/2022 3:30:00 PM 10.9 51.62 0.435 8.43 1.99 12.19
10/18/2022 3:45:00 PM 10.92 51.656 0.436 8.44 2.03 12.22
10/18/2022 4:00:00 PM 10.48 50.864 0.418 8.11 2.06 11.77
10/18/2022 4:15:00 PM 10.86 51.548 0.433 8.41 1.98 12.24
10/18/2022 4:30:00 PM 10.9 51.62 0.434 8.46 2.12 12.32
10/18/2022 4:45:00 PM 10.89 51.602 0.436 8.46 1.99 12.35
10/18/2022 5:00:00 PM 10.89 51.602 0.435 8.47 2.02 12.35
10/18/2022 5:15:00 PM 10.88 51.584 0.435 8.47 1.99 12.36
10/18/2022 5:30:00 PM 10.87 51.566 0.435 8.48 1.9 12.38
10/18/2022 5:45:00 PM 10.86 51.548 0.436 8.48 1.85 12.27
10/18/2022 6:00:00 PM 10.85 51.53 0.436 8.47 1.92 12.32
10/18/2022 6:15:00 PM 10.84 51.512 0.436 8.47 1.9 12.31
10/18/2022 6:30:00 PM 10.82 51.476 0.435 8.47 1.93 12.27
10/18/2022 6:45:00 PM 10.81 51.458 0.437 8.46 1.97 12.23
10/18/2022 7:00:00 PM 10.79 51.422 0.436 8.45 1.94 12.17
10/18/2022 7:15:00 PM 10.76 51.368 0.436 8.44 2.03 12.1
10/18/2022 7:30:00 PM 10.74 51.332 0.436 8.44 1.98 12.05
10/18/2022 7:45:00 PM 10.72 51.296 0.437 8.42 2.03 11.97
10/18/2022 8:00:00 PM 10.7 51.26 0.437 8.41 1.95 11.9
10/18/2022 8:15:00 PM 10.68 51.224 0.437 8.4 2.03 11.82
10/18/2022 8:30:00 PM 10.66 51.188 0.437 8.38 2.02 11.72
10/18/2022 8:45:00 PM 10.63 51.134 0.437 8.37 2.05 11.65
10/18/2022 9:00:00 PM 10.6 51.08 0.437 8.36 2.2 11.54
10/18/2022 9:15:00 PM 10.56 51.008 0.437 8.34 2.21 11.45
10/18/2022 9:30:00 PM 10.52 50.936 0.438 8.32 2.14 11.37
10/18/2022 9:45:00 PM 10.47 50.846 0.438 8.31 2.25 11.29
10/18/2022 10:00:00 PM 10.43 50.774 0.438 8.29 2.26 11.23
10/18/2022 10:15:00 PM 10.38 50.684 0.438 8.26 2.22 11.15
10/18/2022 10:30:00 PM 10.33 50.594 0.438 8.25 4.44 11.06
10/18/2022 10:45:00 PM 10.28 50.504 0.439 8.24 2.53 11.02
10/18/2022 11:00:00 PM 10.23 50.414 0.44 8.24 2.27 10.97
10/18/2022 11:15:00 PM 10.18 50.324 0.439 8.22 2.09 10.88
10/18/2022 11:30:00 PM 10.13 50.234 0.44 8.22 2.1 10.85
10/18/2022 11:45:00 PM 10.08 50.144 0.439 8.2 2.13 10.82
10/19/2022 12:00:00 AM 10.03 50.054 0.439 8.2 2.27 10.79
10/19/2022 12:15:00 AM 9.58 49.244 0.421 7.85 2.01 10.31
10/19/2022 12:30:00 AM 9.88 49.784 0.438 8.13 2.13 10.66
10/19/2022 12:45:00 AM 9.47 49.046 0.422 7.84 2.08 10.24
10/19/2022 1:00:00 AM 9.78 49.604 0.438 8.12 2.26 10.58
10/19/2022 1:15:00 AM 9.77 49.586 0.44 8.12 2.61 10.55
10/19/2022 1:30:00 AM 9.74 49.532 0.441 8.13 2.32 10.57
10/19/2022 1:45:00 AM 9.68 49.424 0.44 8.13 5 10.53
10/19/2022 2:00:00 AM 9.64 49.352 0.442 8.12 2.73 10.5
10/19/2022 2:15:00 AM 9.59 49.262 0.441 8.12 2.38 10.48
10/19/2022 2:30:00 AM 9.55 49.19 0.442 8.12 2.23 10.45
10/19/2022 2:45:00 AM 9.53 49.154 0.441 8.11 2.25 10.4
10/19/2022 3:00:00 AM 9.49 49.082 0.441 8.1 2.15 10.39
10/19/2022 3:15:00 AM 9.46 49.028 0.441 8.09 2.53 10.36
10/19/2022 3:30:00 AM 9.44 48.992 0.442 8.09 2.29 10.34
10/19/2022 3:45:00 AM 9.42 48.956 0.441 8.09 2.36 10.32
10/19/2022 4:00:00 AM 9.38 48.884 0.441 8.07 2.26 10.3
10/19/2022 4:15:00 AM 9.36 48.848 0.442 8.08 2.24 10.29
10/19/2022 4:30:00 AM 9.34 48.812 0.442 8.08 2.12 10.26
10/19/2022 4:45:00 AM 9.32 48.776 0.442 8.07 2.19 10.25
10/19/2022 5:00:00 AM 9.31 48.758 0.442 8.07 2.26 10.25
10/19/2022 5:15:00 AM 8.72 47.696 0.415 7.58 1.96 9.61
10/19/2022 5:30:00 AM 9.17 48.506 0.438 8 2.1 10.15
10/19/2022 5:45:00 AM 9.23 48.614 0.442 8.05 2.12 10.21
10/19/2022 6:00:00 AM 9.22 48.596 0.443 8.06 2.08 10.2
10/19/2022 6:15:00 AM 9.21 48.578 0.442 8.06 2.15 10.19
10/19/2022 6:30:00 AM 9.18 48.524 0.443 8.06 2.21 10.17
10/19/2022 6:45:00 AM 9.17 48.506 0.443 8.06 2.34 10.19
10/19/2022 7:00:00 AM 9.14 48.452 0.444 8.05 2.12 10.2
10/19/2022 7:15:00 AM 9.12 48.416 0.443 8.06 2.12 10.2
10/19/2022 7:30:00 AM 9.1 48.38 0.442 8.06 2.15 10.2
10/19/2022 7:45:00 AM 9.08 48.344 0.443 8.06 2.28 10.2
10/19/2022 8:00:00 AM 9.07 48.326 0.444 8.06 2.71 10.2
10/19/2022 8:15:00 AM 9.06 48.308 0.444 8.05 2.8 10.21
10/19/2022 8:30:00 AM 8.68 47.624 0.427 7.73 2.52 9.8
10/19/2022 8:45:00 AM 8.99 48.182 0.442 8.02 2.3 10.18
10/19/2022 9:00:00 AM 9.02 48.236 0.444 8.06 2.43 10.27
10/19/2022 9:15:00 AM 9.01 48.218 0.444 8.06 2.59 10.32
10/19/2022 9:30:00 AM 9.02 48.236 0.444 8.08 2.36 10.4
10/19/2022 9:45:00 AM 9.01 48.218 0.444 8.08 2.48 10.43
10/19/2022 10:00:00 AM 9.02 48.236 0.445 8.09 2.32 10.51
10/19/2022 10:15:00 AM 9.05 48.29 0.445 8.11 2.36 10.6
10/19/2022 10:30:00 AM 9.08 48.344 0.445 8.12 2.29 10.69
10/19/2022 10:45:00 AM 9.12 48.416 0.444 8.15 2.15 10.81
10/19/2022 11:00:00 AM 9.15 48.47 0.445 8.16 2.18 10.89
10/19/2022 11:15:00 AM 9.18 48.524 0.444 8.18 2.03 11.02
10/19/2022 11:30:00 AM 9.21 48.578 0.445 8.2 2.22 11.15
10/19/2022 11:45:00 AM 9.24 48.632 0.445 8.22 2.08 11.26
10/19/2022 12:00:00 PM 9.3 48.74 0.446 8.25 1.98 11.38
10/19/2022 12:15:00 PM 9.35 48.83 0.445 8.27 1.92 11.54
10/19/2022 12:30:00 PM 9.39 48.902 0.445 8.29 1.89 11.64
10/19/2022 12:45:00 PM 9.42 48.956 0.444 8.31 1.94 11.73
10/19/2022 1:00:00 PM 9.45 49.01 0.445 8.32 2.08 11.83
10/19/2022 1:15:00 PM 9.49 49.082 0.444 8.34 1.99 11.92
10/19/2022 1:30:00 PM 9.15 48.47 0.428 8.02 1.92 11.55
10/19/2022 1:45:00 PM 9.52 49.136 0.442 8.32 2.24 12.01
10/19/2022 2:00:00 PM 9.61 49.298 0.445 8.38 10 12.14
10/19/2022 2:15:00 PM 9.66 49.388 0.445 8.4 3.92 12.23
10/19/2022 2:30:00 PM 9.71 49.478 0.446 8.41 2.46 12.31
10/19/2022 2:45:00 PM 9.75 49.55 0.444 8.43 2.23 12.39
10/19/2022 3:00:00 PM 9.38 48.884 0.427 8.1 2.47 11.94
10/19/2022 3:15:00 PM 9.74 49.532 0.443 8.4 2.21 12.43
10/19/2022 3:30:00 PM 9.81 49.658 0.445 8.45 2.25 12.55
10/19/2022 3:45:00 PM 9.83 49.694 0.444 8.46 1.94 12.6
10/19/2022 4:00:00 PM 9.86 49.748 0.445 8.48 3.14 12.66
10/19/2022 4:15:00 PM 9.89 49.802 0.444 8.49 2.06 12.72
10/19/2022 4:30:00 PM 9.9 49.82 0.445 8.49 1.9 12.75
10/19/2022 4:45:00 PM 9.9 49.82 0.444 8.5 1.96 12.78
10/19/2022 5:00:00 PM 9.9 49.82 0.444 8.51 2.18 12.83
10/19/2022 5:15:00 PM 9.9 49.82 0.445 8.52 1.91 12.86
10/19/2022 5:30:00 PM 9.89 49.802 0.445 8.52 1.81 12.88
10/19/2022 5:45:00 PM 9.88 49.784 0.445 8.53 2.24 12.89
10/19/2022 6:00:00 PM 9.86 49.748 0.445 8.53 1.9 12.87
10/19/2022 6:15:00 PM 9.85 49.73 0.446 8.52 1.88 12.86
10/19/2022 6:30:00 PM 9.84 49.712 0.445 8.52 1.82 12.83
10/19/2022 6:45:00 PM 9.81 49.658 0.447 8.52 1.99 12.78
10/19/2022 7:00:00 PM 9.79 49.622 0.447 8.51 1.88 12.73
10/19/2022 7:15:00 PM 9.77 49.586 0.447 8.5 1.92 12.67
10/19/2022 7:30:00 PM 9.74 49.532 0.448 8.49 1.9 12.6
10/19/2022 7:45:00 PM 9.72 49.496 0.447 8.48 2.04 12.53
10/19/2022 8:00:00 PM 9.7 49.46 0.448 8.47 2.01 12.46
10/19/2022 8:15:00 PM 9.67 49.406 0.448 8.46 2.7 12.36
10/19/2022 8:30:00 PM 9.64 49.352 0.448 8.45 2.27 12.29
10/19/2022 8:45:00 PM 9.61 49.298 0.448 8.43 2.03 12.22
10/19/2022 9:00:00 PM 9.58 49.244 0.45 8.42 1.99 12.13
10/19/2022 9:15:00 PM 9.55 49.19 0.449 8.4 2.1 12.02
10/19/2022 9:30:00 PM 9.52 49.136 0.449 8.39 2.02 11.95
10/19/2022 9:45:00 PM 9.48 49.064 0.45 8.37 1.93 11.88
10/19/2022 10:00:00 PM 9.44 48.992 0.451 8.36 3.23 11.79
10/19/2022 10:15:00 PM 9.4 48.92 0.45 8.35 2.15 11.72
10/19/2022 10:30:00 PM 9.37 48.866 0.451 8.33 2.03 11.64
10/19/2022 10:45:00 PM 9.34 48.812 0.451 8.31 1.94 11.58
10/19/2022 11:00:00 PM 9.3 48.74 0.452 8.31 1.96 11.52
10/19/2022 11:15:00 PM 9.26 48.668 0.451 8.29 1.98 11.46
10/19/2022 11:30:00 PM 9.23 48.614 0.452 8.28 1.93 11.41
10/19/2022 11:45:00 PM 9.2 48.56 0.452 8.27 2.02 11.36
10/20/2022 12:00:00 AM 9.18 48.524 0.453 8.27 2.02 11.32
10/20/2022 12:15:00 AM 9.16 48.488 0.452 8.26 2.72 11.27
10/20/2022 12:30:00 AM 9.13 48.434 0.453 8.25 2.23 11.24
10/20/2022 12:45:00 AM 9.09 48.362 0.454 8.24 2.06 11.21
10/20/2022 1:00:00 AM 9.06 48.308 0.454 8.23 2.01 11.17
10/20/2022 1:15:00 AM 9.03 48.254 0.454 8.23 2 11.14
10/20/2022 1:30:00 AM 9.01 48.218 0.454 8.22 2.16 11.11
10/20/2022 1:45:00 AM 9 48.2 0.454 8.21 1.94 11.08
10/20/2022 2:00:00 AM 8.98 48.164 0.455 8.21 2.48 11.02
10/20/2022 2:15:00 AM 8.96 48.128 0.454 8.2 2 10.99
10/20/2022 2:30:00 AM 8.94 48.092 0.455 8.19 1.95 10.97
10/20/2022 2:45:00 AM 8.93 48.074 0.455 8.19 2.14 10.92
10/20/2022 3:00:00 AM 8.91 48.038 0.456 8.17 2.05 10.9
10/20/2022 3:15:00 AM 8.9 48.02 0.455 8.17 2 10.86
10/20/2022 3:30:00 AM 8.9 48.02 0.456 8.16 1.97 10.84
10/20/2022 3:45:00 AM 8.89 48.002 0.456 8.16 1.93 10.82
10/20/2022 4:00:00 AM 8.88 47.984 0.456 8.16 2.04 10.8
10/20/2022 4:15:00 AM 8.85 47.93 0.456 8.15 2.15 10.78
10/20/2022 4:30:00 AM 8.82 47.876 0.457 8.14 2.03 10.76
10/20/2022 4:45:00 AM 8.79 47.822 0.456 8.14 2.12 10.75
10/20/2022 5:00:00 AM 8.77 47.786 0.457 8.14 2.09 10.73
10/20/2022 5:15:00 AM 8.74 47.732 0.457 8.14 2.03 10.72
10/20/2022 5:30:00 AM 8.72 47.696 0.456 8.13 1.99 10.7
10/20/2022 5:45:00 AM 8.7 47.66 0.457 8.13 1.98 10.69
10/20/2022 6:00:00 AM 8.67 47.606 0.457 8.14 1.98 10.69
10/20/2022 6:15:00 AM 8.65 47.57 0.456 8.13 1.97 10.68
10/20/2022 6:30:00 AM 8.62 47.516 0.458 8.13 2.01 10.67
10/20/2022 6:45:00 AM 8.6 47.48 0.457 8.12 2.01 10.67
10/20/2022 7:00:00 AM 8.57 47.426 0.458 8.13 1.97 10.65
10/20/2022 7:15:00 AM 8.54 47.372 0.458 8.12 2.07 10.65
10/20/2022 7:30:00 AM 8.52 47.336 0.459 8.12 2.14 10.63
10/20/2022 7:45:00 AM 8.49 47.282 0.458 8.12 2.04 10.6
10/20/2022 8:00:00 AM 8.46 47.228 0.458 8.11 2.01 10.6
10/20/2022 8:15:00 AM 8.43 47.174 0.458 8.11 2.32 10.6
10/20/2022 8:30:00 AM 8.41 47.138 0.458 8.12 2.11 10.61
10/20/2022 8:45:00 AM 8.39 47.102 0.459 8.12 2.09 10.62
10/20/2022 9:00:00 AM 8.37 47.066 0.459 8.11 2.04 10.64
10/20/2022 9:15:00 AM 8.35 47.03 0.459 8.12 2.17 10.67
10/20/2022 9:30:00 AM 8.35 47.03 0.459 8.12 2.03 10.7
10/20/2022 9:45:00 AM 8.36 47.048 0.459 8.13 1.96 10.74
10/20/2022 10:00:00 AM 8.39 47.102 0.458 8.14 2.01 10.8
10/20/2022 10:15:00 AM 8.43 47.174 0.46 8.15 2.05 10.87
10/20/2022 10:30:00 AM 8.45 47.21 0.458 8.16 2.37 10.98
10/20/2022 10:45:00 AM 8.47 47.246 0.458 8.18 2.63 11.09
10/20/2022 11:00:00 AM 8.53 47.354 0.458 8.19 2.21 11.19
10/20/2022 11:15:00 AM 8.57 47.426 0.459 8.22 2.31 11.33
10/20/2022 11:30:00 AM 8.62 47.516 0.458 8.24 2.19 11.47
10/20/2022 11:45:00 AM 8.67 47.606 0.458 8.26 2.19 11.6
10/20/2022 12:00:00 PM 8.72 47.696 0.458 8.29 1.98 11.74
10/20/2022 12:15:00 PM 8.77 47.786 0.459 8.31 1.95 11.87
10/20/2022 12:30:00 PM 8.26 46.868 0.43 7.82 1.77 11.24
10/20/2022 12:45:00 PM 8.75 47.75 0.453 8.28 2.11 11.98
10/20/2022 1:00:00 PM 8.85 47.93 0.457 8.36 2.14 12.18
10/20/2022 1:15:00 PM 8.88 47.984 0.457 8.38 1.92 12.31
10/20/2022 1:30:00 PM 8.92 48.056 0.458 8.4 2.04 12.41
10/20/2022 1:45:00 PM 8.94 48.092 0.456 8.41 1.84 12.49
10/20/2022 2:00:00 PM 8.96 48.128 0.457 8.42 1.92 12.56
10/20/2022 2:15:00 PM 8.98 48.164 0.457 8.43 1.92 12.61
10/20/2022 2:30:00 PM 9 48.2 0.458 8.44 1.83 12.66
10/20/2022 2:45:00 PM 9.02 48.236 0.456 8.45 1.82 12.7
10/20/2022 3:00:00 PM 9.04 48.272 0.457 8.46 1.95 12.74
10/20/2022 3:15:00 PM 9.06 48.308 0.456 8.46 1.94 12.76
10/20/2022 3:30:00 PM 9.07 48.326 0.456 8.47 2 12.79
10/20/2022 3:45:00 PM 9.09 48.362 0.456 8.48 1.91 12.83
10/20/2022 4:00:00 PM 9.11 48.398 0.457 8.48 1.82 12.9
10/20/2022 4:15:00 PM 9.12 48.416 0.456 8.49 1.84 12.95
10/20/2022 4:30:00 PM 9.13 48.434 0.456 8.5 1.84 12.98
10/20/2022 4:45:00 PM 9.14 48.452 0.455 8.51 1.84 13.02
10/20/2022 5:00:00 PM 9.15 48.47 0.457 8.52 1.82 13.05
10/20/2022 5:15:00 PM 9.16 48.488 0.456 8.52 1.87 13.1
10/20/2022 5:30:00 PM 9.16 48.488 0.457 8.52 1.86 13.13
10/20/2022 5:45:00 PM 9.17 48.506 0.456 8.53 1.8 13.16
10/20/2022 6:00:00 PM 9.17 48.506 0.457 8.53 1.78 13.17
10/20/2022 6:15:00 PM 9.16 48.488 0.456 8.53 1.82 13.15
10/20/2022 6:30:00 PM 9.16 48.488 0.457 8.53 1.85 13.13
10/20/2022 6:45:00 PM 9.16 48.488 0.456 8.53 1.83 13.09
10/20/2022 7:00:00 PM 9.15 48.47 0.456 8.52 1.83 13.04
10/20/2022 7:15:00 PM 9.14 48.452 0.456 8.52 1.81 12.98
10/20/2022 7:30:00 PM 9.13 48.434 0.457 8.51 1.9 12.91
10/20/2022 7:45:00 PM 9.12 48.416 0.457 8.5 1.96 12.82
10/20/2022 8:00:00 PM 9.11 48.398 0.457 8.49 1.93 12.75
10/20/2022 8:15:00 PM 9.09 48.362 0.458 8.48 3.65 12.67
10/20/2022 8:30:00 PM 9.06 48.308 0.458 8.46 2.14 12.58
10/20/2022 8:45:00 PM 9.04 48.272 0.459 8.44 1.91 12.47
10/20/2022 9:00:00 PM 9.02 48.236 0.458 8.43 1.81 12.37
10/20/2022 9:15:00 PM 9 48.2 0.459 8.41 1.9 12.28
10/20/2022 9:30:00 PM 8.98 48.164 0.458 8.4 1.87 12.19
10/20/2022 9:45:00 PM 8.96 48.128 0.459 8.38 1.84 12.1
10/20/2022 10:00:00 PM 8.94 48.092 0.459 8.37 1.87 12.01
10/20/2022 10:15:00 PM 8.92 48.056 0.46 8.36 1.84 11.94
10/20/2022 10:30:00 PM 8.91 48.038 0.46 8.34 1.95 11.88
10/20/2022 10:45:00 PM 8.89 48.002 0.46 8.33 1.87 11.82
10/20/2022 11:00:00 PM 8.87 47.966 0.46 8.32 2.01 11.76
10/20/2022 11:15:00 PM 8.85 47.93 0.46 8.31 2 11.71
10/20/2022 11:30:00 PM 8.84 47.912 0.46 8.31 2.04 11.67
10/20/2022 11:45:00 PM 8.83 47.894 0.46 8.29 2.02 11.62
10/21/2022 12:00:00 AM 8.81 47.858 0.461 8.29 1.99 11.58
10/21/2022 12:15:00 AM 8.79 47.822 0.46 8.28 2 11.55
10/21/2022 12:30:00 AM 8.77 47.786 0.461 8.27 2.05 11.51
10/21/2022 12:45:00 AM 8.21 46.778 0.431 7.75 1.92 10.74
10/21/2022 1:00:00 AM 8.67 47.606 0.456 8.18 2.01 11.33
10/21/2022 1:15:00 AM 8.71 47.678 0.46 8.24 2.01 11.37
10/21/2022 1:30:00 AM 8.69 47.642 0.46 8.24 2.02 11.35
10/21/2022 1:45:00 AM 8.66 47.588 0.461 8.23 2.18 11.31
10/21/2022 2:00:00 AM 8.62 47.516 0.461 8.22 2.14 11.28
10/21/2022 2:15:00 AM 8.58 47.444 0.462 8.21 2.18 11.24
10/21/2022 2:30:00 AM 8.55 47.39 0.461 8.21 2.08 11.21
10/21/2022 2:45:00 AM 8.51 47.318 0.463 8.2 2.09 11.18
10/21/2022 3:00:00 AM 8.47 47.246 0.462 8.19 2.09 11.15
10/21/2022 3:15:00 AM 8.44 47.192 0.463 8.19 2.03 11.12
10/21/2022 3:30:00 AM 8.4 47.12 0.462 8.18 2.08 11.1
10/21/2022 3:45:00 AM 8.36 47.048 0.463 8.17 2.02 11.07
10/21/2022 4:00:00 AM 8.33 46.994 0.462 8.17 2.01 11.05
10/21/2022 4:15:00 AM 8.29 46.922 0.463 8.16 1.99 11.04
10/21/2022 4:30:00 AM 8.25 46.85 0.463 8.16 1.99 11.02
10/21/2022 4:45:00 AM 8.21 46.778 0.463 8.16 2.03 11
10/21/2022 5:00:00 AM 8.17 46.706 0.463 8.16 2.02 10.99
10/21/2022 5:15:00 AM 8.13 46.634 0.463 8.15 2.1 10.99
10/21/2022 5:30:00 AM 8.09 46.562 0.463 8.15 2.31 10.98
10/21/2022 5:45:00 AM 8.05 46.49 0.465 8.14 2.03 10.97
10/21/2022 6:00:00 AM 8.01 46.418 0.463 8.14 2.03 10.96
10/21/2022 6:15:00 AM 7.96 46.328 0.464 8.14 1.99 10.95
10/21/2022 6:30:00 AM 7.92 46.256 0.463 8.14 2.05 10.94
10/21/2022 6:45:00 AM 7.88 46.184 0.463 8.13 2.36 10.93
10/21/2022 7:00:00 AM 7.84 46.112 0.464 8.13 2.53 10.93
10/21/2022 7:15:00 AM 7.79 46.022 0.464 8.13 2.11 10.92
10/21/2022 7:30:00 AM 7.75 45.95 0.464 8.13 2.71 10.92
10/21/2022 7:45:00 AM 7.71 45.878 0.464 8.13 2.18 10.91
10/21/2022 8:00:00 AM 7.68 45.824 0.464 8.12 2.05 10.92
10/21/2022 8:15:00 AM 7.65 45.77 0.464 8.12 2.08 10.91
10/21/2022 8:30:00 AM 7.62 45.716 0.465 8.13 2.02 10.93
10/21/2022 8:45:00 AM 7.59 45.662 0.464 8.12 1.99 10.95
10/21/2022 9:00:00 AM 7.56 45.608 0.465 8.13 1.95 10.97
10/21/2022 9:15:00 AM 7.56 45.608 0.464 8.13 1.95 11
10/21/2022 9:30:00 AM 7.55 45.59 0.464 8.14 1.91 10.95
10/21/2022 9:45:00 AM 7.56 45.608 0.464 8.14 1.94 11.06
10/21/2022 10:00:00 AM 7.57 45.626 0.464 8.15 2.09 11.12
10/21/2022 10:15:00 AM 7.59 45.662 0.463 8.16 1.93 11.19
10/21/2022 10:30:00 AM 7.62 45.716 0.464 8.16 1.93 11.25
10/21/2022 10:45:00 AM 7.66 45.788 0.464 8.18 1.93 11.33
10/21/2022 11:00:00 AM 7.7 45.86 0.463 8.19 2 11.41
10/21/2022 11:15:00 AM 7.76 45.968 0.463 8.21 1.91 11.52
10/21/2022 11:30:00 AM 7.82 46.076 0.463 8.22 1.86 11.6
10/21/2022 11:45:00 AM 7.89 46.202 0.463 8.24 1.84 11.71
10/21/2022 12:00:00 PM 7.98 46.364 0.462 8.26 2.17 11.85
10/21/2022 12:15:00 PM 8.07 46.526 0.463 8.28 2.3 11.96
10/21/2022 12:30:00 PM 8.16 46.688 0.462 8.3 2.88 12.06
10/21/2022 12:45:00 PM 8.28 46.904 0.463 8.32 2.29 12.17
10/21/2022 1:00:00 PM 8.41 47.138 0.462 8.34 1.97 12.28
10/21/2022 1:15:00 PM 8.54 47.372 0.462 8.35 1.93 12.39
10/21/2022 1:30:00 PM 8.66 47.588 0.462 8.37 1.93 12.49
10/21/2022 1:45:00 PM 8.77 47.786 0.46 8.39 1.89 12.56
10/21/2022 2:00:00 PM 8.86 47.948 0.46 8.4 1.93 12.6
10/21/2022 2:15:00 PM 8.95 48.11 0.46 8.41 1.88 12.65
10/21/2022 2:30:00 PM 9.04 48.272 0.46 8.41 1.86 12.7
10/21/2022 2:45:00 PM 9.12 48.416 0.461 8.43 1.91 12.73
10/21/2022 3:00:00 PM 9.2 48.56 0.46 8.44 1.9 12.77
10/21/2022 3:15:00 PM 9.25 48.65 0.46 8.44 1.87 12.79
10/21/2022 3:30:00 PM 9.26 48.668 0.46 8.44 1.84 12.8
10/21/2022 3:45:00 PM 9.29 48.722 0.461 8.45 1.81 12.8
10/21/2022 4:00:00 PM 9.32 48.776 0.46 8.45 1.8 12.81
10/21/2022 4:15:00 PM 9.33 48.794 0.46 8.45 1.86 12.81
10/21/2022 4:30:00 PM 9.35 48.83 0.459 8.45 1.87 12.81
10/21/2022 4:45:00 PM 9.38 48.884 0.461 8.46 1.88 12.8
10/21/2022 5:00:00 PM 9.4 48.92 0.46 8.46 1.81 12.77
10/21/2022 5:15:00 PM 9.43 48.974 0.461 8.46 1.75 12.77
10/21/2022 5:30:00 PM 9.46 49.028 0.459 8.46 1.77 12.76
10/21/2022 5:45:00 PM 9.48 49.064 0.459 8.46 1.78 12.75
10/21/2022 6:00:00 PM 9.48 49.064 0.459 8.45 1.83 12.73
10/21/2022 6:15:00 PM 9.49 49.082 0.46 8.45 1.79 12.69
10/21/2022 6:30:00 PM 9.48 49.064 0.46 8.45 1.84 12.66
10/21/2022 6:45:00 PM 9.47 49.046 0.461 8.44 1.96 12.62
10/21/2022 7:00:00 PM 9.46 49.028 0.46 8.43 1.83 12.57
10/21/2022 7:15:00 PM 9.45 49.01 0.46 8.43 1.81 12.52
10/21/2022 7:30:00 PM 9.43 48.974 0.46 8.42 1.76 12.46
10/21/2022 7:45:00 PM 9.42 48.956 0.46 8.41 1.81 12.41
10/21/2022 8:00:00 PM 9.4 48.92 0.462 8.41 1.85 12.35
10/21/2022 8:15:00 PM 9.38 48.884 0.46 8.39 1.83 12.3
10/21/2022 8:30:00 PM 9.36 48.848 0.462 8.39 1.89 12.23
10/21/2022 8:45:00 PM 9.32 48.776 0.461 8.38 1.87 12.18
10/21/2022 9:00:00 PM 9.29 48.722 0.462 8.36 1.88 12.11
10/21/2022 9:15:00 PM 9.26 48.668 0.461 8.35 1.84 12.04
10/21/2022 9:30:00 PM 9.22 48.596 0.463 8.34 1.96 11.98
10/21/2022 9:45:00 PM 9.18 48.524 0.462 8.33 1.94 11.92
10/21/2022 10:00:00 PM 9.14 48.452 0.463 8.32 1.87 11.86
10/21/2022 10:15:00 PM 9.1 48.38 0.462 8.31 1.92 11.8
10/21/2022 10:30:00 PM 9.05 48.29 0.462 8.3 1.97 11.75
10/21/2022 10:45:00 PM 9.01 48.218 0.462 8.29 1.89 11.71
10/21/2022 11:00:00 PM 8.97 48.146 0.462 8.28 1.88 11.67
10/21/2022 11:15:00 PM 8.92 48.056 0.463 8.27 1.89 11.63
10/21/2022 11:30:00 PM 8.87 47.966 0.464 8.26 1.92 11.58
10/21/2022 11:45:00 PM 8.82 47.876 0.463 8.25 1.93 11.54
10/22/2022 12:00:00 AM 8.77 47.786 0.464 8.25 1.98 11.51
10/22/2022 12:15:00 AM 8.72 47.696 0.464 8.23 1.9 11.48
10/22/2022 12:30:00 AM 8.67 47.606 0.465 8.23 2.08 11.43
10/22/2022 12:45:00 AM 8.62 47.516 0.464 8.22 1.94 11.4
10/22/2022 1:00:00 AM 8.56 47.408 0.465 8.21 1.91 11.37
10/22/2022 1:15:00 AM 8.52 47.336 0.464 8.2 1.98 11.34
10/22/2022 1:30:00 AM 8.47 47.246 0.465 8.19 1.94 11.3
10/22/2022 1:45:00 AM 8.42 47.156 0.465 8.18 1.95 11.26
10/22/2022 2:00:00 AM 8.38 47.084 0.466 8.18 1.93 11.23
10/22/2022 2:15:00 AM 8.34 47.012 0.466 8.17 2.02 11.2
10/22/2022 2:30:00 AM 8.31 46.958 0.467 8.17 2.02 11.18
10/22/2022 2:45:00 AM 8.27 46.886 0.467 8.15 1.93 11.15
10/22/2022 3:00:00 AM 8.23 46.814 0.466 8.15 1.95 11.12
10/22/2022 3:15:00 AM 8.2 46.76 0.466 8.14 1.96 11.09
10/22/2022 3:30:00 AM 8.18 46.724 0.468 8.14 1.99 11.08
10/22/2022 3:45:00 AM 8.17 46.706 0.467 8.14 2.04 11.06
10/22/2022 4:00:00 AM 8.15 46.67 0.468 8.14 2.03 11.05
10/22/2022 4:15:00 AM 8.12 46.616 0.467 8.13 2.03 11.03
10/22/2022 4:30:00 AM 8.1 46.58 0.468 8.13 1.93 11
10/22/2022 4:45:00 AM 8.08 46.544 0.469 8.13 1.97 10.99
10/22/2022 5:00:00 AM 8.06 46.508 0.469 8.12 2.03 10.97
10/22/2022 5:15:00 AM 8.04 46.472 0.468 8.12 2.03 10.94
10/22/2022 5:30:00 AM 8.02 46.436 0.469 8.12 2.13 10.92
10/22/2022 5:45:00 AM 8 46.4 0.47 8.11 1.98 10.92
10/22/2022 6:00:00 AM 7.98 46.364 0.469 8.11 1.94 10.9
10/22/2022 6:15:00 AM 7.95 46.31 0.469 8.11 2.07 10.89
10/22/2022 6:30:00 AM 7.92 46.256 0.469 8.1 2.05 10.88
10/22/2022 6:45:00 AM 7.9 46.22 0.47 8.1 2 10.86
10/22/2022 7:00:00 AM 7.87 46.166 0.471 8.1 2 10.84
10/22/2022 7:15:00 AM 7.85 46.13 0.47 8.1 1.99 10.83
10/22/2022 7:30:00 AM 7.83 46.094 0.47 8.1 2.03 10.82
10/22/2022 7:45:00 AM 7.82 46.076 0.471 8.1 1.96 10.82
10/22/2022 8:00:00 AM 7.8 46.04 0.471 8.09 2.1 10.82
10/22/2022 8:15:00 AM 7.78 46.004 0.471 8.09 2.2 10.83
10/22/2022 8:30:00 AM 7.76 45.968 0.471 8.09 2.22 10.83
10/22/2022 8:45:00 AM 7.74 45.932 0.472 8.09 1.98 10.85
10/22/2022 9:00:00 AM 7.73 45.914 0.471 8.1 1.94 10.87
10/22/2022 9:15:00 AM 7.72 45.896 0.473 8.1 2.33 10.89
10/22/2022 9:30:00 AM 7.72 45.896 0.471 8.1 2.04 10.92
10/22/2022 9:45:00 AM 7.73 45.914 0.473 8.11 1.92 10.95
10/22/2022 10:00:00 AM 7.75 45.95 0.472 8.11 2.06 11
10/22/2022 10:15:00 AM 7.77 45.986 0.473 8.12 1.96 11.04
10/22/2022 10:30:00 AM 7.49 45.482 0.454 7.8 1.79 10.64
10/22/2022 10:45:00 AM 7.81 46.058 0.47 8.09 1.88 11.08
10/22/2022 11:00:00 AM 7.9 46.22 0.473 8.13 1.91 11.22
10/22/2022 11:15:00 AM 7.96 46.328 0.473 8.16 1.89 11.31
10/22/2022 11:30:00 AM 8.03 46.454 0.472 8.18 1.89 11.4
10/22/2022 11:45:00 AM 8.11 46.598 0.473 8.19 1.87 11.51
10/22/2022 12:00:00 PM 8.19 46.742 0.473 8.21 1.88 11.61
10/22/2022 12:15:00 PM 8.3 46.94 0.474 8.23 1.97 11.73
10/22/2022 12:30:00 PM 8.43 47.174 0.473 8.24 1.91 11.84
10/22/2022 12:45:00 PM 8.6 47.48 0.473 8.28 1.87 12
10/22/2022 1:00:00 PM 8.79 47.822 0.473 8.3 1.87 12.15
10/22/2022 1:15:00 PM 8.97 48.146 0.474 8.33 1.84 12.29
10/22/2022 1:30:00 PM 9.14 48.452 0.473 8.35 1.87 12.42
10/22/2022 1:45:00 PM 9.26 48.668 0.473 8.36 2 12.49
10/22/2022 2:00:00 PM 9.39 48.902 0.472 8.37 2.08 12.56
10/22/2022 2:15:00 PM 9.52 49.136 0.473 8.4 2.1 12.64
10/22/2022 2:30:00 PM 9.63 49.334 0.473 8.41 1.83 12.69
10/22/2022 2:45:00 PM 9.73 49.514 0.473 8.42 1.79 12.73
10/22/2022 3:00:00 PM 9.8 49.64 0.473 8.42 1.86 12.76
10/22/2022 3:15:00 PM 9.83 49.694 0.474 8.42 1.79 12.76
10/22/2022 3:30:00 PM 9.88 49.784 0.472 8.42 1.79 12.76
10/22/2022 3:45:00 PM 9.93 49.874 0.473 8.43 1.74 12.77
10/22/2022 4:00:00 PM 9.96 49.928 0.473 8.43 1.8 12.78
10/22/2022 4:15:00 PM 9.99 49.982 0.473 8.43 1.74 12.77
10/22/2022 4:30:00 PM 10.04 50.072 0.473 8.44 1.72 12.77
10/22/2022 4:45:00 PM 10.09 50.162 0.473 8.44 1.73 12.67
10/22/2022 5:00:00 PM 10.12 50.216 0.472 8.44 1.76 12.75
10/22/2022 5:15:00 PM 10.15 50.27 0.473 8.45 1.76 12.76
10/22/2022 5:30:00 PM 10.18 50.324 0.473 8.45 1.71 12.74
10/22/2022 5:45:00 PM 10.2 50.36 0.473 8.45 1.8 12.73
10/22/2022 6:00:00 PM 10.21 50.378 0.472 8.44 1.76 12.71
10/22/2022 6:15:00 PM 10.21 50.378 0.473 8.44 1.74 12.68
10/22/2022 6:30:00 PM 10.21 50.378 0.473 8.43 1.73 12.62
10/22/2022 6:45:00 PM 10.2 50.36 0.474 8.43 1.74 12.58
10/22/2022 7:00:00 PM 10.2 50.36 0.473 8.42 1.82 12.53
10/22/2022 7:15:00 PM 10.19 50.342 0.473 8.41 1.82 12.47
10/22/2022 7:30:00 PM 10.18 50.324 0.473 8.41 1.79 12.42
10/22/2022 7:45:00 PM 10.17 50.306 0.473 8.4 1.82 12.35
10/22/2022 8:00:00 PM 10.15 50.27 0.475 8.39 1.79 12.29
10/22/2022 8:15:00 PM 10.13 50.234 0.473 8.38 1.89 12.23
10/22/2022 8:30:00 PM 10.11 50.198 0.475 8.37 1.89 12.16
10/22/2022 8:45:00 PM 10.09 50.162 0.473 8.36 1.87 12.09
10/22/2022 9:00:00 PM 10.06 50.108 0.475 8.35 1.9 12.02
10/22/2022 9:15:00 PM 10.04 50.072 0.474 8.33 1.92 11.94
10/22/2022 9:30:00 PM 10 50 0.474 8.32 1.93 11.87
10/22/2022 9:45:00 PM 9.97 49.946 0.474 8.31 1.87 11.8
10/22/2022 10:00:00 PM 9.93 49.874 0.475 8.3 2 11.73
10/22/2022 10:15:00 PM 9.89 49.802 0.474 8.29 2.01 11.67
10/22/2022 10:30:00 PM 9.85 49.73 0.476 8.28 1.99 11.61
10/22/2022 10:45:00 PM 9.81 49.658 0.474 8.27 1.96 11.55
10/22/2022 11:00:00 PM 9.77 49.586 0.475 8.26 1.9 11.5
10/22/2022 11:15:00 PM 9.72 49.496 0.474 8.25 1.95 11.46
10/22/2022 11:30:00 PM 9.68 49.424 0.476 8.24 1.97 11.41
10/22/2022 11:45:00 PM 9.63 49.334 0.474 8.23 2.02 11.37
10/23/2022 12:00:00 AM 9.58 49.244 0.475 8.23 1.97 11.33
10/23/2022 12:15:00 AM 9.53 49.154 0.475 8.22 1.97 11.3
10/23/2022 12:30:00 AM 9.48 49.064 0.475 8.21 1.99 11.26
10/23/2022 12:45:00 AM 9.42 48.956 0.475 8.2 1.95 11.22
10/23/2022 1:00:00 AM 9.37 48.866 0.475 8.19 2.01 11.18
10/23/2022 1:15:00 AM 9.32 48.776 0.475 8.18 1.97 11.15
10/23/2022 1:30:00 AM 9.26 48.668 0.475 8.18 1.97 11.11
10/23/2022 1:45:00 AM 9.22 48.596 0.475 8.17 1.99 11.07
10/23/2022 2:00:00 AM 9.17 48.506 0.475 8.16 2.08 11.03
10/23/2022 2:15:00 AM 9.13 48.434 0.475 8.15 2.09 10.99
10/23/2022 2:30:00 AM 9.09 48.362 0.475 8.14 2.05 10.97
10/23/2022 2:45:00 AM 9.06 48.308 0.475 8.14 2.11 10.94
10/23/2022 3:00:00 AM 9.03 48.254 0.475 8.13 2.08 10.91
10/23/2022 3:15:00 AM 9 48.2 0.474 8.13 2.12 10.9
10/23/2022 3:30:00 AM 8.97 48.146 0.475 8.12 2.06 10.87
10/23/2022 3:45:00 AM 8.94 48.092 0.475 8.12 2.1 10.83
10/23/2022 4:00:00 AM 8.92 48.056 0.475 8.11 2.12 10.82
10/23/2022 4:15:00 AM 8.9 48.02 0.474 8.11 2.06 10.8
10/23/2022 4:30:00 AM 8.88 47.984 0.475 8.1 2.1 10.78
10/23/2022 4:45:00 AM 8.87 47.966 0.474 8.1 2.04 10.76
10/23/2022 5:00:00 AM 8.85 47.93 0.475 8.1 2.05 10.66
10/23/2022 5:15:00 AM 8.84 47.912 0.474 8.1 2.14 10.72
10/23/2022 5:30:00 AM 8.82 47.876 0.475 8.1 2.17 10.72
10/23/2022 5:45:00 AM 8.81 47.858 0.475 8.1 2.16 10.71
10/23/2022 6:00:00 AM 8.79 47.822 0.474 8.1 2.1 10.69
10/23/2022 6:15:00 AM 8.76 47.768 0.474 8.09 2.16 10.67
10/23/2022 6:30:00 AM 8.74 47.732 0.474 8.09 2.15 10.66
10/23/2022 6:45:00 AM 8.72 47.696 0.474 8.08 2.15 10.64
10/23/2022 7:00:00 AM 8.7 47.66 0.473 8.09 2.16 10.64
10/23/2022 7:15:00 AM 8.66 47.588 0.473 8.08 2.25 10.63
10/23/2022 7:30:00 AM 8.64 47.552 0.474 8.08 2.39 10.62
10/23/2022 7:45:00 AM 8.61 47.498 0.473 8.08 2.14 10.6
10/23/2022 8:00:00 AM 8.59 47.462 0.474 8.08 2.1 10.59
10/23/2022 8:15:00 AM 8.56 47.408 0.473 8.07 2.22 10.59
10/23/2022 8:30:00 AM 8.54 47.372 0.474 8.08 2.13 10.6
10/23/2022 8:45:00 AM 8.52 47.336 0.473 8.07 2.1 10.6
10/23/2022 9:00:00 AM 8.51 47.318 0.473 8.08 2.08 10.62
10/23/2022 9:15:00 AM 8.5 47.3 0.473 8.08 2.02 10.63
10/23/2022 9:30:00 AM 8.5 47.3 0.473 8.08 1.97 10.65
10/23/2022 9:45:00 AM 8.51 47.318 0.472 8.08 1.99 10.68
10/23/2022 10:00:00 AM 8.53 47.354 0.473 8.09 1.98 10.75
10/23/2022 10:15:00 AM 8.56 47.408 0.471 8.1 1.9 10.83
10/23/2022 10:30:00 AM 8.58 47.444 0.473 8.11 1.94 10.89
10/23/2022 10:45:00 AM 8.62 47.516 0.472 8.11 1.96 10.96
10/23/2022 11:00:00 AM 8.66 47.588 0.473 8.13 1.94 11.04
10/23/2022 11:15:00 AM 8.71 47.678 0.472 8.14 2.04 11.11
10/23/2022 11:30:00 AM 8.79 47.822 0.472 8.16 2.27 11.25
10/23/2022 11:45:00 AM 8.88 47.984 0.471 8.18 2.13 11.38
10/23/2022 12:00:00 PM 8.98 48.164 0.472 8.21 1.97 11.5
10/23/2022 12:15:00 PM 9.08 48.344 0.471 8.22 1.9 11.67
10/23/2022 12:30:00 PM 9.2 48.56 0.471 8.24 1.98 11.79
10/23/2022 12:45:00 PM 9.32 48.776 0.469 8.26 1.94 11.91
10/23/2022 1:00:00 PM 9.42 48.956 0.47 8.28 1.85 12.02
10/23/2022 1:15:00 PM 9.56 49.208 0.47 8.31 1.8 12.12
10/23/2022 1:30:00 PM 9.67 49.406 0.47 8.32 1.91 12.22
10/23/2022 1:45:00 PM 9.41 48.938 0.45 8 1.76 11.85
10/23/2022 2:00:00 PM 9.87 49.766 0.466 8.31 1.87 12.35
10/23/2022 2:15:00 PM 10.02 50.036 0.467 8.36 1.87 12.51
10/23/2022 2:30:00 PM 10.13 50.234 0.469 8.38 1.86 12.56
10/23/2022 2:45:00 PM 10.23 50.414 0.468 8.4 1.93 12.56
10/23/2022 3:00:00 PM 10.31 50.558 0.468 8.4 2.02 12.69
10/23/2022 3:15:00 PM 10.38 50.684 0.467 8.42 1.89 12.71
10/23/2022 3:30:00 PM 10.46 50.828 0.468 8.42 1.84 12.77
10/23/2022 3:45:00 PM 10.51 50.918 0.467 8.43 1.91 12.81
10/23/2022 4:00:00 PM 10.56 51.008 0.467 8.43 1.78 12.83
10/23/2022 4:15:00 PM 10.61 51.098 0.466 8.44 1.76 12.85
10/23/2022 4:30:00 PM 10.65 51.17 0.466 8.45 1.85 12.87
10/23/2022 4:45:00 PM 10.69 51.242 0.468 8.45 1.81 12.87
10/23/2022 5:00:00 PM 10.73 51.314 0.466 8.45 1.79 12.9
10/23/2022 5:15:00 PM 10.77 51.386 0.466 8.46 1.81 12.92
10/23/2022 5:30:00 PM 10.81 51.458 0.466 8.46 1.79 12.92
10/23/2022 5:45:00 PM 10.84 51.512 0.466 8.47 2.72 12.93
10/23/2022 6:00:00 PM 10.86 51.548 0.465 8.47 2.01 12.89
10/23/2022 6:15:00 PM 10.87 51.566 0.467 8.46 1.85 12.86
10/23/2022 6:30:00 PM 10.88 51.584 0.466 8.45 1.9 12.8
10/23/2022 6:45:00 PM 10.88 51.584 0.467 8.45 1.97 12.75
10/23/2022 7:00:00 PM 10.88 51.584 0.466 8.45 1.95 12.69
10/23/2022 7:15:00 PM 10.89 51.602 0.468 8.44 1.82 12.64
10/23/2022 7:30:00 PM 10.89 51.602 0.466 8.43 1.86 12.56
10/23/2022 7:45:00 PM 10.89 51.602 0.467 8.42 1.87 12.48
10/23/2022 8:00:00 PM 10.89 51.602 0.468 8.41 1.88 12.4
10/23/2022 8:15:00 PM 10.89 51.602 0.468 8.4 1.87 12.32
10/23/2022 8:30:00 PM 10.89 51.602 0.467 8.39 2 12.24
10/23/2022 8:45:00 PM 10.88 51.584 0.468 8.37 2.05 12.14
10/23/2022 9:00:00 PM 10.87 51.566 0.467 8.36 1.99 12.05
10/23/2022 9:15:00 PM 10.86 51.548 0.469 8.34 2.01 11.95
10/23/2022 9:30:00 PM 10.84 51.512 0.468 8.33 2.05 11.85
10/23/2022 9:45:00 PM 10.83 51.494 0.47 8.32 2.07 11.77
10/23/2022 10:00:00 PM 10.82 51.476 0.468 8.3 2.02 11.69
10/23/2022 10:15:00 PM 10.8 51.44 0.468 8.29 2.17 11.62
10/23/2022 10:30:00 PM 10.79 51.422 0.468 8.28 2.12 11.55
10/23/2022 10:45:00 PM 10.77 51.386 0.468 8.26 2.08 11.48
10/23/2022 11:00:00 PM 10.75 51.35 0.469 8.26 1.98 11.42
10/23/2022 11:15:00 PM 10.73 51.314 0.469 8.24 2.3 11.35
10/23/2022 11:30:00 PM 10.7 51.26 0.469 8.24 2.14 11.31
10/23/2022 11:45:00 PM 10.68 51.224 0.469 8.23 2.05 11.25
10/24/2022 12:00:00 AM 10.66 51.188 0.47 8.21 2.04 11.2
10/24/2022 12:15:00 AM 10.64 51.152 0.469 8.2 2.09 11.16
10/24/2022 12:30:00 AM 10.62 51.116 0.471 8.2 2.08 11.1
10/24/2022 12:45:00 AM 10.61 51.098 0.47 8.19 2.18 11.06
10/24/2022 1:00:00 AM 10.59 51.062 0.471 8.18 2.25 11
10/24/2022 1:15:00 AM 10.57 51.026 0.47 8.17 2.17 10.96
10/24/2022 1:30:00 AM 10.56 51.008 0.47 8.16 2.12 10.92
10/24/2022 1:45:00 AM 10.55 50.99 0.47 8.15 2.05 10.88
10/24/2022 2:00:00 AM 10.55 50.99 0.47 8.14 2.13 10.83
10/24/2022 2:15:00 AM 10.54 50.972 0.47 8.14 2.15 10.79
10/24/2022 2:30:00 AM 10.54 50.972 0.471 8.13 2.16 10.75
10/24/2022 2:45:00 AM 10.54 50.972 0.471 8.12 2.28 10.71
10/24/2022 3:00:00 AM 10.55 50.99 0.471 8.11 2.34 10.66
10/24/2022 3:15:00 AM 10.55 50.99 0.472 8.1 2.51 10.62
10/24/2022 3:30:00 AM 10.56 51.008 0.47 8.1 2.57 10.58
10/24/2022 3:45:00 AM 10.57 51.026 0.471 8.09 2.6 10.55
10/24/2022 4:00:00 AM 10.59 51.062 0.472 8.09 2.36 10.51
10/24/2022 4:15:00 AM 10.6 51.08 0.471 8.09 2.35 10.5
10/24/2022 4:30:00 AM 10.62 51.116 0.471 8.08 2.19 10.47
10/24/2022 4:45:00 AM 10.64 51.152 0.471 8.08 2.19 10.43
10/24/2022 5:00:00 AM 10.66 51.188 0.472 8.08 2.24 10.41
10/24/2022 5:15:00 AM 10.67 51.206 0.471 8.07 2.19 10.39
10/24/2022 5:30:00 AM 10.69 51.242 0.471 8.07 2.12 10.37
10/24/2022 5:45:00 AM 10.71 51.278 0.469 8.07 2.07 10.34
10/24/2022 6:00:00 AM 10.73 51.314 0.47 8.07 2.13 10.33
10/24/2022 6:15:00 AM 10.75 51.35 0.47 8.07 2.23 10.31
10/24/2022 6:30:00 AM 10.77 51.386 0.47 8.06 2.18 10.3
10/24/2022 6:45:00 AM 10.78 51.404 0.47 8.06 2.1 10.27
10/24/2022 7:00:00 AM 10.8 51.44 0.47 8.06 2.12 10.25
10/24/2022 7:15:00 AM 10.81 51.458 0.47 8.05 2.08 10.24
10/24/2022 7:30:00 AM 10.82 51.476 0.47 8.05 2.5 10.23
10/24/2022 7:45:00 AM 10.83 51.494 0.47 8.05 3.32 10.18
10/24/2022 8:00:00 AM 10.84 51.512 0.47 8.05 2.63 10.19
10/24/2022 8:15:00 AM 10.85 51.53 0.469 8.05 2.61 10.15
10/24/2022 8:30:00 AM 10.86 51.548 0.469 8.05 2.43 10.15
10/24/2022 8:45:00 AM 10.88 51.584 0.469 8.05 2.5 10.16
10/24/2022 9:00:00 AM 10.91 51.638 0.469 8.04 2.48 10.15
10/24/2022 9:15:00 AM 10.93 51.674 0.469 8.05 2.44 10.14
10/24/2022 9:30:00 AM 10.95 51.71 0.47 8.05 2.25 10.2
10/24/2022 9:45:00 AM 10.98 51.764 0.47 8.06 2.15 10.24
10/24/2022 10:00:00 AM 11.01 51.818 0.47 8.06 2.14 10.28
10/24/2022 10:15:00 AM 11.04 51.872 0.468 8.06 2.1 10.33
10/24/2022 10:30:00 AM 11.09 51.962 0.469 8.08 2.25 10.4
10/24/2022 10:45:00 AM 11.14 52.052 0.469 8.08 2.05 10.42
10/24/2022 11:00:00 AM 11.19 52.142 0.47 8.09 2 10.49
10/24/2022 11:15:00 AM 11.25 52.25 0.468 8.1 2.03 10.59
10/24/2022 11:30:00 AM 11.32 52.376 0.467 8.12 1.91 10.68
10/24/2022 11:45:00 AM 11.39 52.502 0.467 8.14 1.93 10.77
10/24/2022 12:00:00 PM 11.45 52.61 0.467 8.16 1.85 10.9
10/24/2022 12:15:00 PM 11.49 52.682 0.467 8.17 1.86 11.02
10/24/2022 12:30:00 PM 11.53 52.754 0.467 8.19 1.91 11.12
10/24/2022 12:45:00 PM 11.12 52.016 0.45 7.88 1.8 10.82
10/24/2022 1:00:00 PM 11.62 52.916 0.465 8.19 1.9 11.34
10/24/2022 1:15:00 PM 11.77 53.186 0.467 8.25 1.85 11.54
10/24/2022 1:30:00 PM 11.87 53.366 0.466 8.28 1.88 11.7
10/24/2022 1:45:00 PM 11.97 53.546 0.466 8.3 1.83 11.8
10/24/2022 2:00:00 PM 12.06 53.708 0.465 8.32 1.87 11.95
10/24/2022 2:15:00 PM 12.14 53.852 0.465 8.34 1.9 12.05
10/24/2022 2:30:00 PM 12.22 53.996 0.465 8.36 1.81 12.16
10/24/2022 2:45:00 PM 12.3 54.14 0.465 8.38 1.8 12.3
10/24/2022 3:00:00 PM 12.35 54.23 0.465 8.39 1.83 12.36
10/24/2022 3:15:00 PM 12.43 54.374 0.464 8.41 2.22 12.48
10/24/2022 3:30:00 PM 12.48 54.464 0.464 8.41 1.87 12.52
10/24/2022 3:45:00 PM 12.55 54.59 0.463 8.43 1.9 12.57
10/24/2022 4:00:00 PM 12.61 54.698 0.463 8.44 1.99 12.6
10/24/2022 4:15:00 PM 12.66 54.788 0.463 8.44 1.9 12.65
10/24/2022 4:30:00 PM 12.72 54.896 0.464 8.45 1.85 12.69
10/24/2022 4:45:00 PM 12.76 54.968 0.463 8.45 1.94 12.71
10/24/2022 5:00:00 PM 12.81 55.058 0.464 8.45 1.86 12.73
10/24/2022 5:15:00 PM 12.85 55.13 0.463 8.46 1.87 12.74
10/24/2022 5:30:00 PM 12.88 55.184 0.463 8.46 1.89 12.74
10/24/2022 5:45:00 PM 12.91 55.238 0.463 8.46 1.8 12.72
10/24/2022 6:00:00 PM 12.93 55.274 0.461 8.46 1.81 12.67
10/24/2022 6:15:00 PM 12.94 55.292 0.463 8.46 1.85 12.64
10/24/2022 6:30:00 PM 12.94 55.292 0.463 8.46 1.84 12.6
10/24/2022 6:45:00 PM 12.95 55.31 0.462 8.46 1.93 12.54
10/24/2022 7:00:00 PM 12.95 55.31 0.462 8.45 1.93 12.47
10/24/2022 7:15:00 PM 12.96 55.328 0.462 8.44 1.91 12.4
10/24/2022 7:30:00 PM 12.95 55.31 0.461 8.43 2 12.32
10/24/2022 7:45:00 PM 12.95 55.31 0.462 8.42 1.98 12.25
10/24/2022 8:00:00 PM 12.95 55.31 0.462 8.41 1.95 12.17
10/24/2022 8:15:00 PM 12.95 55.31 0.463 8.4 2.07 12.08
10/24/2022 8:30:00 PM 12.94 55.292 0.462 8.39 2.03 11.98
10/24/2022 8:45:00 PM 12.93 55.274 0.462 8.37 2.1 11.87
10/24/2022 9:00:00 PM 12.91 55.238 0.461 8.36 2.06 11.75
10/24/2022 9:15:00 PM 12.89 55.202 0.463 8.34 2.05 11.63
10/24/2022 9:30:00 PM 12.87 55.166 0.462 8.32 2.04 11.52
10/24/2022 9:45:00 PM 12.85 55.13 0.461 8.3 2.07 11.4
10/24/2022 10:00:00 PM 12.84 55.112 0.462 8.29 1.95 11.21
10/24/2022 10:15:00 PM 12.82 55.076 0.463 8.27 1.99 11.18
10/24/2022 10:30:00 PM 12.81 55.058 0.463 8.25 2.06 11.09
10/24/2022 10:45:00 PM 12.8 55.04 0.463 8.24 2.16 11.01
10/24/2022 11:00:00 PM 12.79 55.022 0.462 8.23 2.07 10.92
10/24/2022 11:15:00 PM 12.77 54.986 0.463 8.21 2.13 10.85
10/24/2022 11:30:00 PM 12.76 54.968 0.463 8.2 1.99 10.78
10/24/2022 11:45:00 PM 12.75 54.95 0.462 8.19 1.96 10.72
10/25/2022 12:00:00 AM 12.74 54.932 0.463 8.18 1.97 10.64
10/25/2022 12:15:00 AM 12.73 54.914 0.463 8.17 2 10.58
10/25/2022 12:30:00 AM 12.71 54.878 0.463 8.16 2.11 10.53
10/25/2022 12:45:00 AM 12.7 54.86 0.463 8.15 2.05 10.46
10/25/2022 1:00:00 AM 12.69 54.842 0.464 8.13 2.01 10.4
10/25/2022 1:15:00 AM 12.68 54.824 0.463 8.13 2.09 10.35
10/25/2022 1:30:00 AM 12.66 54.788 0.463 8.12 2.03 10.29
10/25/2022 1:45:00 AM 12.65 54.77 0.463 8.1 2.19 10.23
10/25/2022 2:00:00 AM 12.64 54.752 0.463 8.1 2.11 10.17
10/25/2022 2:15:00 AM 12.63 54.734 0.462 8.09 2.19 10.04
10/25/2022 2:30:00 AM 12.63 54.734 0.463 8.07 2.09 10.05
10/25/2022 2:45:00 AM 12.62 54.716 0.463 8.07 2.18 10.01
10/25/2022 3:00:00 AM 12.62 54.716 0.463 8.06 2.25 9.97
10/25/2022 3:15:00 AM 12.61 54.698 0.462 8.05 2.34 9.92
10/25/2022 3:30:00 AM 12.61 54.698 0.461 8.05 2.16 9.88
10/25/2022 3:45:00 AM 12.6 54.68 0.463 8.04 2.23 9.85
10/25/2022 4:00:00 AM 12.6 54.68 0.464 8.03 2.11 9.8
10/25/2022 4:15:00 AM 12.6 54.68 0.462 8.03 2.16 9.77
10/25/2022 4:30:00 AM 11.91 53.438 0.437 7.58 1.94 9.2
10/25/2022 4:45:00 AM 12.51 54.518 0.459 7.96 2.23 9.62
10/25/2022 5:00:00 AM 12.6 54.68 0.461 8.01 2.19 9.66
10/25/2022 5:15:00 AM 12.61 54.698 0.464 8.01 2.17 9.65
10/25/2022 5:30:00 AM 12.62 54.716 0.463 8 2.14 9.61
10/25/2022 5:45:00 AM 12.63 54.734 0.462 8.01 2.17 9.62
10/25/2022 6:00:00 AM 12.64 54.752 0.462 8 2.12 9.58
10/25/2022 6:15:00 AM 12.65 54.77 0.462 8 2.04 9.56
10/25/2022 6:30:00 AM 12.65 54.77 0.462 8 2.07 9.53
10/25/2022 6:45:00 AM 12.66 54.788 0.462 7.99 2.09 9.5
10/25/2022 7:00:00 AM 12.67 54.806 0.461 7.99 2.25 9.49
10/25/2022 7:15:00 AM 12.68 54.824 0.462 7.99 2.27 9.38
10/25/2022 7:30:00 AM 12.68 54.824 0.462 7.98 2.21 9.44
10/25/2022 7:45:00 AM 12.69 54.842 0.463 7.98 2.18 9.42
10/25/2022 8:00:00 AM 12.7 54.86 0.462 7.98 2.14 9.38
10/25/2022 8:15:00 AM 12.71 54.878 0.462 7.97 5.69 9.36
10/25/2022 8:30:00 AM 12.72 54.896 0.462 7.97 2.87 9.35
10/25/2022 8:45:00 AM 12.73 54.914 0.462 7.97 2.23 9.35
10/25/2022 9:00:00 AM 12.75 54.95 0.462 7.98 2.04 9.36
10/25/2022 9:15:00 AM 12.77 54.986 0.462 7.97 2.15 9.38
10/25/2022 9:30:00 AM 12.79 55.022 0.46 7.97 2.14 9.39
10/25/2022 9:45:00 AM 12.83 55.094 0.46 7.98 2.21 9.33
10/25/2022 10:00:00 AM 12.86 55.148 0.461 7.98 2.28 9.44
10/25/2022 10:15:00 AM 12.91 55.238 0.463 7.99 2.19 9.51
10/25/2022 10:30:00 AM 12.96 55.328 0.462 8 2.15 9.57
10/25/2022 10:45:00 AM 13.01 55.418 0.463 8.01 2.31 9.65
10/25/2022 11:00:00 AM 13.06 55.508 0.461 8.02 2.08 9.75
10/25/2022 11:15:00 AM 13.11 55.598 0.461 8.03 1.98 9.86
10/25/2022 11:30:00 AM 13.17 55.706 0.462 8.05 1.92 9.95
10/25/2022 11:45:00 AM 13.22 55.796 0.462 8.06 1.91 10.06
10/25/2022 12:00:00 PM 13.27 55.886 0.462 8.08 1.89 10.16
10/25/2022 12:15:00 PM 13.32 55.976 0.461 8.1 1.95 10.3
10/25/2022 12:30:00 PM 13.36 56.048 0.461 8.12 1.84 10.39
10/25/2022 12:45:00 PM 13.43 56.174 0.461 8.14 1.84 10.53
10/25/2022 1:00:00 PM 13.5 56.3 0.46 8.17 1.89 10.73
10/25/2022 1:15:00 PM 13.55 56.39 0.46 8.19 2.04 10.86
10/25/2022 1:30:00 PM 13.59 56.462 0.461 8.21 2.32 10.93
10/25/2022 1:45:00 PM 13.68 56.624 0.458 8.24 2.27 11.06
10/25/2022 2:00:00 PM 13.76 56.768 0.46 8.26 2.23 11.17
10/25/2022 2:15:00 PM 13.85 56.93 0.459 8.28 2.09 11.28
10/25/2022 2:30:00 PM 13.91 57.038 0.46 8.29 1.98 11.33
10/25/2022 2:45:00 PM 13.99 57.182 0.459 8.3 1.91 11.45
10/25/2022 3:00:00 PM 14.05 57.29 0.459 8.31 1.93 11.53
10/25/2022 3:15:00 PM 14.11 57.398 0.459 8.33 1.84 11.58
10/25/2022 3:30:00 PM 14.2 57.56 0.459 8.34 1.85 11.68
10/25/2022 3:45:00 PM 14.28 57.704 0.459 8.36 1.96 11.77
10/25/2022 4:00:00 PM 14.33 57.794 0.458 8.38 2.04 11.82
10/25/2022 4:15:00 PM 14.38 57.884 0.459 8.38 1.98 11.85
10/25/2022 4:30:00 PM 14.44 57.992 0.457 8.39 1.91 11.87
10/25/2022 4:45:00 PM 14.48 58.064 0.458 8.4 1.88 11.94
10/25/2022 5:00:00 PM 13.92 57.056 0.44 8.07 1.69 11.47
10/25/2022 5:15:00 PM 14.44 57.992 0.455 8.37 1.76 11.91
10/25/2022 5:30:00 PM 14.53 58.154 0.458 8.41 1.88 11.97
10/25/2022 5:45:00 PM 14.56 58.208 0.458 8.42 1.82 11.97
10/25/2022 6:00:00 PM 14.58 58.244 0.456 8.42 1.76 11.96
10/25/2022 6:15:00 PM 14.6 58.28 0.458 8.42 1.85 11.93
10/25/2022 6:30:00 PM 14.62 58.316 0.457 8.42 1.89 11.88
10/25/2022 6:45:00 PM 14.63 58.334 0.458 8.41 1.94 11.8
10/25/2022 7:00:00 PM 14.63 58.334 0.458 8.41 1.88 11.74
10/25/2022 7:15:00 PM 14.64 58.352 0.458 8.4 1.93 11.67
10/25/2022 7:30:00 PM 14.64 58.352 0.458 8.39 1.95 11.58
10/25/2022 7:45:00 PM 14.64 58.352 0.457 8.38 1.91 11.49
10/25/2022 8:00:00 PM 14.64 58.352 0.456 8.36 1.94 11.39
10/25/2022 8:15:00 PM 14.63 58.334 0.457 8.35 2.08 11.27
10/25/2022 8:30:00 PM 14.62 58.316 0.459 8.33 1.89 11.16
10/25/2022 8:45:00 PM 14.6 58.28 0.46 8.32 1.91 11.04
10/25/2022 9:00:00 PM 14.58 58.244 0.457 8.3 2.01 10.9
10/25/2022 9:15:00 PM 14.56 58.208 0.456 8.28 1.86 10.79
10/25/2022 9:30:00 PM 14.54 58.172 0.456 8.26 1.89 10.64
10/25/2022 9:45:00 PM 14.52 58.136 0.459 8.25 1.97 10.53
10/25/2022 10:00:00 PM 14.51 58.118 0.458 8.23 2.03 10.43
10/25/2022 10:15:00 PM 14.49 58.082 0.461 8.21 1.97 10.33
10/25/2022 10:30:00 PM 14.46 58.028 0.461 8.2 1.93 10.24
10/25/2022 10:45:00 PM 14.43 57.974 0.461 8.18 1.96 10.16
10/25/2022 11:00:00 PM 14.4 57.92 0.462 8.17 2.01 10.07
10/25/2022 11:15:00 PM 14.38 57.884 0.461 8.16 1.97 10.01
10/25/2022 11:30:00 PM 14.35 57.83 0.461 8.14 1.97 9.94
10/25/2022 11:45:00 PM 14.31 57.758 0.46 8.13 1.92 9.86
10/26/2022 12:00:00 AM 14.27 57.686 0.461 8.12 2.11 9.8
10/26/2022 12:15:00 AM 14.23 57.614 0.462 8.11 2.03 9.73
10/26/2022 12:30:00 AM 14.19 57.542 0.46 8.1 2.1 9.7
10/26/2022 12:45:00 AM 14.15 57.47 0.46 8.09 2.06 9.65
10/26/2022 1:00:00 AM 14.1 57.38 0.463 8.08 2.08 9.6
10/26/2022 1:15:00 AM 14.06 57.308 0.461 8.07 1.98 9.55
10/26/2022 1:30:00 AM 14.02 57.236 0.462 8.06 2.16 9.49
10/26/2022 1:45:00 AM 13.98 57.164 0.464 8.05 2.12 9.45
10/26/2022 2:00:00 AM 13.94 57.092 0.462 8.04 2.11 9.41
10/26/2022 2:15:00 AM 13.9 57.02 0.462 8.03 2.22 9.36
10/26/2022 2:30:00 AM 13.86 56.948 0.463 8.02 2.18 9.3
10/26/2022 2:45:00 AM 13.83 56.894 0.461 8.01 2.03 9.25
10/26/2022 3:00:00 AM 13.79 56.822 0.463 8.01 1.99 9.18
10/26/2022 3:15:00 AM 13.75 56.75 0.464 7.99 11.49 9.15
10/26/2022 3:30:00 AM 13.72 56.696 0.465 7.98 4.52 9.11
10/26/2022 3:45:00 AM 13.69 56.642 0.462 7.98 2.73 9.08
10/26/2022 4:00:00 AM 13.66 56.588 0.464 7.98 2.25 9.06
10/26/2022 4:15:00 AM 13.63 56.534 0.464 7.97 2.13 9.03
10/26/2022 4:30:00 AM 13.6 56.48 0.463 7.97 2.2 9
10/26/2022 4:45:00 AM 13.58 56.444 0.464 7.97 2.12 8.97
10/26/2022 5:00:00 AM 13.56 56.408 0.462 7.96 2 8.95
10/26/2022 5:15:00 AM 13.53 56.354 0.463 7.96 2.12 8.92
10/26/2022 5:30:00 AM 13.51 56.318 0.465 7.96 2.15 8.89
10/26/2022 5:45:00 AM 12.54 54.572 0.433 7.39 1.89 8.25
10/26/2022 6:00:00 AM 13.35 56.03 0.461 7.87 2.01 8.78
10/26/2022 6:15:00 AM 13.45 56.21 0.465 7.94 2.1 8.83
10/26/2022 6:30:00 AM 12.9 55.22 0.446 7.63 2.01 8.49
10/26/2022 6:45:00 AM 13.34 56.012 0.462 7.9 2.14 8.77
10/26/2022 7:00:00 AM 13.39 56.102 0.466 7.94 2.16 8.78
10/26/2022 7:15:00 AM 13.38 56.084 0.464 7.94 2.07 8.77
10/26/2022 7:30:00 AM 13.37 56.066 0.465 7.94 2.36 8.78
10/26/2022 7:45:00 AM 13.35 56.03 0.465 7.94 2.36 8.75
10/26/2022 8:00:00 AM 13.35 56.03 0.465 7.94 2.18 8.75
10/26/2022 8:15:00 AM 13.34 56.012 0.464 7.94 2.3 8.73
10/26/2022 8:30:00 AM 13.34 56.012 0.466 7.94 2.06 8.75
10/26/2022 8:45:00 AM 13.34 56.012 0.465 7.94 1.94 8.7
10/26/2022 9:00:00 AM 13.36 56.048 0.466 7.95 1.97 8.73
10/26/2022 9:15:00 AM 13.36 56.048 0.465 7.95 2.01 8.79
10/26/2022 9:30:00 AM 13.36 56.048 0.466 7.95 2.05 8.81
10/26/2022 9:45:00 AM 13.35 56.03 0.464 7.95 2 8.84
10/26/2022 10:00:00 AM 13.35 56.03 0.465 7.96 2.08 8.87
10/26/2022 10:15:00 AM 13.36 56.048 0.464 7.96 2.02 8.89
10/26/2022 10:30:00 AM 13.39 56.102 0.465 7.97 2.08 8.92
10/26/2022 10:45:00 AM 13.41 56.138 0.465 7.98 1.94 9
10/26/2022 11:00:00 AM 12.89 55.202 0.446 7.67 1.76 8.75
10/26/2022 11:15:00 AM 13.42 56.156 0.462 7.97 1.89 9.19
10/26/2022 11:30:00 AM 13.6 56.48 0.465 8.03 1.93 9.36
10/26/2022 11:45:00 AM 13.72 56.696 0.466 8.05 1.79 9.47
10/26/2022 12:00:00 PM 13.82 56.876 0.464 8.08 1.9 9.69
10/26/2022 12:15:00 PM 13.9 57.02 0.464 8.1 1.77 9.82
10/26/2022 12:30:00 PM 13.95 57.11 0.465 8.11 2.38 9.93
10/26/2022 12:45:00 PM 14.03 57.254 0.465 8.14 1.98 10.04
10/26/2022 1:00:00 PM 14.19 57.542 0.462 8.17 1.79 10.24
10/26/2022 1:15:00 PM 14.28 57.704 0.465 8.2 1.93 10.45
10/26/2022 1:30:00 PM 14.34 57.812 0.465 8.23 2 10.59
10/26/2022 1:45:00 PM 14.38 57.884 0.465 8.24 1.79 10.67
10/26/2022 2:00:00 PM 14.44 57.992 0.462 8.26 1.86 10.76
10/26/2022 2:15:00 PM 14.48 58.064 0.461 8.28 1.85 10.85
10/26/2022 2:30:00 PM 14.52 58.136 0.463 8.29 1.73 10.93
10/26/2022 2:45:00 PM 14.57 58.226 0.463 8.3 1.87 11.02
10/26/2022 3:00:00 PM 14.64 58.352 0.464 8.3 4.1 11.01
10/26/2022 3:15:00 PM 14.69 58.442 0.464 8.32 2.44 11.08
10/26/2022 3:30:00 PM 14.73 58.514 0.464 8.33 1.93 11.15
10/26/2022 3:45:00 PM 14.75 58.55 0.461 8.33 1.83 11.15
10/26/2022 4:00:00 PM 14.75 58.55 0.461 8.34 1.74 11.15
10/26/2022 4:15:00 PM 14.75 58.55 0.461 8.34 1.76 11.14
10/26/2022 4:30:00 PM 14.75 58.55 0.461 8.35 1.73 11.15
10/26/2022 4:45:00 PM 14.76 58.568 0.464 8.35 1.79 11.16
10/26/2022 5:00:00 PM 14.76 58.568 0.463 8.35 1.71 11.16
10/26/2022 5:15:00 PM 14.76 58.568 0.462 8.36 1.79 11.16
10/26/2022 5:30:00 PM 14.75 58.55 0.464 8.36 1.76 11.13
10/26/2022 5:45:00 PM 14.75 58.55 0.464 8.36 1.77 11.11
10/26/2022 6:00:00 PM 14.74 58.532 0.463 8.35 1.8 11.07
10/26/2022 6:15:00 PM 14.73 58.514 0.462 8.35 1.88 11.02
10/26/2022 6:30:00 PM 14.72 58.496 0.463 8.34 1.76 10.95
10/26/2022 6:45:00 PM 14.7 58.46 0.465 8.33 1.77 10.86
10/26/2022 7:00:00 PM 14.69 58.442 0.462 8.32 1.76 10.8
10/26/2022 7:15:00 PM 14.67 58.406 0.464 8.31 1.8 10.71
10/26/2022 7:30:00 PM 14.65 58.37 0.462 8.29 1.91 10.64
10/26/2022 7:45:00 PM 14.64 58.352 0.465 8.28 1.87 10.59
10/26/2022 8:00:00 PM 14.62 58.316 0.464 8.27 1.91 10.5
10/26/2022 8:15:00 PM 14.6 58.28 0.465 8.26 1.85 10.39
10/26/2022 8:30:00 PM 14.56 58.208 0.464 8.25 1.95 10.31
10/26/2022 8:45:00 PM 14.53 58.154 0.465 8.23 1.86 10.23
10/26/2022 9:00:00 PM 14.5 58.1 0.464 8.21 1.95 10.14
10/26/2022 9:15:00 PM 14.47 58.046 0.466 8.2 1.86 10.04
10/26/2022 9:30:00 PM 14.44 57.992 0.465 8.18 1.76 9.93
10/26/2022 9:45:00 PM 14.4 57.92 0.466 8.16 1.85 9.8
10/26/2022 10:00:00 PM 14.37 57.866 0.466 8.15 1.84 9.76
10/26/2022 10:15:00 PM 14.34 57.812 0.465 8.13 1.87 9.69
10/26/2022 10:30:00 PM 14.3 57.74 0.466 8.12 1.9 9.6
10/26/2022 10:45:00 PM 14.28 57.704 0.466 8.11 1.93 9.57
10/26/2022 11:00:00 PM 14.26 57.668 0.467 8.09 1.91 9.48
10/26/2022 11:15:00 PM 14.24 57.632 0.467 8.08 2.03 9.42
10/26/2022 11:30:00 PM 14.22 57.596 0.466 8.07 1.93 9.36
10/26/2022 11:45:00 PM 14.18 57.524 0.467 8.06 1.93 9.3
10/27/2022 12:00:00 AM 14.15 57.47 0.467 8.05 1.91 9.24
10/27/2022 12:15:00 AM 14.11 57.398 0.467 8.04 1.89 9.22
10/27/2022 12:30:00 AM 14.08 57.344 0.467 8.03 1.87 9.15
10/27/2022 12:45:00 AM 14.05 57.29 0.466 8.02 1.85 9.11
10/27/2022 1:00:00 AM 14.02 57.236 0.468 8.01 1.84 9.06
10/27/2022 1:15:00 AM 13.98 57.164 0.468 8 2.61 9.04
10/27/2022 1:30:00 AM 13.96 57.128 0.469 8 2.17 9
10/27/2022 1:45:00 AM 13.94 57.092 0.467 7.99 1.97 8.97
10/27/2022 2:00:00 AM 13.91 57.038 0.469 7.98 1.89 8.92
10/27/2022 2:15:00 AM 13.88 56.984 0.47 7.98 2.02 8.87
10/27/2022 2:30:00 AM 13.85 56.93 0.471 7.97 1.92 8.84
10/27/2022 2:45:00 AM 13.82 56.876 0.467 7.96 2.08 8.82
10/27/2022 3:00:00 AM 13.77 56.786 0.469 7.96 2.89 8.79
10/27/2022 3:15:00 AM 13.73 56.714 0.468 7.95 2.6 8.76
10/27/2022 3:30:00 AM 13.7 56.66 0.471 7.95 2.24 8.72
10/27/2022 3:45:00 AM 13.67 56.606 0.471 7.94 2.01 8.68
10/27/2022 4:00:00 AM 13.64 56.552 0.47 7.94 2.39 8.66
10/27/2022 4:15:00 AM 13.59 56.462 0.47 7.93 2.25 8.62
10/27/2022 4:30:00 AM 12.79 55.022 0.445 7.48 1.93 8.12
10/27/2022 4:45:00 AM 13.42 56.156 0.468 7.86 1.97 8.52
10/27/2022 5:00:00 AM 13.48 56.264 0.47 7.93 2.06 8.61
10/27/2022 5:15:00 AM 12.49 54.482 0.436 7.37 1.88 8
10/27/2022 5:30:00 AM 13.29 55.922 0.467 7.85 1.87 8.51
10/27/2022 5:45:00 AM 13.39 56.102 0.47 7.91 1.98 8.55
10/27/2022 6:00:00 AM 13.37 56.066 0.471 7.92 1.91 8.53
10/27/2022 6:15:00 AM 13.34 56.012 0.471 7.93 1.97 8.53
10/27/2022 6:30:00 AM 13.29 55.922 0.471 7.92 1.91 8.53
10/27/2022 6:45:00 AM 13.24 55.832 0.471 7.92 1.95 8.51
10/27/2022 7:00:00 AM 13.19 55.742 0.47 7.92 1.92 8.53
10/27/2022 7:15:00 AM 13.16 55.688 0.469 7.92 1.92 8.54
10/27/2022 7:30:00 AM 13.13 55.634 0.472 7.91 2.06 8.51
10/27/2022 7:45:00 AM 13.04 55.472 0.47 7.92 2.15 8.5
10/27/2022 8:00:00 AM 12.99 55.382 0.471 7.9 2.14 8.48
10/27/2022 8:15:00 AM 12.94 55.292 0.472 7.89 2.06 8.5
10/27/2022 8:30:00 AM 12.94 55.292 0.471 7.89 1.84 8.44
10/27/2022 8:45:00 AM 12.91 55.238 0.47 7.91 1.95 8.5
10/27/2022 9:00:00 AM 12.91 55.238 0.472 7.91 2 8.52
10/27/2022 9:15:00 AM 12.89 55.202 0.473 7.91 2.15 8.51
10/27/2022 9:30:00 AM 12.9 55.22 0.47 7.92 2.06 8.6
10/27/2022 9:45:00 AM 12.88 55.184 0.471 7.93 1.96 8.65
10/27/2022 10:00:00 AM 12.88 55.184 0.472 7.93 1.88 8.63
10/27/2022 10:15:00 AM 12.88 55.184 0.471 7.94 1.86 8.77
10/27/2022 10:30:00 AM 12.91 55.238 0.471 7.94 1.83 8.87
10/27/2022 10:45:00 AM 12.93 55.274 0.473 7.96 1.84 8.87
10/27/2022 11:00:00 AM 12.95 55.31 0.472 7.96 1.78 9
10/27/2022 11:15:00 AM 12.93 55.274 0.472 7.98 1.76 9.09
10/27/2022 11:30:00 AM 12.84 55.112 0.472 7.99 1.72 9.19
10/27/2022 11:45:00 AM 12.81 55.058 0.473 8 1.77 9.29
10/27/2022 12:00:00 PM 11.91 53.438 0.441 7.49 1.66 8.75
10/27/2022 12:15:00 PM 12.68 54.824 0.467 7.97 1.85 9.47
10/27/2022 12:30:00 PM 12.84 55.112 0.471 8.06 2.31 9.76
10/27/2022 12:45:00 PM 12.88 55.184 0.472 8.09 1.82 9.87
10/27/2022 1:00:00 PM 12.92 55.256 0.471 8.12 1.75 10.05
10/27/2022 1:15:00 PM 12.98 55.364 0.471 8.15 1.73 10.24
10/27/2022 1:30:00 PM 13.14 55.652 0.47 8.19 1.87 10.45
10/27/2022 1:45:00 PM 13.2 55.76 0.472 8.21 1.74 10.62
10/27/2022 2:00:00 PM 13.26 55.868 0.471 8.25 1.79 10.83
10/27/2022 2:15:00 PM 13.28 55.904 0.471 8.28 1.75 10.99
10/27/2022 2:30:00 PM 13.38 56.084 0.471 8.29 1.79 11.1
10/27/2022 2:45:00 PM 13.43 56.174 0.47 8.31 1.7 11.19
10/27/2022 3:00:00 PM 13.47 56.246 0.47 8.32 1.73 11.27
10/27/2022 3:15:00 PM 13.42 56.156 0.471 8.33 1.69 11.23
10/27/2022 3:30:00 PM 13.45 56.21 0.47 8.34 1.74 11.37
10/27/2022 3:45:00 PM 13.41 56.138 0.469 8.35 1.9 11.38
10/27/2022 4:00:00 PM 13.36 56.048 0.47 8.35 1.71 11.38
10/27/2022 4:15:00 PM 13.36 56.048 0.471 8.36 1.79 11.41
10/27/2022 4:30:00 PM 13.35 56.03 0.47 8.36 1.67 11.41
10/27/2022 4:45:00 PM 13.34 56.012 0.471 8.36 3 11.39
10/27/2022 5:00:00 PM 13.33 55.994 0.469 8.36 2.02 11.39
10/27/2022 5:15:00 PM 13.29 55.922 0.47 8.36 1.75 11.37
10/27/2022 5:30:00 PM 13.31 55.958 0.469 8.36 1.74 11.37
10/27/2022 5:45:00 PM 13.3 55.94 0.471 8.35 1.7 11.35
10/27/2022 6:00:00 PM 13.29 55.922 0.47 8.35 1.69 11.31
10/27/2022 6:15:00 PM 13.23 55.814 0.469 8.35 1.73 11.27
10/27/2022 6:30:00 PM 13.19 55.742 0.469 8.34 1.68 11.23
10/27/2022 6:45:00 PM 13.16 55.688 0.471 8.34 1.71 11.17
10/27/2022 7:00:00 PM 13.12 55.616 0.47 8.33 1.81 11.12
10/27/2022 7:15:00 PM 13.09 55.562 0.47 8.32 1.77 11.06
10/27/2022 7:30:00 PM 13.06 55.508 0.47 8.31 1.83 11
10/27/2022 7:45:00 PM 13.03 55.454 0.47 8.31 1.84 10.93
10/27/2022 8:00:00 PM 13.02 55.436 0.47 8.3 1.8 10.86
10/27/2022 8:15:00 PM 12.95 55.31 0.471 8.29 1.78 10.8
10/27/2022 8:30:00 PM 12.94 55.292 0.471 8.27 1.91 10.73
10/27/2022 8:45:00 PM 12.85 55.13 0.471 8.27 1.84 10.65
10/27/2022 9:00:00 PM 12.79 55.022 0.469 8.25 1.89 10.59
10/27/2022 9:15:00 PM 12.75 54.95 0.472 8.24 1.98 10.52
10/27/2022 9:30:00 PM 12.75 54.95 0.47 8.23 1.9 10.44
10/27/2022 9:45:00 PM 12.68 54.824 0.471 8.21 1.93 10.37
10/27/2022 10:00:00 PM 12.59 54.662 0.471 8.2 1.9 10.28
10/27/2022 10:15:00 PM 11.65 52.97 0.436 7.6 1.76 9.48
10/27/2022 10:30:00 PM 12.41 54.338 0.465 8.09 1.82 10.02
10/27/2022 10:45:00 PM 12.4 54.32 0.472 8.14 1.86 10.04
10/27/2022 11:00:00 PM 11.85 53.33 0.453 7.8 1.86 9.56
10/27/2022 11:15:00 PM 12.23 54.014 0.469 8.08 1.99 9.86
10/27/2022 11:30:00 PM 12.22 53.996 0.471 8.11 1.96 9.79
10/27/2022 11:45:00 PM 12.15 53.87 0.473 8.11 1.9 9.79
10/28/2022 12:00:00 AM 12.11 53.798 0.471 8.09 1.99 9.67
10/28/2022 12:15:00 AM 12.04 53.672 0.473 8.08 1.93 9.64
10/28/2022 12:30:00 AM 11.93 53.474 0.472 8.07 1.95 9.56
10/28/2022 12:45:00 AM 11.84 53.312 0.473 8.06 1.93 9.58
10/28/2022 1:00:00 AM 11.8 53.24 0.472 8.05 1.97 9.56
10/28/2022 1:15:00 AM 11.74 53.132 0.473 8.03 1.93 9.51
10/28/2022 1:30:00 AM 11.69 53.042 0.474 8.03 1.96 9.46
10/28/2022 1:45:00 AM 11.62 52.916 0.473 8.03 1.93 9.44
10/28/2022 2:00:00 AM 11.53 52.754 0.473 8.01 1.92 9.4
10/28/2022 2:15:00 AM 11.45 52.61 0.472 8.01 1.94 9.35
10/28/2022 2:30:00 AM 11.38 52.484 0.472 7.99 2.06 9.29
10/28/2022 2:45:00 AM 11.31 52.358 0.474 7.98 1.97 9.23
10/28/2022 3:00:00 AM 11.26 52.268 0.472 7.97 2 9.21
10/28/2022 3:15:00 AM 11.18 52.124 0.474 7.97 2.06 9.17
10/28/2022 3:30:00 AM 11.1 51.98 0.473 7.97 2.09 9.15
10/28/2022 3:45:00 AM 11 51.8 0.475 7.95 2.08 9.15
10/28/2022 4:00:00 AM 10.94 51.692 0.474 7.94 2.12 9.13
10/28/2022 4:15:00 AM 10.87 51.566 0.475 7.95 2.09 9.12
10/28/2022 4:30:00 AM 10.82 51.476 0.474 7.94 2.05 9.09
10/28/2022 4:45:00 AM 10.77 51.386 0.475 7.94 2.01 9.07
10/28/2022 5:00:00 AM 10.72 51.296 0.474 7.94 2 9.02
10/28/2022 5:15:00 AM 10.67 51.206 0.475 7.94 2.04 8.98
10/28/2022 5:30:00 AM 10.62 51.116 0.474 7.94 2.06 9.01
10/28/2022 5:45:00 AM 10.58 51.044 0.476 7.94 2.03 9.07
10/28/2022 6:00:00 AM 10.12 50.216 0.455 7.61 1.98 8.75
10/28/2022 6:15:00 AM 10.44 50.792 0.473 7.89 2.03 9.05
10/28/2022 6:30:00 AM 10.45 50.81 0.474 7.92 2.08 9.09
10/28/2022 6:45:00 AM 10.46 50.828 0.473 7.94 2.05 9.1
10/28/2022 7:00:00 AM 10.42 50.756 0.474 7.94 2.04 9.12
10/28/2022 7:15:00 AM 10.37 50.666 0.475 7.94 2.1 9.14
10/28/2022 7:30:00 AM 10.37 50.666 0.474 7.94 2.09 9.13
10/28/2022 7:45:00 AM 10.37 50.666 0.475 7.95 2.01 9.12
10/28/2022 8:00:00 AM 10.36 50.648 0.474 7.94 2.06 9.15
10/28/2022 8:15:00 AM 10.36 50.648 0.475 7.94 2.01 9.17
10/28/2022 8:30:00 AM 10.38 50.684 0.473 7.95 2.07 9.19
10/28/2022 8:45:00 AM 10.34 50.612 0.474 7.95 2.07 9.22
10/28/2022 9:00:00 AM 10.36 50.648 0.473 7.96 2.07 9.27
10/28/2022 9:15:00 AM 10.37 50.666 0.473 7.97 1.96 9.28
10/28/2022 9:30:00 AM 10.39 50.702 0.474 7.97 1.96 9.34
10/28/2022 9:45:00 AM 10.38 50.684 0.473 7.97 1.96 9.36
10/28/2022 10:00:00 AM 10.38 50.684 0.474 7.98 1.9 9.4
10/28/2022 10:15:00 AM 10.39 50.702 0.473 7.98 1.96 9.44
10/28/2022 10:30:00 AM 10.4 50.72 0.474 7.99 1.9 9.44
10/28/2022 10:45:00 AM 10.42 50.756 0.474 8 1.9 9.52
10/28/2022 11:00:00 AM 10.47 50.846 0.475 8.02 1.99 9.62
10/28/2022 11:15:00 AM 10.53 50.954 0.473 8.02 1.96 9.75
10/28/2022 11:30:00 AM 10.55 50.99 0.474 8.05 1.94 9.83
10/28/2022 11:45:00 AM 10.62 51.116 0.472 8.05 1.92 9.93
10/28/2022 12:00:00 PM 10.66 51.188 0.474 8.07 1.89 10.02
10/28/2022 12:15:00 PM 10.72 51.296 0.473 8.1 1.86 10.23
10/28/2022 12:30:00 PM 10.79 51.422 0.474 8.14 1.93 10.46
10/28/2022 12:45:00 PM 10.83 51.494 0.472 8.16 1.85 10.71
10/28/2022 1:00:00 PM 10.88 51.584 0.473 8.2 1.83 10.85
10/28/2022 1:15:00 PM 10.92 51.656 0.474 8.21 1.87 10.99
10/28/2022 1:30:00 PM 10.98 51.764 0.471 8.24 1.81 11.15
10/28/2022 1:45:00 PM 11.05 51.89 0.471 8.26 1.78 11.22
10/28/2022 2:00:00 PM 11.15 52.07 0.473 8.29 1.79 11.44
10/28/2022 2:15:00 PM 11.24 52.232 0.472 8.31 1.82 11.56
10/28/2022 2:30:00 PM 10.9 51.62 0.454 8 1.76 11.25
10/28/2022 2:45:00 PM 11.36 52.448 0.469 8.31 1.84 11.75
10/28/2022 3:00:00 PM 11.52 52.736 0.47 8.37 1.83 11.93
10/28/2022 3:15:00 PM 11.6 52.88 0.47 8.38 1.91 12.04
10/28/2022 3:30:00 PM 11.65 52.97 0.47 8.4 1.82 12.16
10/28/2022 3:45:00 PM 11.7 53.06 0.471 8.41 1.95 12.13
10/28/2022 4:00:00 PM 11.77 53.186 0.47 8.41 1.97 12.16
10/28/2022 4:15:00 PM 11.84 53.312 0.47 8.41 2 12.18
10/28/2022 4:30:00 PM 11.9 53.42 0.469 8.42 1.94 12.2
10/28/2022 4:45:00 PM 11.93 53.474 0.471 8.42 1.9 12.21
10/28/2022 5:00:00 PM 11.97 53.546 0.469 8.42 1.81 12.23
10/28/2022 5:15:00 PM 11.99 53.582 0.469 8.43 1.78 12.25
10/28/2022 5:30:00 PM 12.01 53.618 0.471 8.44 1.83 12.32
10/28/2022 5:45:00 PM 12.01 53.618 0.471 8.45 1.76 12.28
10/28/2022 6:00:00 PM 12.02 53.636 0.47 8.45 1.79 12.26
10/28/2022 6:15:00 PM 11.97 53.546 0.47 8.44 1.76 12.21
10/28/2022 6:30:00 PM 11.96 53.528 0.471 8.44 1.77 12.18
10/28/2022 6:45:00 PM 11.95 53.51 0.471 8.44 1.79 12.17
10/28/2022 7:00:00 PM 11.92 53.456 0.47 8.44 1.8 12.16
10/28/2022 7:15:00 PM 11.89 53.402 0.47 8.43 1.8 12.09
10/28/2022 7:30:00 PM 11.87 53.366 0.471 8.42 1.86 12.04
10/28/2022 7:45:00 PM 11.84 53.312 0.47 8.41 1.89 11.99
10/28/2022 8:00:00 PM 11.79 53.222 0.47 8.41 1.85 11.88
10/28/2022 8:15:00 PM 11.74 53.132 0.47 8.4 1.9 11.83
10/28/2022 8:30:00 PM 11.69 53.042 0.472 8.38 1.87 11.73
10/28/2022 8:45:00 PM 11.64 52.952 0.471 8.37 1.86 11.63
10/28/2022 9:00:00 PM 11.6 52.88 0.471 8.35 1.89 11.54
10/28/2022 9:15:00 PM 11.55 52.79 0.471 8.34 1.86 11.45
10/28/2022 9:30:00 PM 11.51 52.718 0.472 8.32 1.87 11.36
10/28/2022 9:45:00 PM 11.45 52.61 0.472 8.3 1.86 11.25
10/28/2022 10:00:00 PM 11.43 52.574 0.471 8.29 1.92 11.17
10/28/2022 10:15:00 PM 11.39 52.502 0.471 8.27 2 11.06
10/28/2022 10:30:00 PM 11.35 52.43 0.473 8.25 1.92 10.98
10/28/2022 10:45:00 PM 11.29 52.322 0.472 8.24 1.95 10.89
10/28/2022 11:00:00 PM 11.25 52.25 0.474 8.22 1.86 10.78
10/28/2022 11:15:00 PM 11.21 52.178 0.473 8.2 1.96 10.7
10/28/2022 11:30:00 PM 11.15 52.07 0.473 8.19 1.87 10.63
10/28/2022 11:45:00 PM 11.12 52.016 0.472 8.17 2.08 10.53
10/29/2022 12:00:00 AM 11.07 51.926 0.473 8.16 2 10.49
10/29/2022 12:15:00 AM 10.98 51.764 0.472 8.14 1.93 10.45
10/29/2022 12:30:00 AM 10.87 51.566 0.474 8.14 1.91 10.37
10/29/2022 12:45:00 AM 10.82 51.476 0.474 8.12 1.95 10.32
10/29/2022 1:00:00 AM 10.73 51.314 0.475 8.11 1.91 10.27
10/29/2022 1:15:00 AM 10.68 51.224 0.473 8.1 1.95 10.15
10/29/2022 1:30:00 AM 10.61 51.098 0.473 8.09 1.91 10.16
10/29/2022 1:45:00 AM 10.57 51.026 0.473 8.07 1.98 10.1
10/29/2022 2:00:00 AM 10.47 50.846 0.474 8.06 1.98 10.04
10/29/2022 2:15:00 AM 10.38 50.684 0.474 8.05 2.08 10.02
10/29/2022 2:30:00 AM 10.31 50.558 0.476 8.04 2.01 9.98
10/29/2022 2:45:00 AM 10.24 50.432 0.475 8.03 2.1 9.94
10/29/2022 3:00:00 AM 10.15 50.27 0.475 8.03 2.03 9.89
10/29/2022 3:15:00 AM 10.11 50.198 0.474 8.02 2.05 9.86
10/29/2022 3:30:00 AM 10.04 50.072 0.475 8.01 2.11 9.76
10/29/2022 3:45:00 AM 9.95 49.91 0.474 8.01 2.21 9.79
10/29/2022 4:00:00 AM 9.89 49.802 0.475 8 2.09 9.79
10/29/2022 4:15:00 AM 9.83 49.694 0.475 7.99 2.09 9.76
10/29/2022 4:30:00 AM 9.78 49.604 0.476 7.98 2.11 9.74
10/29/2022 4:45:00 AM 9.72 49.496 0.475 7.98 2.07 9.74
10/29/2022 5:00:00 AM 9.67 49.406 0.476 7.99 2.07 9.75
10/29/2022 5:15:00 AM 9.62 49.316 0.475 7.98 2.05 9.73
10/29/2022 5:30:00 AM 9.6 49.28 0.476 7.98 2.09 9.72
10/29/2022 5:45:00 AM 9.53 49.154 0.475 7.98 2.09 9.72
10/29/2022 6:00:00 AM 9.48 49.064 0.476 7.98 2.09 9.73
10/29/2022 6:15:00 AM 9.46 49.028 0.475 7.98 2.09 9.72
10/29/2022 6:30:00 AM 9.41 48.938 0.476 7.97 2.08 9.72
10/29/2022 6:45:00 AM 9.38 48.884 0.476 7.97 2.09 9.71
10/29/2022 7:00:00 AM 9.35 48.83 0.476 7.98 2.1 9.74
10/29/2022 7:15:00 AM 9.29 48.722 0.476 7.98 2.08 9.7
10/29/2022 7:30:00 AM 9.26 48.668 0.476 7.98 2.1 9.7
10/29/2022 7:45:00 AM 9.21 48.578 0.476 7.98 2.68 9.71
10/29/2022 8:00:00 AM 9.17 48.506 0.476 7.98 2.34 9.71
10/29/2022 8:15:00 AM 9.12 48.416 0.476 7.99 2.57 9.75
10/29/2022 8:30:00 AM 9.11 48.398 0.476 7.99 2.12 9.75
10/29/2022 8:45:00 AM 9.09 48.362 0.476 7.99 2.14 9.75
10/29/2022 9:00:00 AM 9.06 48.308 0.477 8 2.05 9.79
10/29/2022 9:15:00 AM 9.04 48.272 0.476 8 2.02 9.81
10/29/2022 9:30:00 AM 9.03 48.254 0.476 7.99 2.2 9.8
10/29/2022 9:45:00 AM 9.02 48.236 0.476 8.01 2.14 9.87
10/29/2022 10:00:00 AM 9.03 48.254 0.476 8.01 2.09 9.89
10/29/2022 10:15:00 AM 9.03 48.254 0.476 8.02 2.05 9.93
10/29/2022 10:30:00 AM 9.02 48.236 0.475 8.03 2.02 10.05
10/29/2022 10:45:00 AM 9.08 48.344 0.476 8.04 2.01 10.09
10/29/2022 11:00:00 AM 9.13 48.434 0.476 8.05 1.97 10.18
10/29/2022 11:15:00 AM 9.16 48.488 0.476 8.07 2.02 10.29
10/29/2022 11:30:00 AM 9.22 48.596 0.476 8.09 1.96 10.38
10/29/2022 11:45:00 AM 9.3 48.74 0.476 8.1 2.02 10.49
10/29/2022 12:00:00 PM 9.37 48.866 0.476 8.13 1.96 10.64
10/29/2022 12:15:00 PM 9.44 48.992 0.475 8.15 1.91 10.81
10/29/2022 12:30:00 PM 9.54 49.172 0.476 8.18 1.92 11
10/29/2022 12:45:00 PM 9.63 49.334 0.474 8.2 1.95 11.13
10/29/2022 1:00:00 PM 9.74 49.532 0.475 8.23 2 11.27
10/29/2022 1:15:00 PM 9.89 49.802 0.475 8.26 1.94 11.47
10/29/2022 1:30:00 PM 10.05 50.09 0.474 8.29 1.93 11.64
10/29/2022 1:45:00 PM 10.15 50.27 0.474 8.31 1.95 11.81
10/29/2022 2:00:00 PM 10.25 50.45 0.473 8.33 1.88 11.92
10/29/2022 2:15:00 PM 10.36 50.648 0.474 8.35 1.82 12.03
10/29/2022 2:30:00 PM 10.48 50.864 0.474 8.37 1.83 12.17
10/29/2022 2:45:00 PM 10.55 50.99 0.474 8.39 1.83 12.24
10/29/2022 3:00:00 PM 10.61 51.098 0.473 8.4 1.86 12.33
10/29/2022 3:15:00 PM 10.64 51.152 0.474 8.4 1.83 12.4
10/29/2022 3:30:00 PM 10.68 51.224 0.473 8.41 1.8 12.43
10/29/2022 3:45:00 PM 10.72 51.296 0.473 8.42 1.82 12.47
10/29/2022 4:00:00 PM 10.73 51.314 0.471 8.43 1.85 12.51
10/29/2022 4:15:00 PM 10.76 51.368 0.473 8.44 1.88 12.5
10/29/2022 4:30:00 PM 10.76 51.368 0.473 8.44 2.01 12.52
10/29/2022 4:45:00 PM 10.77 51.386 0.474 8.44 2.01 12.49
10/29/2022 5:00:00 PM 10.78 51.404 0.473 8.44 1.87 12.47
10/29/2022 5:15:00 PM 10.82 51.476 0.473 8.45 1.84 12.48
10/29/2022 5:30:00 PM 10.84 51.512 0.472 8.44 2.17 12.44
10/29/2022 5:45:00 PM 10.84 51.512 0.473 8.45 1.84 12.42
10/29/2022 6:00:00 PM 10.84 51.512 0.474 8.44 1.81 12.4
10/29/2022 6:15:00 PM 10.8 51.44 0.474 8.43 1.8 12.37
10/29/2022 6:30:00 PM 10.76 51.368 0.473 8.43 1.81 12.34
10/29/2022 6:45:00 PM 10.72 51.296 0.474 8.42 1.8 12.27
10/29/2022 7:00:00 PM 10.71 51.278 0.472 8.42 2.1 12.19
10/29/2022 7:15:00 PM 10.71 51.278 0.473 8.41 1.97 12.13
10/29/2022 7:30:00 PM 10.68 51.224 0.473 8.4 1.9 12.07
10/29/2022 7:45:00 PM 10.66 51.188 0.473 8.39 2.23 12.02
10/29/2022 8:00:00 PM 10.63 51.134 0.471 8.38 1.92 11.97
10/29/2022 8:15:00 PM 10.57 51.026 0.473 8.37 1.84 11.91
10/29/2022 8:30:00 PM 10.53 50.954 0.472 8.36 2.02 11.83
10/29/2022 8:45:00 PM 10.48 50.864 0.474 8.35 1.96 11.76
10/29/2022 9:00:00 PM 10.44 50.792 0.473 8.33 2.07 11.67
10/29/2022 9:15:00 PM 10.39 50.702 0.473 8.32 1.94 11.6
10/29/2022 9:30:00 PM 10.34 50.612 0.472 8.3 1.97 11.52
10/29/2022 9:45:00 PM 10.29 50.522 0.473 8.29 1.97 11.46
10/29/2022 10:00:00 PM 10.23 50.414 0.473 8.27 2.08 11.38
10/29/2022 10:15:00 PM 10.17 50.306 0.474 8.26 1.93 11.3
10/29/2022 10:30:00 PM 10.14 50.252 0.473 8.25 2.02 11.23
10/29/2022 10:45:00 PM 10.08 50.144 0.474 8.23 2.02 11.16
10/29/2022 11:00:00 PM 10.04 50.072 0.474 8.22 1.96 11.1
10/29/2022 11:15:00 PM 9.96 49.928 0.474 8.21 2 11
10/29/2022 11:30:00 PM 9.9 49.82 0.474 8.2 2.04 10.96
10/29/2022 11:45:00 PM 9.82 49.676 0.474 8.18 2.03 10.91
10/30/2022 12:00:00 AM 9.77 49.586 0.475 8.17 2.01 10.86
10/30/2022 12:15:00 AM 9.72 49.496 0.474 8.15 2.06 10.82
10/30/2022 12:30:00 AM 9.62 49.316 0.474 8.15 2 10.78
10/30/2022 12:45:00 AM 9.54 49.172 0.474 8.13 1.99 10.72
10/30/2022 1:00:00 AM 9.48 49.064 0.475 8.12 1.95 10.69
10/30/2022 1:15:00 AM 9.39 48.902 0.475 8.11 1.97 10.66
10/30/2022 1:30:00 AM 9.3 48.74 0.475 8.1 2.01 10.63
10/30/2022 1:45:00 AM 9.25 48.65 0.475 8.09 2.07 10.57
10/30/2022 2:00:00 AM 9.2 48.56 0.475 8.09 1.99 10.53
10/30/2022 2:15:00 AM 9.13 48.434 0.475 8.07 1.99 10.49
10/30/2022 2:30:00 AM 9.08 48.344 0.475 8.07 2.06 10.43
10/30/2022 2:45:00 AM 9.01 48.218 0.475 8.06 2.01 10.4
10/30/2022 3:00:00 AM 8.96 48.128 0.476 8.05 2.02 10.35
10/30/2022 3:15:00 AM 8.88 47.984 0.475 8.04 2.01 10.33
10/30/2022 3:30:00 AM 8.79 47.822 0.476 8.03 2.05 10.31
10/30/2022 3:45:00 AM 8.71 47.678 0.475 8.02 2.01 10.28
10/30/2022 4:00:00 AM 8.67 47.606 0.476 8.02 1.99 10.25
10/30/2022 4:15:00 AM 8.59 47.462 0.476 8.02 2.04 10.22
10/30/2022 4:30:00 AM 8.57 47.426 0.476 8.01 2.1 10.19
10/30/2022 4:45:00 AM 8.49 47.282 0.475 8 2.04 10.18
10/30/2022 5:00:00 AM 8.46 47.228 0.476 8.01 2.03 10.16
10/30/2022 5:15:00 AM 8.41 47.138 0.477 8 2.04 10.14
10/30/2022 5:30:00 AM 8.35 47.03 0.476 8 2 10.15
10/30/2022 5:45:00 AM 8.31 46.958 0.477 8 2.04 10.15
10/30/2022 6:00:00 AM 8.28 46.904 0.476 8 2.13 10.16
10/30/2022 6:15:00 AM 8.24 46.832 0.477 8 2.08 10.18
10/30/2022 6:30:00 AM 8.21 46.778 0.476 8 2.13 10.17
10/30/2022 6:45:00 AM 8.19 46.742 0.476 7.99 2.05 10.14
10/30/2022 7:00:00 AM 8.15 46.67 0.476 8 2.33 10.11
10/30/2022 7:15:00 AM 8.14 46.652 0.477 8 2.19 10.11
10/30/2022 7:30:00 AM 8.1 46.58 0.476 7.99 2.2 10.11
10/30/2022 7:45:00 AM 8.07 46.526 0.477 8 2.48 10.04
10/30/2022 8:00:00 AM 8.07 46.526 0.477 8 2.13 10.11
10/30/2022 8:15:00 AM 8.02 46.436 0.476 8 2.24 10.11
10/30/2022 8:30:00 AM 8 46.4 0.476 8.01 2.1 10.17
10/30/2022 8:45:00 AM 8 46.4 0.476 8.01 2.05 10.21
10/30/2022 9:00:00 AM 7.98 46.364 0.476 8.02 2.03 10.22
10/30/2022 9:15:00 AM 8.03 46.454 0.476 8.02 2.03 10.25
10/30/2022 9:30:00 AM 8.02 46.436 0.476 8.03 2.03 10.3
10/30/2022 9:45:00 AM 8.02 46.436 0.476 8.03 1.99 10.34
10/30/2022 10:00:00 AM 8 46.4 0.476 8.04 1.96 10.37
10/30/2022 10:15:00 AM 8.01 46.418 0.476 8.04 1.92 10.39
10/30/2022 10:30:00 AM 8.03 46.454 0.476 8.05 1.95 10.47
10/30/2022 10:45:00 AM 8.05 46.49 0.476 8.07 1.97 10.58
10/30/2022 11:00:00 AM 8.11 46.598 0.475 8.08 1.92 10.62
10/30/2022 11:15:00 AM 8.13 46.634 0.475 8.08 1.88 10.65
10/30/2022 11:30:00 AM 8.19 46.742 0.476 8.1 1.87 10.76
10/30/2022 11:45:00 AM 8.26 46.868 0.475 8.12 1.92 10.92
10/30/2022 12:00:00 PM 8.32 46.976 0.475 8.14 1.88 11.02
10/30/2022 12:15:00 PM 8.4 47.12 0.475 8.16 1.91 11.16
10/30/2022 12:30:00 PM 8.48 47.264 0.475 8.18 2.12 11.38
10/30/2022 12:45:00 PM 8.57 47.426 0.475 8.21 1.98 11.51
10/30/2022 1:00:00 PM 8.68 47.624 0.475 8.24 2.02 11.62
10/30/2022 1:15:00 PM 8.8 47.84 0.475 8.26 2 11.79
10/30/2022 1:30:00 PM 8.99 48.182 0.475 8.28 3.49 11.93
10/30/2022 1:45:00 PM 9.14 48.452 0.475 8.31 2.92 12.05
10/30/2022 2:00:00 PM 9.24 48.632 0.474 8.33 2.57 12.13
10/30/2022 2:15:00 PM 9.35 48.83 0.474 8.35 2.38 12.31
10/30/2022 2:30:00 PM 9.47 49.046 0.473 8.37 7 12.49
10/30/2022 2:45:00 PM 9.55 49.19 0.473 8.38 4.62 12.51
10/30/2022 3:00:00 PM 9.64 49.352 0.473 8.39 3.24 12.61
10/30/2022 3:15:00 PM 9.71 49.478 0.472 8.42 2.93 12.74
10/30/2022 3:30:00 PM 9.77 49.586 0.472 8.44 2.54 12.81
10/30/2022 3:45:00 PM 9.82 49.676 0.472 8.45 2.36 12.85
10/30/2022 4:00:00 PM 9.88 49.784 0.472 8.45 2.17 12.86
10/30/2022 4:15:00 PM 9.94 49.892 0.473 8.45 2.09 12.88
10/30/2022 4:30:00 PM 9.97 49.946 0.472 8.46 2.03 12.86
10/30/2022 4:45:00 PM 10 50 0.472 8.46 1.95 12.88
10/30/2022 5:00:00 PM 10.02 50.036 0.472 8.46 1.89 12.88
10/30/2022 5:15:00 PM 10.04 50.072 0.471 8.46 1.91 12.92
10/30/2022 5:30:00 PM 10.05 50.09 0.472 8.48 2 12.97
10/30/2022 5:45:00 PM 10.06 50.108 0.47 8.48 1.88 12.97
10/30/2022 6:00:00 PM 10.06 50.108 0.472 8.49 2.13 12.92
10/30/2022 6:15:00 PM 10.06 50.108 0.472 8.48 4.01 12.93
10/30/2022 6:30:00 PM 10.05 50.09 0.472 8.48 2.26 12.87
10/30/2022 6:45:00 PM 10.03 50.054 0.472 8.47 1.91 12.82
10/30/2022 7:00:00 PM 10.02 50.036 0.472 8.47 1.86 12.74
10/30/2022 7:15:00 PM 9.99 49.982 0.471 8.47 2.06 12.68
10/30/2022 7:30:00 PM 9.97 49.946 0.472 8.46 2.62 12.64
10/30/2022 7:45:00 PM 9.94 49.892 0.472 8.44 1.95 12.59
10/30/2022 8:00:00 PM 9.92 49.856 0.472 8.44 1.92 12.53
10/30/2022 8:15:00 PM 9.92 49.856 0.472 8.43 1.94 12.47
10/30/2022 8:30:00 PM 9.9 49.82 0.472 8.42 1.99 12.4
10/30/2022 8:45:00 PM 9.9 49.82 0.472 8.4 1.96 12.3
10/30/2022 9:00:00 PM 9.23 48.614 0.441 7.84 1.81 11.39
10/30/2022 9:15:00 PM 9.77 49.586 0.467 8.29 1.89 11.98
10/30/2022 9:30:00 PM 9.85 49.73 0.47 8.35 1.92 11.97
10/30/2022 9:45:00 PM 9.85 49.73 0.472 8.34 1.93 11.89
10/30/2022 10:00:00 PM 9.82 49.676 0.472 8.33 1.95 11.81
10/30/2022 10:15:00 PM 9.76 49.568 0.472 8.32 1.93 11.71
10/30/2022 10:30:00 PM 9.7 49.46 0.472 8.3 1.93 11.62
10/30/2022 10:45:00 PM 9.67 49.406 0.472 8.28 1.89 11.53
10/30/2022 11:00:00 PM 9.63 49.334 0.473 8.27 1.92 11.47
10/30/2022 11:15:00 PM 9.57 49.226 0.473 8.26 1.91 11.41
10/30/2022 11:30:00 PM 9.53 49.154 0.473 8.25 1.89 11.37
10/30/2022 11:45:00 PM 9.49 49.082 0.472 8.23 1.97 11.3
10/31/2022 12:00:00 AM 9.45 49.01 0.473 8.22 1.91 11.24
10/31/2022 12:15:00 AM 9.44 48.992 0.473 8.21 1.92 11.18
10/31/2022 12:30:00 AM 9.42 48.956 0.473 8.2 2.03 11.13
10/31/2022 12:45:00 AM 9.39 48.902 0.473 8.19 1.93 11.1
10/31/2022 1:00:00 AM 9.37 48.866 0.474 8.18 1.9 11.02
10/31/2022 1:15:00 AM 9.31 48.758 0.475 8.17 1.89 10.96
10/31/2022 1:30:00 AM 9.26 48.668 0.475 8.16 1.91 10.93
10/31/2022 1:45:00 AM 9.21 48.578 0.474 8.15 1.95 10.85
10/31/2022 2:00:00 AM 9.13 48.434 0.475 8.13 1.92 10.78
10/31/2022 2:15:00 AM 9.06 48.308 0.474 8.13 1.94 10.76
10/31/2022 2:30:00 AM 9.02 48.236 0.475 8.11 1.94 10.72
10/31/2022 2:45:00 AM 9 48.2 0.474 8.1 1.97 10.67
10/31/2022 3:00:00 AM 8.93 48.074 0.474 8.09 2 10.63
10/31/2022 3:15:00 AM 8.89 48.002 0.475 8.08 2.01 10.61
10/31/2022 3:30:00 AM 8.82 47.876 0.475 8.08 2.08 10.55
10/31/2022 3:45:00 AM 8.78 47.804 0.475 8.07 1.99 10.54
10/31/2022 4:00:00 AM 8.74 47.732 0.475 8.07 1.96 10.52
10/31/2022 4:15:00 AM 8.69 47.642 0.475 8.06 1.98 10.51
10/31/2022 4:30:00 AM 8.66 47.588 0.475 8.05 1.96 10.47
10/31/2022 4:45:00 AM 8.64 47.552 0.476 8.05 1.98 10.44
10/31/2022 5:00:00 AM 8.59 47.462 0.476 8.05 1.94 10.41
10/31/2022 5:15:00 AM 8.58 47.444 0.476 8.04 2.02 10.39
10/31/2022 5:30:00 AM 8.57 47.426 0.476 8.04 1.95 10.37
10/31/2022 5:45:00 AM 8.53 47.354 0.476 8.04 1.93 10.35
10/31/2022 6:00:00 AM 8.53 47.354 0.476 8.03 1.93 10.32
10/31/2022 6:15:00 AM 8.51 47.318 0.477 8.03 2.06 10.27
10/31/2022 6:30:00 AM 8.49 47.282 0.477 8.03 2 10.31
10/31/2022 6:45:00 AM 8.43 47.174 0.476 8.03 1.94 10.3
10/31/2022 7:00:00 AM 8.42 47.156 0.476 8.03 2.02 10.3
10/31/2022 7:15:00 AM 8.42 47.156 0.477 8.03 2.08 10.3
10/31/2022 7:30:00 AM 8.43 47.174 0.477 8.03 2.1 10.29
10/31/2022 7:45:00 AM 8.42 47.156 0.477 8.03 2.04 10.29
10/31/2022 8:00:00 AM 8.42 47.156 0.476 8.03 1.98 10.27
10/31/2022 8:15:00 AM 8.46 47.228 0.477 8.03 2.5 10.27
10/31/2022 8:30:00 AM 8.42 47.156 0.477 8.04 2.34 10.26
10/31/2022 8:45:00 AM 8.41 47.138 0.477 8.04 2.06 10.32
10/31/2022 9:00:00 AM 8.43 47.174 0.477 8.05 1.99 10.34
10/31/2022 9:15:00 AM 8.44 47.192 0.477 8.05 1.96 10.38
10/31/2022 9:30:00 AM 8.48 47.264 0.478 8.05 1.94 10.41
10/31/2022 9:45:00 AM 8.49 47.282 0.477 8.06 1.9 10.48
10/31/2022 10:00:00 AM 8.57 47.426 0.478 8.07 1.95 10.5
10/31/2022 10:15:00 AM 8.65 47.57 0.477 8.07 1.91 10.54
10/31/2022 10:30:00 AM 8.7 47.66 0.473 8.08 1.93 10.57
10/31/2022 10:45:00 AM 8.78 47.804 0.476 8.09 1.89 10.62
10/31/2022 11:00:00 AM 8.85 47.93 0.476 8.09 1.83 10.65
10/31/2022 11:15:00 AM 8.89 48.002 0.476 8.1 1.85 10.71
10/31/2022 11:30:00 AM 8.94 48.092 0.476 8.1 1.97 10.74
10/31/2022 11:45:00 AM 9.01 48.218 0.477 8.12 1.89 10.88
10/31/2022 12:00:00 PM 9.09 48.362 0.476 8.13 1.85 10.98
10/31/2022 12:15:00 PM 9.16 48.488 0.476 8.15 1.81 11.02
10/31/2022 12:30:00 PM 9.24 48.632 0.476 8.17 1.83 11.23
10/31/2022 12:45:00 PM 9.32 48.776 0.477 8.19 1.81 11.43
10/31/2022 1:00:00 PM 9.43 48.974 0.476 8.21 1.82 11.57
10/31/2022 1:15:00 PM 9.52 49.136 0.475 8.23 1.82 11.57
10/31/2022 1:30:00 PM 9.64 49.352 0.474 8.24 1.83 11.7
10/31/2022 1:45:00 PM 9.72 49.496 0.475 8.26 1.88 11.8
10/31/2022 2:00:00 PM 9.82 49.676 0.475 8.28 2.08 11.93
10/31/2022 2:15:00 PM 9.89 49.802 0.475 8.29 1.87 12.01
10/31/2022 2:30:00 PM 9.9 49.82 0.475 8.31 1.85 12.07
10/31/2022 2:45:00 PM 9.91 49.838 0.475 8.31 1.85 12.07
10/31/2022 3:00:00 PM 9.94 49.892 0.474 8.33 1.81 12.16
10/31/2022 3:15:00 PM 9.98 49.964 0.474 8.34 1.84 12.26
10/31/2022 3:30:00 PM 10.03 50.054 0.475 8.35 1.78 12.33
10/31/2022 3:45:00 PM 10.08 50.144 0.474 8.37 1.78 12.44
10/31/2022 4:00:00 PM 10.12 50.216 0.475 8.37 1.8 12.46
10/31/2022 4:15:00 PM 10.16 50.288 0.473 8.38 1.74 12.48
10/31/2022 4:30:00 PM 10.19 50.342 0.474 8.4 1.87 12.6
10/31/2022 4:45:00 PM 10.22 50.396 0.473 8.43 1.8 12.79
10/31/2022 5:00:00 PM 10.25 50.45 0.473 8.45 2.01 12.87
10/31/2022 5:15:00 PM 10.27 50.486 0.472 8.45 1.86 12.93
10/31/2022 5:30:00 PM 10.29 50.522 0.472 8.46 1.82 12.92
10/31/2022 5:45:00 PM 10.31 50.558 0.473 8.45 1.94 12.91
10/31/2022 6:00:00 PM 10.32 50.576 0.472 8.46 1.82 12.93
10/31/2022 6:15:00 PM 10.32 50.576 0.473 8.46 1.78 12.9
10/31/2022 6:30:00 PM 10.32 50.576 0.473 8.46 1.84 12.88
10/31/2022 6:45:00 PM 10.31 50.558 0.473 8.46 1.82 12.85
10/31/2022 7:00:00 PM 10.29 50.522 0.472 8.45 1.79 12.8
10/31/2022 7:15:00 PM 10.28 50.504 0.472 8.44 1.82 12.74
10/31/2022 7:30:00 PM 10.27 50.486 0.473 8.44 1.79 12.68
10/31/2022 7:45:00 PM 10.26 50.468 0.473 8.43 1.83 12.61
10/31/2022 8:00:00 PM 10.24 50.432 0.473 8.43 1.82 12.51
10/31/2022 8:15:00 PM 10.22 50.396 0.472 8.42 1.86 12.46
10/31/2022 8:30:00 PM 10.22 50.396 0.473 8.41 1.84 12.39
10/31/2022 8:45:00 PM 10.22 50.396 0.472 8.4 1.83 12.31
10/31/2022 9:00:00 PM 10.22 50.396 0.473 8.39 1.87 12.23
10/31/2022 9:15:00 PM 10.22 50.396 0.473 8.37 1.85 12.13
10/31/2022 9:30:00 PM 10.22 50.396 0.473 8.36 1.87 12.03
10/31/2022 9:45:00 PM 10.22 50.396 0.473 8.35 1.79 11.95
10/31/2022 10:00:00 PM 10.22 50.396 0.474 8.33 1.87 11.86
10/31/2022 10:15:00 PM 10.22 50.396 0.473 8.33 1.85 11.8
10/31/2022 10:30:00 PM 10.22 50.396 0.474 8.31 1.88 11.71
10/31/2022 10:45:00 PM 10.22 50.396 0.473 8.3 1.81 11.62
10/31/2022 11:00:00 PM 10.22 50.396 0.473 8.29 1.81 11.57
10/31/2022 11:15:00 PM 10.22 50.396 0.473 8.28 1.83 11.5
10/31/2022 11:30:00 PM 10.21 50.378 0.472 8.26 1.83 11.39
10/31/2022 11:45:00 PM 10.19 50.342 0.473 8.24 1.84 11.26
11/1/2022 12:00:00 AM 10.19 50.342 0.473 8.22 1.81 11.16
11/1/2022 12:15:00 AM 10.18 50.324 0.474 8.2 1.81 11.07
11/1/2022 12:30:00 AM 10.17 50.306 0.473 8.19 1.89 10.99
11/1/2022 12:45:00 AM 10.15 50.27 0.474 8.18 1.93 10.92
11/1/2022 1:00:00 AM 10.13 50.234 0.473 8.16 1.93 10.86
11/1/2022 1:15:00 AM 10.12 50.216 0.474 8.15 1.89 10.8
11/1/2022 1:30:00 AM 10.11 50.198 0.473 8.15 1.87 10.74
11/1/2022 1:45:00 AM 10.12 50.216 0.473 8.14 1.89 10.69
11/1/2022 2:00:00 AM 10.12 50.216 0.473 8.13 1.84 10.64
11/1/2022 2:15:00 AM 10.12 50.216 0.474 8.12 1.8 10.59
11/1/2022 2:30:00 AM 10.13 50.234 0.473 8.11 1.82 10.54
11/1/2022 2:45:00 AM 10.13 50.234 0.474 8.11 1.81 10.5
11/1/2022 3:00:00 AM 10.13 50.234 0.474 8.1 1.88 10.45
11/1/2022 3:15:00 AM 10.13 50.234 0.475 8.08 1.88 10.41
11/1/2022 3:30:00 AM 10.14 50.252 0.474 8.08 1.88 10.36
11/1/2022 3:45:00 AM 10.14 50.252 0.475 8.08 1.82 10.33
11/1/2022 4:00:00 AM 10.14 50.252 0.474 8.06 1.87 10.28
11/1/2022 4:15:00 AM 10.14 50.252 0.474 8.06 1.85 10.24
11/1/2022 4:30:00 AM 10.14 50.252 0.474 8.05 1.82 10.18
11/1/2022 4:45:00 AM 10.14 50.252 0.475 8.04 1.86 10.15
11/1/2022 5:00:00 AM 10.14 50.252 0.474 8.04 1.91 10.1
11/1/2022 5:15:00 AM 10.14 50.252 0.475 8.03 1.89 10.07
11/1/2022 5:30:00 AM 10.15 50.27 0.474 8.03 1.83 10.05
11/1/2022 5:45:00 AM 10.15 50.27 0.475 8.02 1.98 10.03
11/1/2022 6:00:00 AM 10.16 50.288 0.474 8.02 1.97 10
11/1/2022 6:15:00 AM 10.17 50.306 0.475 8.01 1.91 9.98
11/1/2022 6:30:00 AM 10.18 50.324 0.474 8.02 1.85 9.96
11/1/2022 6:45:00 AM 10.18 50.324 0.475 8.01 1.89 9.95
11/1/2022 7:00:00 AM 10.19 50.342 0.474 8.01 1.92 9.92
11/1/2022 7:15:00 AM 10.2 50.36 0.475 8 2.04 9.89
11/1/2022 7:30:00 AM 10.21 50.378 0.475 7.99 1.93 9.88
11/1/2022 7:45:00 AM 10.22 50.396 0.475 8.01 2.05 9.89
11/1/2022 8:00:00 AM 10.23 50.414 0.475 8 2.02 9.85
11/1/2022 8:15:00 AM 10.24 50.432 0.475 8 1.99 9.83
11/1/2022 8:30:00 AM 10.26 50.468 0.474 7.99 1.92 9.8
11/1/2022 8:45:00 AM 10.27 50.486 0.474 8 1.98 9.81
11/1/2022 9:00:00 AM 10.28 50.504 0.475 8 1.93 9.81
11/1/2022 9:15:00 AM 10.3 50.54 0.474 8 1.92 9.8
11/1/2022 9:30:00 AM 10.31 50.558 0.475 8 2.66 9.81
11/1/2022 9:45:00 AM 10.33 50.594 0.475 8 2.15 9.82
11/1/2022 10:00:00 AM 10.35 50.63 0.474 8 2.08 9.83
11/1/2022 10:15:00 AM 10.38 50.684 0.475 8 2.68 9.85
11/1/2022 10:30:00 AM 10.41 50.738 0.475 8.01 2.15 9.9
11/1/2022 10:45:00 AM 10.45 50.81 0.475 8.01 2.59 9.92
11/1/2022 11:00:00 AM 10.51 50.918 0.475 8.02 2.44 9.96
11/1/2022 11:15:00 AM 10.56 51.008 0.474 8.03 2.34 10.09
11/1/2022 11:30:00 AM 10.61 51.098 0.475 8.04 2.78 10.11
11/1/2022 11:45:00 AM 10.65 51.17 0.474 8.04 2.12 10.13
11/1/2022 12:00:00 PM 10.7 51.26 0.473 8.03 2.19 10.16
11/1/2022 12:15:00 PM 10.76 51.368 0.474 8.05 2.13 10.22
11/1/2022 12:30:00 PM 10.81 51.458 0.474 8.06 2.15 10.33
11/1/2022 12:45:00 PM 10.89 51.602 0.473 8.07 2.63 10.4
11/1/2022 1:00:00 PM 10.95 51.71 0.474 8.09 2.28 10.52
11/1/2022 1:15:00 PM 11.03 51.854 0.473 8.12 2.19 10.68
11/1/2022 1:30:00 PM 11.1 51.98 0.472 8.14 2.11 10.83
11/1/2022 1:45:00 PM 11.2 52.16 0.474 8.15 2.04 11.1
11/1/2022 2:00:00 PM 11.23 52.214 0.473 8.18 1.97 11.13
11/1/2022 2:15:00 PM 11.31 52.358 0.474 8.19 1.96 11.29
11/1/2022 2:30:00 PM 11.39 52.502 0.473 8.22 1.92 11.38
11/1/2022 2:45:00 PM 11.41 52.538 0.472 8.24 1.86 11.47
11/1/2022 3:00:00 PM 11.44 52.592 0.471 8.24 1.96 11.52
11/1/2022 3:15:00 PM 11 51.8 0.452 7.9 1.74 11.06
11/1/2022 3:30:00 PM 11.41 52.538 0.469 8.24 1.94 11.62
11/1/2022 3:45:00 PM 11.48 52.664 0.47 8.28 1.85 11.78
11/1/2022 4:00:00 PM 11.49 52.682 0.471 8.3 2.27 11.85
11/1/2022 4:15:00 PM 11.52 52.736 0.471 8.34 1.97 11.99
11/1/2022 4:30:00 PM 11.56 52.808 0.469 8.35 1.88 12.12
11/1/2022 4:45:00 PM 11.61 52.898 0.469 8.35 1.82 12.18
11/1/2022 5:00:00 PM 11.64 52.952 0.471 8.37 1.82 12.25
11/1/2022 5:15:00 PM 11.67 53.006 0.47 8.37 1.75 12.27
11/1/2022 5:30:00 PM 11.7 53.06 0.47 8.39 2.01 12.34
11/1/2022 5:45:00 PM 11.71 53.078 0.47 8.39 1.92 12.33
11/1/2022 6:00:00 PM 11.02 51.836 0.442 7.9 1.73 11.57
11/1/2022 6:15:00 PM 11.61 52.898 0.466 8.33 1.78 12.18
11/1/2022 6:30:00 PM 11.68 53.024 0.47 8.38 1.8 12.23
11/1/2022 6:45:00 PM 11.66 52.988 0.47 8.39 1.83 12.2
11/1/2022 7:00:00 PM 11.63 52.934 0.469 8.38 1.81 12.12
11/1/2022 7:15:00 PM 11.62 52.916 0.469 8.37 1.8 12.07
11/1/2022 7:30:00 PM 11.61 52.898 0.47 8.36 1.8 11.97
11/1/2022 7:45:00 PM 11.61 52.898 0.471 8.36 1.77 11.94
11/1/2022 8:00:00 PM 11.61 52.898 0.47 8.35 1.82 11.91
11/1/2022 8:15:00 PM 11.61 52.898 0.47 8.35 1.81 11.88
11/1/2022 8:30:00 PM 11.61 52.898 0.47 8.34 1.79 11.82
11/1/2022 8:45:00 PM 11.6 52.88 0.471 8.33 1.82 11.76
11/1/2022 9:00:00 PM 11.57 52.826 0.47 8.33 1.89 11.7
11/1/2022 9:15:00 PM 11.54 52.772 0.47 8.31 1.88 11.61
11/1/2022 9:30:00 PM 11.51 52.718 0.471 8.3 1.9 11.52
11/1/2022 9:45:00 PM 11.47 52.646 0.471 8.28 1.88 11.43
11/1/2022 10:00:00 PM 11.45 52.61 0.469 8.27 1.91 11.32
11/1/2022 10:15:00 PM 11.41 52.538 0.471 8.25 1.92 11.21
11/1/2022 10:30:00 PM 11.38 52.484 0.472 8.24 1.88 11.11
11/1/2022 10:45:00 PM 11.35 52.43 0.471 8.22 1.97 11.05
11/1/2022 11:00:00 PM 11.32 52.376 0.471 8.21 1.96 10.98
11/1/2022 11:15:00 PM 11.3 52.34 0.471 8.19 1.89 10.9
11/1/2022 11:30:00 PM 11.24 52.232 0.471 8.19 1.91 10.82
11/1/2022 11:45:00 PM 11.21 52.178 0.471 8.17 2.81 10.66
11/2/2022 12:00:00 AM 11.18 52.124 0.471 8.15 2.19 10.63
11/2/2022 12:15:00 AM 11.16 52.088 0.471 8.14 1.97 10.56
11/2/2022 12:30:00 AM 11.15 52.07 0.47 8.13 1.94 10.5
11/2/2022 12:45:00 AM 11.12 52.016 0.473 8.11 1.97 10.41
11/2/2022 1:00:00 AM 11.1 51.98 0.471 8.1 1.89 10.34
11/2/2022 1:15:00 AM 11.07 51.926 0.471 8.09 1.91 10.27
11/2/2022 1:30:00 AM 11.04 51.872 0.472 8.07 1.94 10.21
11/2/2022 1:45:00 AM 11.02 51.836 0.473 8.06 1.98 10.14
11/2/2022 2:00:00 AM 10.98 51.764 0.473 8.05 1.98 10.08
11/2/2022 2:15:00 AM 10.94 51.692 0.473 8.05 1.94 10.05
11/2/2022 2:30:00 AM 10.9 51.62 0.473 8.03 1.93 9.99
11/2/2022 2:45:00 AM 10.83 51.494 0.473 8.03 2 9.95
11/2/2022 3:00:00 AM 10.78 51.404 0.474 8.03 1.85 9.96
11/2/2022 3:15:00 AM 10.73 51.314 0.474 8.02 1.92 9.95
11/2/2022 3:30:00 AM 10.74 51.332 0.473 8.01 1.98 9.91
11/2/2022 3:45:00 AM 10.71 51.278 0.473 8.01 1.94 9.88
11/2/2022 4:00:00 AM 10.7 51.26 0.474 8.01 1.89 9.85
11/2/2022 4:15:00 AM 10.7 51.26 0.474 8 1.92 9.8
11/2/2022 4:30:00 AM 10.71 51.278 0.474 7.99 1.9 9.76
11/2/2022 4:45:00 AM 10.71 51.278 0.474 7.98 2.02 9.75
11/2/2022 5:00:00 AM 10.69 51.242 0.475 7.99 2.2 9.72
11/2/2022 5:15:00 AM 10.65 51.17 0.475 7.98 1.95 9.69
11/2/2022 5:30:00 AM 10.61 51.098 0.474 7.98 1.9 9.67
11/2/2022 5:45:00 AM 10.63 51.134 0.475 7.96 3.02 9.62
11/2/2022 6:00:00 AM 10.63 51.134 0.475 7.96 3.81 9.61
11/2/2022 6:15:00 AM 10.65 51.17 0.475 7.96 3.93 9.58
11/2/2022 6:30:00 AM 10.62 51.116 0.476 7.95 3.97 9.53
11/2/2022 6:45:00 AM 10.6 51.08 0.476 7.95 3.52 9.53
11/2/2022 7:00:00 AM 10.56 51.008 0.475 7.96 2.9 9.54
11/2/2022 7:15:00 AM 10.55 50.99 0.476 7.95 2.49 9.56
11/2/2022 7:30:00 AM 10.54 50.972 0.475 7.95 2.4 9.54
11/2/2022 7:45:00 AM 10.52 50.936 0.476 7.95 2.23 9.53
11/2/2022 8:00:00 AM 10.49 50.882 0.477 7.95 2.07 9.49
11/2/2022 8:15:00 AM 10.47 50.846 0.475 7.95 2.46 9.54
11/2/2022 8:30:00 AM 10.45 50.81 0.476 7.95 2.07 9.54
11/2/2022 8:45:00 AM 10.45 50.81 0.476 7.95 2.01 9.54
11/2/2022 9:00:00 AM 10.46 50.828 0.476 7.96 2 9.55
11/2/2022 9:15:00 AM 10.49 50.882 0.475 7.96 2.11 9.58
11/2/2022 9:30:00 AM 10.51 50.918 0.476 7.97 2.32 9.6
11/2/2022 9:45:00 AM 10.55 50.99 0.475 7.97 2.21 9.64
11/2/2022 10:00:00 AM 10.58 51.044 0.477 7.98 1.99 9.74
11/2/2022 10:15:00 AM 10.62 51.116 0.476 7.99 1.97 9.76
11/2/2022 10:30:00 AM 10.67 51.206 0.477 8 1.95 9.88
11/2/2022 10:45:00 AM 10.72 51.296 0.476 8 1.86 10.02
11/2/2022 11:00:00 AM 10.78 51.404 0.476 8.01 1.96 9.99
11/2/2022 11:15:00 AM 10.8 51.44 0.476 8.01 1.96 10
11/2/2022 11:30:00 AM 10.8 51.44 0.476 8.01 1.9 10.03
11/2/2022 11:45:00 AM 10.81 51.458 0.475 8.02 2.02 10.07
11/2/2022 12:00:00 PM 10.82 51.476 0.476 8.04 1.88 10.21
11/2/2022 12:15:00 PM 10.86 51.548 0.476 8.06 1.97 10.42
11/2/2022 12:30:00 PM 10.91 51.638 0.476 8.1 2.01 10.55
11/2/2022 12:45:00 PM 11.01 51.818 0.475 8.13 1.94 10.68
11/2/2022 1:00:00 PM 11.09 51.962 0.476 8.16 2.62 10.95
11/2/2022 1:15:00 PM 11.17 52.106 0.476 8.18 3 11.06
11/2/2022 1:30:00 PM 11.26 52.268 0.475 8.2 2.54 11.3
11/2/2022 1:45:00 PM 11.38 52.484 0.475 8.23 2.3 11.44
11/2/2022 2:00:00 PM 11.48 52.664 0.476 8.26 2.01 11.54
11/2/2022 2:15:00 PM 11.59 52.862 0.474 8.29 1.98 11.68
11/2/2022 2:30:00 PM 11.67 53.006 0.474 8.31 1.87 11.83
11/2/2022 2:45:00 PM 11.74 53.132 0.474 8.31 1.85 11.89
11/2/2022 3:00:00 PM 11.81 53.258 0.474 8.34 1.91 11.98
11/2/2022 3:15:00 PM 11.87 53.366 0.475 8.35 5.69 12.03
11/2/2022 3:30:00 PM 11.92 53.456 0.475 8.36 2.82 12.12
11/2/2022 3:45:00 PM 11.95 53.51 0.472 8.36 2.38 12.09
11/2/2022 4:00:00 PM 11.98 53.564 0.475 8.36 3.6 12.11
11/2/2022 4:15:00 PM 12 53.6 0.473 8.37 7.71 12.15
11/2/2022 4:30:00 PM 12.01 53.618 0.475 8.39 2.75 12.19
11/2/2022 4:45:00 PM 12.04 53.672 0.473 8.4 1.98 12.2
11/2/2022 5:00:00 PM 12.07 53.726 0.473 8.4 1.85 12.26
11/2/2022 5:15:00 PM 12.09 53.762 0.474 8.41 1.84 12.27
11/2/2022 5:30:00 PM 12.11 53.798 0.475 8.41 1.83 12.29
11/2/2022 5:45:00 PM 12.13 53.834 0.474 8.41 1.8 12.25
11/2/2022 6:00:00 PM 12.13 53.834 0.474 8.4 1.88 12.23
11/2/2022 6:15:00 PM 12.14 53.852 0.473 8.4 1.8 12.18
11/2/2022 6:30:00 PM 12.11 53.798 0.474 8.4 1.84 12.11
11/2/2022 6:45:00 PM 12.09 53.762 0.475 8.39 1.73 12.03
11/2/2022 7:00:00 PM 12.05 53.69 0.474 8.39 1.77 11.96
11/2/2022 7:15:00 PM 12.04 53.672 0.475 8.37 1.9 11.91
11/2/2022 7:30:00 PM 12 53.6 0.474 8.38 1.86 11.83
11/2/2022 7:45:00 PM 11.98 53.564 0.474 8.37 1.88 11.76
11/2/2022 8:00:00 PM 11.94 53.492 0.473 8.36 1.86 11.74
11/2/2022 8:15:00 PM 11.92 53.456 0.474 8.35 1.83 11.7
11/2/2022 8:30:00 PM 11.9 53.42 0.474 8.34 1.87 11.64
11/2/2022 8:45:00 PM 11.87 53.366 0.474 8.33 1.93 11.57
11/2/2022 9:00:00 PM 11.83 53.294 0.475 8.32 1.8 11.49
11/2/2022 9:15:00 PM 11.79 53.222 0.476 8.3 1.8 11.4
11/2/2022 9:30:00 PM 11.76 53.168 0.475 8.29 1.91 11.32
11/2/2022 9:45:00 PM 11.72 53.096 0.476 8.27 2.35 11.2
11/2/2022 10:00:00 PM 11.68 53.024 0.475 8.26 2 11.13
11/2/2022 10:15:00 PM 11.65 52.97 0.477 8.24 1.91 11.06
11/2/2022 10:30:00 PM 11.62 52.916 0.477 8.2 13.7 10.87
11/2/2022 10:45:00 PM 11.61 52.898 0.476 8.17 28.12 10.74
11/2/2022 11:00:00 PM 11.6 52.88 0.476 8.17 9.48 10.7
11/2/2022 11:15:00 PM 11.54 52.772 0.477 8.16 4 10.62
11/2/2022 11:30:00 PM 11.48 52.664 0.476 8.16 2.61 10.57
11/2/2022 11:45:00 PM 11.41 52.538 0.477 8.15 2.3 10.55
11/3/2022 12:00:00 AM 11.35 52.43 0.476 8.15 2.1 10.49
11/3/2022 12:15:00 AM 11.29 52.322 0.478 8.13 2.05 10.47
11/3/2022 12:30:00 AM 11.23 52.214 0.477 8.13 1.94 10.42
11/3/2022 12:45:00 AM 11.19 52.142 0.477 8.12 1.95 10.36
11/3/2022 1:00:00 AM 11.13 52.034 0.477 8.1 1.93 10.3
11/3/2022 1:15:00 AM 11.07 51.926 0.477 8.09 1.97 10.24
11/3/2022 1:30:00 AM 11.01 51.818 0.478 8.08 1.98 10.18
11/3/2022 1:45:00 AM 10.97 51.746 0.477 8.06 2.02 10.1
11/3/2022 2:00:00 AM 10.9 51.62 0.479 8.05 1.99 10.03
11/3/2022 2:15:00 AM 10.83 51.494 0.478 8.03 2.02 9.97
11/3/2022 2:30:00 AM 10.78 51.404 0.479 8.02 1.99 9.88
11/3/2022 2:45:00 AM 10.7 51.26 0.479 8.01 1.97 9.83
11/3/2022 3:00:00 AM 10.64 51.152 0.479 8 2.02 9.8
11/3/2022 3:15:00 AM 10.58 51.044 0.478 7.99 2.05 9.78
11/3/2022 3:30:00 AM 10.51 50.918 0.48 7.98 2.07 9.73
11/3/2022 3:45:00 AM 10.45 50.81 0.479 7.98 2.05 9.71
11/3/2022 4:00:00 AM 10.41 50.738 0.478 7.98 2.05 9.71
11/3/2022 4:15:00 AM 10.37 50.666 0.479 7.97 2.06 9.67
11/3/2022 4:30:00 AM 10.31 50.558 0.479 7.97 2.03 9.67
11/3/2022 4:45:00 AM 10.25 50.45 0.48 7.97 1.99 9.66
11/3/2022 5:00:00 AM 10.21 50.378 0.478 7.96 1.94 9.62
11/3/2022 5:15:00 AM 10.16 50.288 0.479 7.96 1.96 9.59
11/3/2022 5:30:00 AM 10.14 50.252 0.479 7.95 2 9.57
11/3/2022 5:45:00 AM 10.11 50.198 0.48 7.95 1.98 9.58
11/3/2022 6:00:00 AM 10.08 50.144 0.479 7.95 1.95 9.58
11/3/2022 6:15:00 AM 10.03 50.054 0.479 7.95 1.92 9.56
11/3/2022 6:30:00 AM 10.01 50.018 0.479 7.95 2.03 9.58
11/3/2022 6:45:00 AM 9.99 49.982 0.479 7.95 2.04 9.57
11/3/2022 7:00:00 AM 9.96 49.928 0.479 7.95 2.01 9.57
11/3/2022 7:15:00 AM 9.94 49.892 0.479 7.94 2.17 9.56
11/3/2022 7:30:00 AM 9.96 49.928 0.479 7.95 2.22 9.55
11/3/2022 7:45:00 AM 9.94 49.892 0.48 7.95 2.36 9.5
11/3/2022 8:00:00 AM 9.97 49.946 0.479 7.95 2.16 9.5
11/3/2022 8:15:00 AM 9.93 49.874 0.479 7.95 2.08 9.51
11/3/2022 8:30:00 AM 9.94 49.892 0.479 7.96 2.11 9.54
11/3/2022 8:45:00 AM 9.96 49.928 0.48 7.95 2.13 9.49
11/3/2022 9:00:00 AM 9.99 49.982 0.48 7.96 2.06 9.57
11/3/2022 9:15:00 AM 10 50 0.479 7.97 1.99 9.64
11/3/2022 9:30:00 AM 10.03 50.054 0.479 7.97 1.98 9.69
11/3/2022 9:45:00 AM 10.04 50.072 0.48 7.98 2.01 9.72
11/3/2022 10:00:00 AM 10.05 50.09 0.479 7.98 1.9 9.74
11/3/2022 10:15:00 AM 10.05 50.09 0.479 7.99 1.85 9.79
11/3/2022 10:30:00 AM 10.05 50.09 0.478 7.99 1.89 9.81
11/3/2022 10:45:00 AM 10.05 50.09 0.479 7.99 1.87 9.86
11/3/2022 11:00:00 AM 10.03 50.054 0.478 8 1.89 9.91
11/3/2022 11:15:00 AM 10.03 50.054 0.478 8.02 1.91 10.01
11/3/2022 11:30:00 AM 10.07 50.126 0.478 8.03 1.95 10.12
11/3/2022 11:45:00 AM 10.12 50.216 0.478 8.04 1.9 10.21
11/3/2022 12:00:00 PM 10.19 50.342 0.478 8.07 1.86 10.33
11/3/2022 12:15:00 PM 10.25 50.45 0.479 8.08 1.84 10.43
11/3/2022 12:30:00 PM 10.32 50.576 0.477 8.1 1.85 10.56
11/3/2022 12:45:00 PM 10.42 50.756 0.479 8.12 1.86 10.75
11/3/2022 1:00:00 PM 10.54 50.972 0.478 8.15 1.83 10.92
11/3/2022 1:15:00 PM 10.64 51.152 0.478 8.18 1.83 11.1
11/3/2022 1:30:00 PM 10.78 51.404 0.478 8.21 1.91 11.3
11/3/2022 1:45:00 PM 10.91 51.638 0.476 8.25 1.89 11.51
11/3/2022 2:00:00 PM 11.02 51.836 0.476 8.28 1.91 11.67
11/3/2022 2:15:00 PM 11.16 52.088 0.478 8.31 2.04 11.88
11/3/2022 2:30:00 PM 11.27 52.286 0.476 8.34 1.86 12.02
11/3/2022 2:45:00 PM 11.32 52.376 0.476 8.34 1.85 12.07
11/3/2022 3:00:00 PM 11.38 52.484 0.476 8.35 1.78 12.11
11/3/2022 3:15:00 PM 11.41 52.538 0.476 8.36 1.8 12.17
11/3/2022 3:30:00 PM 11.48 52.664 0.476 8.37 26.85 12.23
11/3/2022 3:45:00 PM 11.52 52.736 0.476 8.39 5.6 12.27
11/3/2022 4:00:00 PM 11.58 52.844 0.475 8.39 2.37 12.3
11/3/2022 4:15:00 PM 11.62 52.916 0.477 8.4 1.96 12.33
11/3/2022 4:30:00 PM 11.67 53.006 0.476 8.4 1.83 12.36
11/3/2022 4:45:00 PM 11.71 53.078 0.477 8.4 1.82 12.34
11/3/2022 5:00:00 PM 11.72 53.096 0.476 8.4 1.95 12.32
11/3/2022 5:15:00 PM 11.75 53.15 0.477 8.4 1.96 12.31
11/3/2022 5:30:00 PM 11.76 53.168 0.478 8.41 1.84 12.32
11/3/2022 5:45:00 PM 11.78 53.204 0.476 8.41 1.79 12.29
11/3/2022 6:00:00 PM 11.31 52.358 0.458 8.07 1.66 11.77
11/3/2022 6:15:00 PM 11.72 53.096 0.473 8.35 1.72 12.13
11/3/2022 6:30:00 PM 11.74 53.132 0.477 8.38 1.71 12.15
11/3/2022 6:45:00 PM 11.72 53.096 0.477 8.38 1.74 12.12
11/3/2022 7:00:00 PM 11.7 53.06 0.477 8.38 1.78 12.07
11/3/2022 7:15:00 PM 11.68 53.024 0.477 8.37 1.71 11.94
11/3/2022 7:30:00 PM 10.86 51.548 0.445 7.8 1.61 11.13
11/3/2022 7:45:00 PM 11.53 52.754 0.472 8.29 1.72 11.79
11/3/2022 8:00:00 PM 11.6 52.88 0.477 8.35 1.79 11.84
11/3/2022 8:15:00 PM 11.59 52.862 0.476 8.35 1.8 11.78
11/3/2022 8:30:00 PM 11.57 52.826 0.477 8.34 1.8 11.73
11/3/2022 8:45:00 PM 11.53 52.754 0.478 8.34 1.79 11.67
11/3/2022 9:00:00 PM 11.52 52.736 0.477 8.32 1.82 11.63
11/3/2022 9:15:00 PM 11.49 52.682 0.477 8.32 1.83 11.55
11/3/2022 9:30:00 PM 11.46 52.628 0.478 8.31 1.82 11.46
11/3/2022 9:45:00 PM 11.43 52.574 0.478 8.3 1.79 11.4
11/3/2022 10:00:00 PM 11.39 52.502 0.478 8.29 1.78 11.34
11/3/2022 10:15:00 PM 11.36 52.448 0.478 8.28 1.78 11.27
11/3/2022 10:30:00 PM 11.33 52.394 0.479 8.27 1.78 11.16
11/3/2022 10:45:00 PM 11.31 52.358 0.479 8.24 2.79 11.05
11/3/2022 11:00:00 PM 11.25 52.25 0.478 8.23 2.1 10.93
11/3/2022 11:15:00 PM 11.2 52.16 0.479 8.22 1.98 10.9
11/3/2022 11:30:00 PM 11.15 52.07 0.479 8.22 1.88 10.87
11/3/2022 11:45:00 PM 11.13 52.034 0.479 8.2 1.87 10.81
11/4/2022 12:00:00 AM 11.1 51.98 0.48 8.19 1.83 10.67
11/4/2022 12:15:00 AM 11.07 51.926 0.479 8.18 1.79 10.52
11/4/2022 12:30:00 AM 11.04 51.872 0.48 8.16 1.82 10.54
11/4/2022 12:45:00 AM 11 51.8 0.48 8.15 1.85 10.49
11/4/2022 1:00:00 AM 10.92 51.656 0.48 8.14 1.8 10.36
11/4/2022 1:15:00 AM 10.88 51.584 0.481 8.12 5.54 10.34
11/4/2022 1:30:00 AM 10.86 51.548 0.481 8.1 2.74 10.27
11/4/2022 1:45:00 AM 10.79 51.422 0.481 8.09 2 10.21
11/4/2022 2:00:00 AM 10.73 51.314 0.481 8.08 2.06 10.15
11/4/2022 2:15:00 AM 10.68 51.224 0.482 8.07 1.84 10.06
11/4/2022 2:30:00 AM 10.63 51.134 0.481 8.06 1.83 9.95
11/4/2022 2:45:00 AM 10.57 51.026 0.48 8.05 1.83 9.95
11/4/2022 3:00:00 AM 10.52 50.936 0.481 8.03 1.83 9.87
11/4/2022 3:15:00 AM 10.47 50.846 0.482 8.02 1.84 9.83
11/4/2022 3:30:00 AM 10.4 50.72 0.482 8.01 1.87 9.81
11/4/2022 3:45:00 AM 10.35 50.63 0.481 8.01 1.91 9.72
11/4/2022 4:00:00 AM 10.3 50.54 0.482 7.99 1.84 9.71
11/4/2022 4:15:00 AM 10.28 50.504 0.482 7.99 1.83 9.66
11/4/2022 4:30:00 AM 10.24 50.432 0.482 7.98 1.85 9.65
11/4/2022 4:45:00 AM 10.2 50.36 0.482 7.97 1.87 9.62
11/4/2022 5:00:00 AM 10.18 50.324 0.483 7.97 1.86 9.6
11/4/2022 5:15:00 AM 10.12 50.216 0.481 7.97 1.89 9.59
11/4/2022 5:30:00 AM 10.07 50.126 0.483 7.96 1.96 9.56
11/4/2022 5:45:00 AM 10.04 50.072 0.483 7.96 1.91 9.54
11/4/2022 6:00:00 AM 10 50 0.483 7.95 1.89 9.53
11/4/2022 6:15:00 AM 9.95 49.91 0.482 7.95 1.91 9.48
11/4/2022 6:30:00 AM 9.9 49.82 0.482 7.94 1.9 9.43
11/4/2022 6:45:00 AM 9.9 49.82 0.482 7.94 1.9 9.43
11/4/2022 7:00:00 AM 9.87 49.766 0.484 7.94 2.01 9.35
11/4/2022 7:15:00 AM 9.84 49.712 0.483 7.94 1.93 9.34
11/4/2022 7:30:00 AM 9.85 49.73 0.483 7.94 1.96 9.44
11/4/2022 7:45:00 AM 9.86 49.748 0.482 7.94 1.95 9.42
11/4/2022 8:00:00 AM 9.84 49.712 0.483 7.94 1.96 9.42
11/4/2022 8:15:00 AM 9.84 49.712 0.483 7.94 1.97 9.47
11/4/2022 8:30:00 AM 9.83 49.694 0.483 7.94 1.94 9.48
11/4/2022 8:45:00 AM 9.84 49.712 0.483 7.94 1.98 9.48
11/4/2022 9:00:00 AM 9.86 49.748 0.483 7.94 1.89 9.47
11/4/2022 9:15:00 AM 9.85 49.73 0.483 7.95 1.91 9.49
11/4/2022 9:30:00 AM 9.26 48.668 0.455 7.48 1.79 8.98
11/4/2022 9:45:00 AM 9.77 49.586 0.478 7.88 1.89 9.45
11/4/2022 10:00:00 AM 9.87 49.766 0.482 7.95 1.87 9.6
11/4/2022 10:15:00 AM 9.91 49.838 0.481 7.97 1.95 9.6
11/4/2022 10:30:00 AM 9.93 49.874 0.482 7.97 1.93 9.62
11/4/2022 10:45:00 AM 9.97 49.946 0.481 7.98 2.4 9.74
11/4/2022 11:00:00 AM 10 50 0.482 8 2.04 9.92
11/4/2022 11:15:00 AM 10.07 50.126 0.482 8.02 2.34 10.02
11/4/2022 11:30:00 AM 10.16 50.288 0.482 8.03 2.01 10.11
11/4/2022 11:45:00 AM 10.24 50.432 0.481 8.05 2.22 10.16
11/4/2022 12:00:00 PM 10.37 50.666 0.481 8.08 2.99 10.33
11/4/2022 12:15:00 PM 10.46 50.828 0.481 8.09 2.59 10.44
11/4/2022 12:30:00 PM 10.57 51.026 0.48 8.11 3.52 10.61
11/4/2022 12:45:00 PM 10.69 51.242 0.481 8.15 2.63 10.79
11/4/2022 1:00:00 PM 10.85 51.53 0.48 8.18 2.99 10.96
11/4/2022 1:15:00 PM 10.99 51.782 0.48 8.21 2.18 11.15
11/4/2022 1:30:00 PM 11.11 51.998 0.481 8.24 2.14 11.29
11/4/2022 1:45:00 PM 11.23 52.214 0.479 8.27 1.86 11.46
11/4/2022 2:00:00 PM 11.36 52.448 0.479 8.3 1.9 11.6
11/4/2022 2:15:00 PM 11.48 52.664 0.479 8.32 2.01 11.74
11/4/2022 2:30:00 PM 11.61 52.898 0.481 8.34 2.01 11.88
11/4/2022 2:45:00 PM 11.71 53.078 0.481 8.37 1.85 11.97
11/4/2022 3:00:00 PM 11.79 53.222 0.48 8.39 1.95 12.09
11/4/2022 3:15:00 PM 11.21 52.178 0.453 7.94 1.64 11.49
11/4/2022 3:30:00 PM 11.82 53.276 0.476 8.34 1.78 12.08
11/4/2022 3:45:00 PM 11.93 53.474 0.479 8.39 1.8 12.18
11/4/2022 4:00:00 PM 11.29 52.322 0.452 7.93 1.61 11.54
11/4/2022 4:15:00 PM 11.95 53.51 0.475 8.35 1.73 12.16
11/4/2022 4:30:00 PM 12.07 53.726 0.479 8.42 1.76 12.29
11/4/2022 4:45:00 PM 12.12 53.816 0.48 8.43 1.75 12.32
11/4/2022 5:00:00 PM 12.15 53.87 0.48 8.45 1.67 12.36
11/4/2022 5:15:00 PM 12.19 53.942 0.478 8.45 1.72 12.36
11/4/2022 5:30:00 PM 12.19 53.942 0.478 8.44 2.71 12.31
11/4/2022 5:45:00 PM 12.2 53.96 0.479 8.43 2.4 12.29
11/4/2022 6:00:00 PM 12.22 53.996 0.478 8.43 2.02 12.17
11/4/2022 6:15:00 PM 12.22 53.996 0.478 8.43 1.82 12.23
11/4/2022 6:30:00 PM 12.2 53.96 0.48 8.43 1.9 12.18
11/4/2022 6:45:00 PM 11.67 53.006 0.459 8.07 1.75 11.64
11/4/2022 7:00:00 PM 12.09 53.762 0.477 8.38 1.71 12.04
11/4/2022 7:15:00 PM 12.13 53.834 0.479 8.42 1.69 12.07
11/4/2022 7:30:00 PM 12.14 53.852 0.479 8.43 1.72 12.05
11/4/2022 7:45:00 PM 12.12 53.816 0.479 8.41 1.75 12.02
11/4/2022 8:00:00 PM 12.1 53.78 0.48 8.41 1.72 11.94
11/4/2022 8:15:00 PM 12.09 53.762 0.48 8.39 1.73 11.89
11/4/2022 8:30:00 PM 12.06 53.708 0.48 8.39 1.73 11.86
11/4/2022 8:45:00 PM 11.55 52.79 0.46 8.04 1.72 11.32
11/4/2022 9:00:00 PM 11.95 53.51 0.479 8.33 1.78 11.67
11/4/2022 9:15:00 PM 11.99 53.582 0.479 8.35 1.75 11.65
11/4/2022 9:30:00 PM 11.97 53.546 0.481 8.35 1.73 11.57
11/4/2022 9:45:00 PM 11.94 53.492 0.48 8.34 1.73 11.5
11/4/2022 10:00:00 PM 11.92 53.456 0.481 8.33 1.72 11.44
11/4/2022 10:15:00 PM 11.91 53.438 0.48 8.31 1.76 11.36
11/4/2022 10:30:00 PM 11.88 53.384 0.48 8.3 1.77 11.26
11/4/2022 10:45:00 PM 11.85 53.33 0.48 8.29 1.76 11.18
11/4/2022 11:00:00 PM 11.84 53.312 0.482 8.28 1.88 11.1
11/4/2022 11:15:00 PM 11.81 53.258 0.481 8.26 1.8 11.02
11/4/2022 11:30:00 PM 11.78 53.204 0.481 8.25 1.76 10.92
11/4/2022 11:45:00 PM 11.78 53.204 0.481 8.23 2.17 10.81
11/5/2022 12:00:00 AM 11.75 53.15 0.483 8.22 1.92 10.74
11/5/2022 12:15:00 AM 11.72 53.096 0.481 8.2 1.87 10.67
11/5/2022 12:30:00 AM 11.69 53.042 0.483 8.19 1.83 10.58
11/5/2022 12:45:00 AM 11.65 52.97 0.481 8.16 1.95 10.46
11/5/2022 1:00:00 AM 11.14 52.052 0.463 7.83 1.68 9.96
11/5/2022 1:15:00 AM 11.54 52.772 0.48 8.08 4.27 10.2
11/5/2022 1:30:00 AM 11.1 51.98 0.463 7.77 2.45 9.75
11/5/2022 1:45:00 AM 11.48 52.664 0.479 8.05 2.11 10.06
11/5/2022 2:00:00 AM 11.49 52.682 0.482 8.09 1.94 10.07
11/5/2022 2:15:00 AM 11.46 52.628 0.482 8.07 1.93 10.03
11/5/2022 2:30:00 AM 11.43 52.574 0.484 8.07 1.92 9.96
11/5/2022 2:45:00 AM 11.41 52.538 0.483 8.06 1.89 9.9
11/5/2022 3:00:00 AM 11.36 52.448 0.482 8.05 1.83 9.85
11/5/2022 3:15:00 AM 11.32 52.376 0.484 8.02 1.9 9.78
11/5/2022 3:30:00 AM 11.28 52.304 0.483 8.02 1.89 9.73
11/5/2022 3:45:00 AM 11.25 52.25 0.484 8.01 1.9 9.69
11/5/2022 4:00:00 AM 11.22 52.196 0.483 8 1.92 9.61
11/5/2022 4:15:00 AM 11.19 52.142 0.483 7.99 1.93 9.55
11/5/2022 4:30:00 AM 10.7 51.26 0.466 7.65 1.83 9.11
11/5/2022 4:45:00 AM 11.06 51.908 0.481 7.93 1.92 9.42
11/5/2022 5:00:00 AM 11.09 51.962 0.484 7.96 1.91 9.44
11/5/2022 5:15:00 AM 11.06 51.908 0.485 7.96 1.94 9.4
11/5/2022 5:30:00 AM 11.03 51.854 0.484 7.95 1.94 9.28
11/5/2022 5:45:00 AM 11.01 51.818 0.485 7.95 1.86 9.31
11/5/2022 6:00:00 AM 11 51.8 0.485 7.94 1.88 9.3
11/5/2022 6:15:00 AM 10.98 51.764 0.486 7.94 1.92 9.3
11/5/2022 6:30:00 AM 10.97 51.746 0.484 7.94 1.86 9.3
11/5/2022 6:45:00 AM 10.96 51.728 0.486 7.94 1.91 9.28
11/5/2022 7:00:00 AM 10.95 51.71 0.485 7.93 1.84 9.25
11/5/2022 7:15:00 AM 10.92 51.656 0.487 7.93 1.84 9.21
11/5/2022 7:30:00 AM 10.94 51.692 0.486 7.92 1.9 9.16
11/5/2022 7:45:00 AM 10.94 51.692 0.486 7.93 1.95 9.17
11/5/2022 8:00:00 AM 10.96 51.728 0.485 7.93 2.23 9.17
11/5/2022 8:15:00 AM 10.98 51.764 0.485 7.93 2.22 9.19
11/5/2022 8:30:00 AM 10.99 51.782 0.485 7.93 1.96 9.2
11/5/2022 8:45:00 AM 11.04 51.872 0.486 7.94 1.96 9.22
11/5/2022 9:00:00 AM 10.3 50.54 0.45 7.38 1.75 8.62
11/5/2022 9:15:00 AM 11.02 51.836 0.481 7.87 1.86 9.18
11/5/2022 9:30:00 AM 11.17 52.106 0.485 7.93 1.88 9.26
11/5/2022 9:45:00 AM 11.25 52.25 0.486 7.95 1.79 9.34
11/5/2022 10:00:00 AM 11.34 52.412 0.486 7.97 1.79 9.42
11/5/2022 10:15:00 AM 11.44 52.592 0.486 7.96 2.17 9.44
11/5/2022 10:30:00 AM 11.52 52.736 0.485 7.97 1.8 9.49
11/5/2022 10:45:00 AM 11.64 52.952 0.486 7.99 1.84 9.58
11/5/2022 11:00:00 AM 11.76 53.168 0.484 8 1.9 9.66
11/5/2022 11:15:00 AM 11.84 53.312 0.485 8.01 1.9 9.71
11/5/2022 11:30:00 AM 11.87 53.366 0.484 8.01 1.87 9.74
11/5/2022 11:45:00 AM 11.94 53.492 0.485 8.01 1.98 9.68
11/5/2022 12:00:00 PM 12.02 53.636 0.483 8 1.98 9.68
11/5/2022 12:15:00 PM 12.33 54.194 0.483 8.03 2.07 9.84
11/5/2022 12:30:00 PM 12.25 54.05 0.483 8.06 1.97 10.03
11/5/2022 12:45:00 PM 12.49 54.482 0.483 8.09 2.82 10.2
11/5/2022 1:00:00 PM 12.68 54.824 0.484 8.11 9.16 10.32
11/5/2022 1:15:00 PM 12.76 54.968 0.482 8.11 4.88 10.35
11/5/2022 1:30:00 PM 12.7 54.86 0.482 8.14 3.18 10.54
11/5/2022 1:45:00 PM 12.78 55.004 0.482 8.17 3.19 10.65
11/5/2022 2:00:00 PM 12.9 55.22 0.482 8.2 2.73 10.76
11/5/2022 2:15:00 PM 12.93 55.274 0.481 8.23 2.09 10.97
11/5/2022 2:30:00 PM 13.12 55.616 0.483 8.25 2.11 11.13
11/5/2022 2:45:00 PM 13.18 55.724 0.481 8.27 2.06 11.21
11/5/2022 3:00:00 PM 13.26 55.868 0.483 8.29 1.89 11.27
11/5/2022 3:15:00 PM 13.28 55.904 0.481 8.31 1.91 11.35
11/5/2022 3:30:00 PM 13.47 56.246 0.481 8.33 2.11 11.44
11/5/2022 3:45:00 PM 13.49 56.282 0.481 8.36 1.91 11.63
11/5/2022 4:00:00 PM 13.47 56.246 0.481 8.36 1.85 11.71
11/5/2022 4:15:00 PM 13.49 56.282 0.482 8.37 1.75 11.72
11/5/2022 4:30:00 PM 13.45 56.21 0.481 8.38 1.74 11.79
11/5/2022 4:45:00 PM 12.65 54.77 0.45 7.83 1.99 11
11/5/2022 5:00:00 PM 13.38 56.084 0.477 8.33 1.84 11.79
11/5/2022 5:15:00 PM 13.48 56.264 0.48 8.4 1.72 11.88
11/5/2022 5:30:00 PM 13.49 56.282 0.481 8.42 1.71 12.02
11/5/2022 5:45:00 PM 13.49 56.282 0.481 8.42 1.68 12.03
11/5/2022 6:00:00 PM 13.6 56.48 0.481 8.43 1.71 11.95
11/5/2022 6:15:00 PM 13.6 56.48 0.481 8.43 1.68 11.95
11/5/2022 6:30:00 PM 13.56 56.408 0.482 8.44 1.73 12.02
11/5/2022 6:45:00 PM 13.07 55.526 0.461 8.09 1.63 11.43
11/5/2022 7:00:00 PM 13.51 56.318 0.478 8.39 1.65 11.94
11/5/2022 7:15:00 PM 13.6 56.48 0.481 8.42 1.69 11.75
11/5/2022 7:30:00 PM 13.6 56.48 0.482 8.42 1.65 11.72
11/5/2022 7:45:00 PM 13.58 56.444 0.48 8.42 1.68 11.85
11/5/2022 8:00:00 PM 13.57 56.426 0.482 8.43 1.59 11.86
11/5/2022 8:15:00 PM 13.59 56.462 0.48 8.41 1.66 11.7
11/5/2022 8:30:00 PM 13.58 56.444 0.482 8.4 1.71 11.64
11/5/2022 8:45:00 PM 12.6 54.68 0.446 7.79 1.61 10.65
11/5/2022 9:00:00 PM 13.46 56.228 0.477 8.3 1.95 11.35
11/5/2022 9:15:00 PM 13.57 56.426 0.482 8.36 1.78 11.41
11/5/2022 9:30:00 PM 13.63 56.534 0.483 8.36 1.72 11.22
11/5/2022 9:45:00 PM 13.66 56.588 0.482 8.32 3.6 10.96
11/5/2022 10:00:00 PM 13.64 56.552 0.482 8.3 2.66 10.84
11/5/2022 10:15:00 PM 13.63 56.534 0.482 8.29 2.16 10.81
11/5/2022 10:30:00 PM 13.64 56.552 0.484 8.29 1.94 10.76
11/5/2022 10:45:00 PM 13.65 56.57 0.483 8.26 4.62 10.63
11/5/2022 11:00:00 PM 13.62 56.516 0.483 8.26 3.46 10.58
11/5/2022 11:15:00 PM 13.61 56.498 0.483 8.24 2.28 10.52
11/5/2022 11:30:00 PM 13.63 56.534 0.484 8.23 2.04 10.4
11/5/2022 11:45:00 PM 13.64 56.552 0.482 8.21 2.31 10.27
11/6/2022 12:00:00 AM 13.64 56.552 0.482 8.2 2.09 10.17
11/6/2022 12:15:00 AM 13.68 56.624 0.483 8.19 2.25 10.15
11/6/2022 12:30:00 AM 13.72 56.696 0.482 8.15 2.71 9.94
11/6/2022 12:45:00 AM 13.74 56.732 0.48 8.13 2.42 9.82
11/6/2022 1:00:00 AM 13.79 56.822 0.482 8.11 2.91 9.68
11/6/2022 1:15:00 AM 13.81 56.858 0.482 8.1 2.46 9.62
11/6/2022 1:30:00 AM 13.82 56.876 0.482 8.08 2.21 9.53
11/6/2022 1:45:00 AM 13.84 56.912 0.482 8.08 4.04 9.53
11/6/2022 2:00:00 AM 13.86 56.948 0.484 8.08 2.87 9.5
11/6/2022 2:15:00 AM 13.91 57.038 0.483 8.06 2.61 9.38
11/6/2022 2:30:00 AM 13.92 57.056 0.483 8.03 2.38 9.23
11/6/2022 2:45:00 AM 13.93 57.074 0.481 8.02 2.52 9.11
11/6/2022 3:00:00 AM 13.91 57.038 0.481 8.02 2.21 9.1
11/6/2022 3:15:00 AM 13.9 57.02 0.482 8.02 2.11 9.1
11/6/2022 3:30:00 AM 13.9 57.02 0.483 8.03 2.04 9.15
11/6/2022 3:45:00 AM 13.91 57.038 0.483 8.03 1.92 9.19
11/6/2022 4:00:00 AM 13.93 57.074 0.484 8.02 1.87 9.09
11/6/2022 4:15:00 AM 13.93 57.074 0.485 8 1.91 9.06
11/6/2022 4:30:00 AM 13.99 57.182 0.485 8 1.87 9.03
11/6/2022 4:45:00 AM 13.97 57.146 0.486 7.99 1.86 9
11/6/2022 5:00:00 AM 13.96 57.128 0.486 7.98 1.92 8.96
11/6/2022 5:15:00 AM 13.18 55.724 0.458 7.54 1.78 8.45
11/6/2022 5:30:00 AM 13.9 57.02 0.478 7.92 1.91 8.84
11/6/2022 5:45:00 AM 14.01 57.218 0.483 7.97 1.87 8.88
11/6/2022 6:00:00 AM 14.02 57.236 0.485 7.97 1.96 8.87
11/6/2022 6:15:00 AM 14.01 57.218 0.484 7.97 1.91 8.86
11/6/2022 6:30:00 AM 14.01 57.218 0.486 7.97 2.04 8.84
11/6/2022 6:45:00 AM 14 57.2 0.483 7.96 2.04 8.72
11/6/2022 7:00:00 AM 13.99 57.182 0.484 7.95 2.13 8.68
11/6/2022 7:15:00 AM 14 57.2 0.484 7.95 1.98 8.69
11/6/2022 7:30:00 AM 14.03 57.254 0.483 7.95 1.84 8.72
11/6/2022 7:45:00 AM 14.05 57.29 0.484 7.95 2.2 8.68
11/6/2022 8:00:00 AM 14.09 57.362 0.485 7.94 1.89 8.65
11/6/2022 8:15:00 AM 14.09 57.362 0.484 7.94 1.82 8.58
11/6/2022 8:30:00 AM 14.21 57.578 0.484 7.95 1.88 8.64
11/6/2022 8:45:00 AM 14.25 57.65 0.486 7.94 1.83 8.65
11/6/2022 9:00:00 AM 14.24 57.632 0.484 7.94 2.05 8.58
11/6/2022 9:15:00 AM 14.44 57.992 0.484 7.94 3.09 8.63
11/6/2022 9:30:00 AM 14.41 57.938 0.484 7.93 2.68 8.55
11/6/2022 9:45:00 AM 14.44 57.992 0.485 7.92 2.37 8.5
11/6/2022 10:00:00 AM 14.53 58.154 0.482 7.93 1.93 8.6
11/6/2022 10:15:00 AM 14.58 58.244 0.483 7.96 1.99 8.7
11/6/2022 10:30:00 AM 14.68 58.424 0.483 7.98 1.93 8.84
11/6/2022 10:45:00 AM 14.65 58.37 0.484 8.01 1.9 9.06
11/6/2022 11:00:00 AM 14.75 58.55 0.483 8.01 1.9 9.13
11/6/2022 11:15:00 AM 14.74 58.532 0.484 8.01 1.85 9.19
11/6/2022 11:30:00 AM 14.86 58.748 0.483 8.03 1.97 9.23
11/6/2022 11:45:00 AM 14.88 58.784 0.481 8.06 2.1 9.37
11/6/2022 12:00:00 PM 15 59 0.482 8.1 2.1 9.64
11/6/2022 12:15:00 PM 15.1 59.18 0.482 8.15 1.86 9.91
11/6/2022 12:30:00 PM 15.19 59.342 0.484 8.19 1.8 10.17
11/6/2022 12:45:00 PM 15.24 59.432 0.482 8.2 1.77 10.19
11/6/2022 1:00:00 PM 15.34 59.612 0.483 8.2 1.87 10.26
11/6/2022 1:15:00 PM 15.47 59.846 0.483 8.24 1.81 10.49
11/6/2022 1:30:00 PM 15.5 59.9 0.48 8.26 1.91 10.63
11/6/2022 1:45:00 PM 15.61 60.098 0.482 8.25 2.05 10.5
11/6/2022 2:00:00 PM 15.69 60.242 0.481 8.27 2.05 10.68
11/6/2022 2:15:00 PM 15.66 60.188 0.483 8.32 1.9 10.86
11/6/2022 2:30:00 PM 15.68 60.224 0.481 8.32 1.92 10.89
11/6/2022 2:45:00 PM 15.83 60.494 0.481 8.33 1.94 10.93
11/6/2022 3:00:00 PM 15.89 60.602 0.48 8.35 1.96 11.05
11/6/2022 3:15:00 PM 15.98 60.764 0.48 8.37 1.94 11.08
11/6/2022 3:30:00 PM 15.28 59.504 0.46 8.04 1.88 10.7
11/6/2022 3:45:00 PM 14.83 58.694 0.448 7.81 1.69 10.41
11/6/2022 4:00:00 PM 15.75 60.35 0.476 8.32 1.83 11.12
11/6/2022 4:15:00 PM 15.88 60.584 0.48 8.39 1.95 11.27
11/6/2022 4:30:00 PM 15.88 60.584 0.482 8.41 1.76 11.35
11/6/2022 4:45:00 PM 15.87 60.566 0.479 8.42 1.75 11.39
11/6/2022 5:00:00 PM 15.9 60.62 0.482 8.41 1.69 11.24
11/6/2022 5:15:00 PM 15.23 59.414 0.459 8.08 1.65 10.91
11/6/2022 5:30:00 PM 15.77 60.386 0.478 8.38 1.7 11.42
11/6/2022 5:45:00 PM 15.84 60.512 0.481 8.43 1.7 11.46
11/6/2022 6:00:00 PM 15.82 60.476 0.482 8.43 1.75 11.5
11/6/2022 6:15:00 PM 15.81 60.458 0.479 8.43 1.74 11.44
11/6/2022 6:30:00 PM 15.79 60.422 0.479 8.44 1.73 11.41
11/6/2022 6:45:00 PM 15.77 60.386 0.481 8.42 1.78 11.32
11/6/2022 7:00:00 PM 15.74 60.332 0.481 8.41 1.76 11.25
11/6/2022 7:15:00 PM 15.73 60.314 0.481 8.4 1.75 11.14
11/6/2022 7:30:00 PM 15.72 60.296 0.481 8.4 1.75 11.11
11/6/2022 7:45:00 PM 15.72 60.296 0.482 8.38 1.79 11.01
11/6/2022 8:00:00 PM 15.72 60.296 0.481 8.37 1.85 10.92
11/6/2022 8:15:00 PM 15.71 60.278 0.479 8.36 1.93 10.87
11/6/2022 8:30:00 PM 15.7 60.26 0.48 8.36 1.88 10.82
11/6/2022 8:45:00 PM 15.69 60.242 0.481 8.34 1.82 10.74
11/6/2022 9:00:00 PM 15.68 60.224 0.469 8.28 6.34 10.35
11/6/2022 9:15:00 PM 15.68 60.224 0.468 8.27 4.63 10.21
11/6/2022 9:30:00 PM 15.67 60.206 0.474 8.25 2.95 10.09
11/6/2022 9:45:00 PM 15.66 60.188 0.472 8.23 2.54 10.02
11/6/2022 10:00:00 PM 15.64 60.152 0.474 8.21 2.39 9.92
11/6/2022 10:15:00 PM 15.62 60.116 0.477 8.19 2.35 9.82
11/6/2022 10:30:00 PM 15.6 60.08 0.477 8.17 2.3 9.67
11/6/2022 10:45:00 PM 15.57 60.026 0.477 8.14 2.24 9.55
11/6/2022 11:00:00 PM 15.53 59.954 0.476 8.12 2.21 9.41
11/6/2022 11:15:00 PM 15.51 59.918 0.477 8.11 2.12 9.33
11/6/2022 11:30:00 PM 15.49 59.882 0.477 8.1 2.07 9.24
11/6/2022 11:45:00 PM 15.48 59.864 0.477 8.08 2.01 9.17
11/7/2022 12:00:00 AM 15.46 59.828 0.477 8.07 2.01 9.09
11/7/2022 12:15:00 AM 15.45 59.81 0.476 8.07 1.97 9.07
11/7/2022 12:30:00 AM 15.42 59.756 0.475 8.04 1.98 8.95
11/7/2022 12:45:00 AM 15.38 59.684 0.476 8.03 1.96 8.87
11/7/2022 1:00:00 AM 15.33 59.594 0.477 8.02 2 8.83
11/7/2022 1:15:00 AM 15.28 59.504 0.477 8.01 1.98 8.77
11/7/2022 1:30:00 AM 15.23 59.414 0.475 8 1.98 8.71
11/7/2022 1:45:00 AM 15.19 59.342 0.476 7.98 1.89 8.65
11/7/2022 2:00:00 AM 15.15 59.27 0.476 7.96 1.9 8.58
11/7/2022 2:15:00 AM 15.12 59.216 0.476 7.96 1.98 8.53
11/7/2022 2:30:00 AM 15.06 59.108 0.476 7.94 1.94 8.45
11/7/2022 2:45:00 AM 15.02 59.036 0.476 7.93 1.95 8.39
11/7/2022 3:00:00 AM 14.97 58.946 0.477 7.92 1.92 8.32
11/7/2022 3:15:00 AM 14.92 58.856 0.475 7.91 1.88 8.24
11/7/2022 3:30:00 AM 14.88 58.784 0.478 7.9 1.91 8.19
11/7/2022 3:45:00 AM 14.82 58.676 0.477 7.89 1.94 8.14
11/7/2022 4:00:00 AM 14.78 58.604 0.479 7.88 1.89 8.07
11/7/2022 4:15:00 AM 14.74 58.532 0.478 7.87 1.93 8.05
11/7/2022 4:30:00 AM 14.69 58.442 0.481 7.86 1.9 8
11/7/2022 4:45:00 AM 14.64 58.352 0.479 7.85 1.9 7.95
11/7/2022 5:00:00 AM 14.59 58.262 0.481 7.84 2.39 7.89
11/7/2022 5:15:00 AM 14.51 58.118 0.478 7.83 2.21 7.86
11/7/2022 5:30:00 AM 14.46 58.028 0.478 7.83 1.96 7.84
11/7/2022 5:45:00 AM 14.42 57.956 0.48 7.83 2.12 7.81
11/7/2022 6:00:00 AM 14.37 57.866 0.481 7.82 1.92 7.81
11/7/2022 6:15:00 AM 14.32 57.776 0.479 7.82 1.88 7.81
11/7/2022 6:30:00 AM 14.27 57.686 0.478 7.82 1.89 7.81
11/7/2022 6:45:00 AM 14.27 57.686 0.478 7.81 1.97 7.8
11/7/2022 7:00:00 AM 14.22 57.596 0.479 7.81 2.03 7.76
11/7/2022 7:15:00 AM 14.18 57.524 0.48 7.8 1.95 7.72
11/7/2022 7:30:00 AM 14.15 57.47 0.479 7.8 1.98 7.72
11/7/2022 7:45:00 AM 14.14 57.452 0.48 7.8 2.09 7.71
11/7/2022 8:00:00 AM 14.1 57.38 0.48 7.8 1.94 7.7
11/7/2022 8:15:00 AM 14.08 57.344 0.481 7.81 1.92 7.75
11/7/2022 8:30:00 AM 14.05 57.29 0.48 7.81 1.98 7.76
11/7/2022 8:45:00 AM 14.03 57.254 0.482 7.81 1.95 7.77
11/7/2022 9:00:00 AM 14.01 57.218 0.48 7.81 1.88 7.86
11/7/2022 9:15:00 AM 13.99 57.182 0.48 7.82 1.93 7.91
11/7/2022 9:30:00 AM 13.97 57.146 0.481 7.82 1.89 7.94
11/7/2022 9:45:00 AM 13.96 57.128 0.481 7.83 1.93 8.01
11/7/2022 10:00:00 AM 13.97 57.146 0.482 7.83 1.89 8.08
11/7/2022 10:15:00 AM 14 57.2 0.484 7.86 1.94 8.15
11/7/2022 10:30:00 AM 14 57.2 0.484 7.87 1.91 8.35
11/7/2022 10:45:00 AM 14.03 57.254 0.484 7.88 1.91 8.56
11/7/2022 11:00:00 AM 14.08 57.344 0.484 7.92 1.9 8.69
11/7/2022 11:15:00 AM 14.12 57.416 0.483 7.95 1.83 8.95
11/7/2022 11:30:00 AM 14.26 57.668 0.482 8 1.87 9.34
11/7/2022 11:45:00 AM 14.31 57.758 0.484 8.04 1.87 9.54
11/7/2022 12:00:00 PM 14.34 57.812 0.483 8.06 1.83 9.72
11/7/2022 12:15:00 PM 14.43 57.974 0.485 8.09 1.84 9.96
11/7/2022 12:30:00 PM 14.54 58.172 0.482 8.13 1.86 10.18
11/7/2022 12:45:00 PM 14.58 58.244 0.481 8.16 1.79 10.37
11/7/2022 1:00:00 PM 14.7 58.46 0.481 8.2 1.8 10.57
11/7/2022 1:15:00 PM 14.71 58.478 0.484 8.22 1.78 10.69
11/7/2022 1:30:00 PM 14.76 58.568 0.482 8.25 1.94 10.88
11/7/2022 1:45:00 PM 14.8 58.64 0.482 8.28 1.83 10.99
11/7/2022 2:00:00 PM 14.81 58.658 0.481 8.29 1.85 11.08
11/7/2022 2:15:00 PM 14.8 58.64 0.484 8.31 1.84 11.09
11/7/2022 2:30:00 PM 14.76 58.568 0.482 8.31 1.95 11.16
11/7/2022 2:45:00 PM 14.72 58.496 0.481 8.32 1.96 11.16
11/7/2022 3:00:00 PM 14.68 58.424 0.48 8.32 2.06 11.16
11/7/2022 3:15:00 PM 14.63 58.334 0.484 8.33 2.1 11.27
11/7/2022 3:30:00 PM 14.65 58.37 0.482 8.33 2.05 11.25
11/7/2022 3:45:00 PM 14.66 58.388 0.481 8.34 1.94 11.28
11/7/2022 4:00:00 PM 14.64 58.352 0.481 8.34 1.93 11.27
11/7/2022 4:15:00 PM 14.6 58.28 0.482 8.34 1.97 11.22
11/7/2022 4:30:00 PM 14.54 58.172 0.482 8.32 1.89 11.19
11/7/2022 4:45:00 PM 14.47 58.046 0.482 8.33 1.88 11.13
11/7/2022 5:00:00 PM 14.4 57.92 0.483 8.32 1.87 11.08
11/7/2022 5:15:00 PM 14.33 57.794 0.483 8.31 1.81 11.02
11/7/2022 5:30:00 PM 14.3 57.74 0.483 8.3 1.87 10.96
11/7/2022 5:45:00 PM 14.21 57.578 0.485 8.29 1.87 10.9
11/7/2022 6:00:00 PM 14.17 57.506 0.483 8.28 1.81 10.81
11/7/2022 6:15:00 PM 14.15 57.47 0.483 8.26 1.87 10.73
11/7/2022 6:30:00 PM 14.1 57.38 0.484 8.25 1.87 10.63
11/7/2022 6:45:00 PM 14.07 57.326 0.485 8.23 1.86 10.56
11/7/2022 7:00:00 PM 13.96 57.128 0.484 8.22 1.88 10.5
11/7/2022 7:15:00 PM 13.91 57.038 0.484 8.21 1.86 10.43
11/7/2022 7:30:00 PM 13.87 56.966 0.484 8.2 1.83 10.35
11/7/2022 7:45:00 PM 13.81 56.858 0.486 8.19 1.83 10.28
11/7/2022 8:00:00 PM 13.73 56.714 0.485 8.18 1.91 10.2
11/7/2022 8:15:00 PM 13.65 56.57 0.483 8.17 2 10.14
11/7/2022 8:30:00 PM 13.59 56.462 0.485 8.13 1.89 10.05
11/7/2022 8:45:00 PM 13.5 56.3 0.487 8.12 1.87 10
11/7/2022 9:00:00 PM 13.47 56.246 0.485 8.11 1.93 9.91
11/7/2022 9:15:00 PM 13.4 56.12 0.485 8.11 1.93 9.84
11/7/2022 9:30:00 PM 13.34 56.012 0.486 8.09 1.93 9.74
11/7/2022 9:45:00 PM 13.25 55.85 0.487 8.08 1.92 9.65
11/7/2022 10:00:00 PM 13.15 55.67 0.485 8.06 1.95 9.61
11/7/2022 10:15:00 PM 13.08 55.544 0.488 8.06 1.9 9.52
11/7/2022 10:30:00 PM 12.99 55.382 0.487 8.04 1.87 9.43
11/7/2022 10:45:00 PM 12.99 55.382 0.488 8.03 1.89 9.33
11/7/2022 11:00:00 PM 12.88 55.184 0.486 8.02 1.89 9.27
11/7/2022 11:15:00 PM 12.82 55.076 0.486 8.01 1.92 9.23
11/7/2022 11:30:00 PM 12.8 55.04 0.486 8 1.86 9.15
11/7/2022 11:45:00 PM 12.72 54.896 0.487 7.99 1.88 9.09
11/8/2022 12:00:00 AM 12.61 54.698 0.487 7.98 1.89 9.04
11/8/2022 12:15:00 AM 12.55 54.59 0.489 7.97 1.84 8.93
11/8/2022 12:30:00 AM 12.55 54.59 0.487 7.96 2.06 8.96
11/8/2022 12:45:00 AM 12.52 54.536 0.488 7.96 1.95 8.92
11/8/2022 1:00:00 AM 12.47 54.446 0.487 7.95 1.96 8.89
11/8/2022 1:15:00 AM 12.42 54.356 0.488 7.95 1.97 8.85
11/8/2022 1:30:00 AM 12.33 54.194 0.488 7.94 1.91 8.84
11/8/2022 1:45:00 AM 12.25 54.05 0.488 7.93 1.91 8.84
11/8/2022 2:00:00 AM 12.21 53.978 0.488 7.92 2.07 8.82
11/8/2022 2:15:00 AM 12.22 53.996 0.49 7.92 2 8.79
11/8/2022 2:30:00 AM 12.18 53.924 0.488 7.91 2.1 8.75
11/8/2022 2:45:00 AM 12.11 53.798 0.49 7.91 1.92 8.71
11/8/2022 3:00:00 AM 11.41 52.538 0.461 7.46 1.82 8.22
11/8/2022 3:15:00 AM 11.83 53.294 0.486 7.83 1.86 8.63
11/8/2022 3:30:00 AM 11.9 53.42 0.488 7.86 1.95 8.63
11/8/2022 3:45:00 AM 11.87 53.366 0.49 7.87 2 8.59
11/8/2022 4:00:00 AM 11.81 53.258 0.49 7.86 2.04 8.55
11/8/2022 4:15:00 AM 11.79 53.222 0.49 7.86 2.03 8.52
11/8/2022 4:30:00 AM 11.72 53.096 0.489 7.86 1.99 8.51
11/8/2022 4:45:00 AM 11.69 53.042 0.491 7.86 1.98 8.51
11/8/2022 5:00:00 AM 11.72 53.096 0.49 7.86 1.96 8.52
11/8/2022 5:15:00 AM 11.75 53.15 0.492 7.87 1.93 8.51
11/8/2022 5:30:00 AM 11.3 52.34 0.472 7.55 1.99 8.16
11/8/2022 5:45:00 AM 11.73 53.114 0.489 7.82 1.95 8.45
11/8/2022 6:00:00 AM 11.82 53.276 0.491 7.87 2.01 8.5
11/8/2022 6:15:00 AM 11.79 53.222 0.492 7.87 1.98 8.51
11/8/2022 6:30:00 AM 11.74 53.132 0.492 7.87 1.97 8.51
11/8/2022 6:45:00 AM 11.7 53.06 0.491 7.87 2 8.46
11/8/2022 7:00:00 AM 11.67 53.006 0.491 7.87 2 8.47
11/8/2022 7:15:00 AM 11.6 52.88 0.491 7.87 2.06 8.48
11/8/2022 7:30:00 AM 11.6 52.88 0.49 7.86 2.01 8.47
11/8/2022 7:45:00 AM 11.55 52.79 0.491 7.88 2.08 8.5
11/8/2022 8:00:00 AM 11.46 52.628 0.492 7.88 1.99 8.58
11/8/2022 8:15:00 AM 11.44 52.592 0.493 7.88 1.98 8.64
11/8/2022 8:30:00 AM 11.47 52.646 0.492 7.89 1.99 8.69
11/8/2022 8:45:00 AM 11.48 52.664 0.492 7.9 1.95 8.77
11/8/2022 9:00:00 AM 11.48 52.664 0.492 7.9 1.97 8.84
11/8/2022 9:15:00 AM 11.54 52.772 0.492 7.92 2.02 8.91
11/8/2022 9:30:00 AM 11.52 52.736 0.492 7.93 2.25 9.06
11/8/2022 9:45:00 AM 11.53 52.754 0.493 7.94 4.06 9.11
11/8/2022 10:00:00 AM 11.43 52.574 0.492 7.96 2.42 9.25
11/8/2022 10:15:00 AM 11.4 52.52 0.493 7.97 2.6 9.35
11/8/2022 10:30:00 AM 11.45 52.61 0.493 7.98 2.16 9.43
11/8/2022 10:45:00 AM 11.43 52.574 0.493 8 2 9.58
11/8/2022 11:00:00 AM 11.45 52.61 0.494 8.01 4.08 9.64
11/8/2022 11:15:00 AM 11.5 52.7 0.494 8.03 4.07 9.78
11/8/2022 11:30:00 AM 11.58 52.844 0.494 8.07 3.3 10
11/8/2022 11:45:00 AM 11.69 53.042 0.494 8.11 2.48 10.19
11/8/2022 12:00:00 PM 11.69 53.042 0.493 8.13 2.25 10.33
11/8/2022 12:15:00 PM 11.74 53.132 0.494 8.17 2.13 10.54
11/8/2022 12:30:00 PM 11.81 53.258 0.492 8.19 2.15 10.72
11/8/2022 12:45:00 PM 11.84 53.312 0.494 8.23 2.04 10.96
11/8/2022 1:00:00 PM 11.91 53.438 0.492 8.26 1.94 11.13
11/8/2022 1:15:00 PM 11.92 53.456 0.492 8.29 2.39 11.27
11/8/2022 1:30:00 PM 11.98 53.564 0.492 8.31 1.98 11.37
11/8/2022 1:45:00 PM 12.02 53.636 0.493 8.34 1.86 11.44
11/8/2022 2:00:00 PM 12.04 53.672 0.491 8.35 1.85 11.59
11/8/2022 2:15:00 PM 12.02 53.636 0.493 8.37 1.86 11.71
11/8/2022 2:30:00 PM 11.99 53.582 0.491 8.37 1.93 11.75
11/8/2022 2:45:00 PM 11.99 53.582 0.492 8.39 1.92 11.82
11/8/2022 3:00:00 PM 11.92 53.456 0.492 8.39 1.87 11.87
11/8/2022 3:15:00 PM 11.89 53.402 0.492 8.4 1.89 11.91
11/8/2022 3:30:00 PM 11.89 53.402 0.492 8.41 1.86 11.91
11/8/2022 3:45:00 PM 11.87 53.366 0.493 8.41 1.89 11.8
11/8/2022 4:00:00 PM 11.84 53.312 0.492 8.42 1.83 11.91
11/8/2022 4:15:00 PM 11.79 53.222 0.492 8.41 1.82 11.9
11/8/2022 4:30:00 PM 11.82 53.276 0.494 8.41 1.82 11.91
11/8/2022 4:45:00 PM 11.76 53.168 0.493 8.41 1.82 11.85
11/8/2022 5:00:00 PM 11.79 53.222 0.493 8.4 1.86 11.86
11/8/2022 5:15:00 PM 11.71 53.078 0.494 8.41 1.84 11.83
11/8/2022 5:30:00 PM 11.69 53.042 0.494 8.4 1.95 11.77
11/8/2022 5:45:00 PM 11.68 53.024 0.493 8.39 1.86 11.72
11/8/2022 6:00:00 PM 11.65 52.97 0.493 8.38 1.83 11.65
11/8/2022 6:15:00 PM 11.59 52.862 0.495 8.37 1.83 11.58
11/8/2022 6:30:00 PM 11.52 52.736 0.495 8.36 1.86 11.52
11/8/2022 6:45:00 PM 11.47 52.646 0.496 8.36 1.86 11.47
11/8/2022 7:00:00 PM 11.45 52.61 0.496 8.34 1.86 11.39
11/8/2022 7:15:00 PM 11.4 52.52 0.496 8.33 1.85 11.31
11/8/2022 7:30:00 PM 11.33 52.394 0.496 8.32 1.95 11.25
11/8/2022 7:45:00 PM 11.3 52.34 0.497 8.3 1.86 11.16
11/8/2022 8:00:00 PM 11.29 52.322 0.495 8.28 1.88 11.07
11/8/2022 8:15:00 PM 11.26 52.268 0.496 8.27 1.88 10.99
11/8/2022 8:30:00 PM 11.17 52.106 0.496 8.26 1.97 10.92
11/8/2022 8:45:00 PM 11.11 51.998 0.496 8.25 1.89 10.85
11/8/2022 9:00:00 PM 11.08 51.944 0.496 8.22 1.9 10.76
11/8/2022 9:15:00 PM 10.31 50.558 0.463 7.68 1.88 9.99
11/8/2022 9:30:00 PM 10.86 51.548 0.491 8.12 1.97 10.51
11/8/2022 9:45:00 PM 10.85 51.53 0.494 8.16 1.94 10.53
11/8/2022 10:00:00 PM 10.82 51.476 0.496 8.17 1.9 10.48
11/8/2022 10:15:00 PM 10.79 51.422 0.495 8.16 2.02 10.42
11/8/2022 10:30:00 PM 10.74 51.332 0.495 8.15 2 10.36
11/8/2022 10:45:00 PM 10.69 51.242 0.494 8.14 2 10.3
11/8/2022 11:00:00 PM 10.64 51.152 0.496 8.12 1.95 10.24
11/8/2022 11:15:00 PM 10.59 51.062 0.495 8.12 2 10.19
11/8/2022 11:30:00 PM 10.52 50.936 0.496 8.11 2 10.14
11/8/2022 11:45:00 PM 10.44 50.792 0.494 8.1 1.93 10.13
11/9/2022 12:00:00 AM 10.39 50.702 0.497 8.08 2.02 10.07
11/9/2022 12:15:00 AM 10.32 50.576 0.496 8.08 1.95 10.03
11/9/2022 12:30:00 AM 10.25 50.45 0.497 8.07 2.06 10.01
11/9/2022 12:45:00 AM 10.19 50.342 0.495 8.06 2.03 9.97
11/9/2022 1:00:00 AM 10.1 50.18 0.496 8.04 1.98 9.94
11/9/2022 1:15:00 AM 9.99 49.982 0.496 8.04 2.06 9.91
11/9/2022 1:30:00 AM 9.87 49.766 0.496 8.03 1.97 9.84
11/9/2022 1:45:00 AM 9.81 49.658 0.496 8.03 2.03 9.81
11/9/2022 2:00:00 AM 9.74 49.532 0.496 8.02 1.98 9.81
11/9/2022 2:15:00 AM 9.68 49.424 0.495 8.02 2 9.76
11/9/2022 2:30:00 AM 9.62 49.316 0.496 8.01 2.04 9.73
11/9/2022 2:45:00 AM 9.53 49.154 0.495 8 2 9.66
11/9/2022 3:00:00 AM 9.47 49.046 0.495 7.99 2 9.58
11/9/2022 3:15:00 AM 9.44 48.992 0.495 7.98 1.97 9.59
11/9/2022 3:30:00 AM 9.34 48.812 0.496 7.97 1.97 9.55
11/9/2022 3:45:00 AM 9.27 48.686 0.495 7.96 2 9.55
11/9/2022 4:00:00 AM 9.22 48.596 0.495 7.96 1.99 9.54
11/9/2022 4:15:00 AM 9.16 48.488 0.495 7.96 2.07 9.49
11/9/2022 4:30:00 AM 9.12 48.416 0.496 7.94 1.99 9.46
11/9/2022 4:45:00 AM 9.06 48.308 0.496 7.93 1.97 9.38
11/9/2022 5:00:00 AM 9.04 48.272 0.495 7.92 2.01 9.35
11/9/2022 5:15:00 AM 8.96 48.128 0.496 7.93 2.01 9.36
11/9/2022 5:30:00 AM 8.95 48.11 0.495 7.92 2.05 9.37
11/9/2022 5:45:00 AM 8.9 48.02 0.495 7.92 2.14 9.39
11/9/2022 6:00:00 AM 8.85 47.93 0.496 7.92 2.02 9.35
11/9/2022 6:15:00 AM 8.83 47.894 0.495 7.91 2.06 9.36
11/9/2022 6:30:00 AM 8.77 47.786 0.495 7.91 2.17 9.32
11/9/2022 6:45:00 AM 8.71 47.678 0.496 7.91 2 9.32
11/9/2022 7:00:00 AM 8.64 47.552 0.496 7.91 2.07 9.3
11/9/2022 7:15:00 AM 8.65 47.57 0.495 7.9 2.06 9.3
11/9/2022 7:30:00 AM 8.6 47.48 0.495 7.91 2.02 9.3
11/9/2022 7:45:00 AM 8.63 47.534 0.496 7.91 2.62 9.34
11/9/2022 8:00:00 AM 8.55 47.39 0.495 7.92 2.16 9.38
11/9/2022 8:15:00 AM 8.53 47.354 0.495 7.92 2.08 9.41
11/9/2022 8:30:00 AM 8.5 47.3 0.495 7.93 2.08 9.41
11/9/2022 8:45:00 AM 8.51 47.318 0.495 7.92 2.02 9.47
11/9/2022 9:00:00 AM 8.51 47.318 0.496 7.93 2 9.46
11/9/2022 9:15:00 AM 8.52 47.336 0.495 7.94 2.09 9.53
11/9/2022 9:30:00 AM 8.53 47.354 0.495 7.94 2.03 9.59
11/9/2022 9:45:00 AM 8.54 47.372 0.495 7.95 2.03 9.61
11/9/2022 10:00:00 AM 8.56 47.408 0.496 7.96 2 9.72
11/9/2022 10:15:00 AM 8.59 47.462 0.495 7.96 2.14 9.79
11/9/2022 10:30:00 AM 8.62 47.516 0.495 7.98 1.98 9.85
11/9/2022 10:45:00 AM 8.67 47.606 0.495 7.99 2 9.97
11/9/2022 11:00:00 AM 8.75 47.75 0.495 8.01 2 10.08
11/9/2022 11:15:00 AM 8.84 47.912 0.494 8.04 1.98 10.23
11/9/2022 11:30:00 AM 8.89 48.002 0.495 8.06 2.13 10.38
11/9/2022 11:45:00 AM 9.02 48.236 0.494 8.1 2.03 10.54
11/9/2022 12:00:00 PM 9.12 48.416 0.494 8.14 6.46 10.74
11/9/2022 12:15:00 PM 9.23 48.614 0.494 8.16 3.67 10.93
11/9/2022 12:30:00 PM 9.36 48.848 0.494 8.19 2.33 11.14
11/9/2022 12:45:00 PM 9.54 49.172 0.493 8.22 2.7 11.38
11/9/2022 1:00:00 PM 9.74 49.532 0.493 8.28 2.5 11.62
11/9/2022 1:15:00 PM 9.85 49.73 0.492 8.32 2.22 11.8
11/9/2022 1:30:00 PM 9.92 49.856 0.492 8.33 2.11 11.99
11/9/2022 1:45:00 PM 9.95 49.91 0.492 8.35 2.11 12.12
11/9/2022 2:00:00 PM 10.02 50.036 0.493 8.37 2.17 12.24
11/9/2022 2:15:00 PM 10.05 50.09 0.493 8.39 2.33 12.34
11/9/2022 2:30:00 PM 10.04 50.072 0.493 8.41 2.14 12.32
11/9/2022 2:45:00 PM 10.09 50.162 0.493 8.44 2.06 12.47
11/9/2022 3:00:00 PM 10.15 50.27 0.493 8.45 2.01 12.57
11/9/2022 3:15:00 PM 10.18 50.324 0.492 8.44 2.01 12.59
11/9/2022 3:30:00 PM 10.2 50.36 0.493 8.46 1.97 12.61
11/9/2022 3:45:00 PM 10.22 50.396 0.492 8.47 1.95 12.64
11/9/2022 4:00:00 PM 10.19 50.342 0.493 8.47 1.88 12.64
11/9/2022 4:15:00 PM 10.17 50.306 0.493 8.47 1.96 12.67
11/9/2022 4:30:00 PM 10.16 50.288 0.492 8.47 2.5 12.68
11/9/2022 4:45:00 PM 10.15 50.27 0.493 8.47 1.97 12.7
11/9/2022 5:00:00 PM 10.1 50.18 0.493 8.46 1.85 12.68
11/9/2022 5:15:00 PM 10.07 50.126 0.493 8.46 1.9 12.63
11/9/2022 5:30:00 PM 10.03 50.054 0.493 8.45 2.14 12.57
11/9/2022 5:45:00 PM 10.01 50.018 0.494 8.45 1.9 12.51
11/9/2022 6:00:00 PM 9.94 49.892 0.493 8.43 1.9 12.46
11/9/2022 6:15:00 PM 9.91 49.838 0.494 8.43 1.86 12.38
11/9/2022 6:30:00 PM 9.88 49.784 0.494 8.42 1.95 12.31
11/9/2022 6:45:00 PM 9.85 49.73 0.494 8.41 1.91 12.27
11/9/2022 7:00:00 PM 9.82 49.676 0.495 8.4 1.88 12.19
11/9/2022 7:15:00 PM 9.81 49.658 0.495 8.39 1.89 12.11
11/9/2022 7:30:00 PM 9.82 49.676 0.496 8.38 2.38 12.03
11/9/2022 7:45:00 PM 9.78 49.604 0.495 8.36 1.98 11.92
11/9/2022 8:00:00 PM 9.75 49.55 0.495 8.35 2 11.85
11/9/2022 8:15:00 PM 9.66 49.388 0.497 8.34 1.93 11.79
11/9/2022 8:30:00 PM 9.65 49.37 0.495 8.32 1.98 11.72
11/9/2022 8:45:00 PM 9.6 49.28 0.495 8.32 1.94 11.64
11/9/2022 9:00:00 PM 9.57 49.226 0.496 8.3 1.91 11.55
11/9/2022 9:15:00 PM 9.52 49.136 0.496 8.29 2.04 11.49
11/9/2022 9:30:00 PM 9.47 49.046 0.496 8.27 1.94 11.42
11/9/2022 9:45:00 PM 9.43 48.974 0.497 8.27 1.92 11.35
11/9/2022 10:00:00 PM 9.39 48.902 0.497 8.26 1.93 11.31
11/9/2022 10:15:00 PM 9.37 48.866 0.497 8.25 1.95 11.25
11/9/2022 10:30:00 PM 9.33 48.794 0.497 8.24 2.01 11.21
11/9/2022 10:45:00 PM 9.26 48.668 0.497 8.24 1.98 11.2
11/9/2022 11:00:00 PM 9.2 48.56 0.497 8.22 1.94 11.13
11/9/2022 11:15:00 PM 9.17 48.506 0.497 8.21 1.95 11.06
11/9/2022 11:30:00 PM 9.13 48.434 0.497 8.19 1.94 11.01
11/9/2022 11:45:00 PM 9.06 48.308 0.497 8.19 2 10.96
11/10/2022 12:00:00 AM 9.03 48.254 0.496 8.17 1.95 10.91
11/10/2022 12:15:00 AM 8.98 48.164 0.497 8.15 1.94 10.84
11/10/2022 12:30:00 AM 8.91 48.038 0.498 8.14 1.97 10.78
11/10/2022 12:45:00 AM 8.85 47.93 0.497 8.13 1.94 10.74
11/10/2022 1:00:00 AM 8.82 47.876 0.497 8.12 1.97 10.67
11/10/2022 1:15:00 AM 8.77 47.786 0.498 8.1 1.97 10.62
11/10/2022 1:30:00 AM 8.71 47.678 0.498 8.09 1.96 10.56
11/10/2022 1:45:00 AM 8.65 47.57 0.498 8.08 1.94 10.52
11/10/2022 2:00:00 AM 8.6 47.48 0.498 8.07 1.97 10.46
11/10/2022 2:15:00 AM 8.56 47.408 0.498 8.06 2.03 10.4
11/10/2022 2:30:00 AM 8.51 47.318 0.498 8.05 2 10.37
11/10/2022 2:45:00 AM 8.46 47.228 0.498 8.05 1.96 10.35
11/10/2022 3:00:00 AM 8.43 47.174 0.498 8.03 2.08 10.28
11/10/2022 3:15:00 AM 8.38 47.084 0.497 8.02 2.02 10.24
11/10/2022 3:30:00 AM 8.35 47.03 0.498 8.02 2.01 10.23
11/10/2022 3:45:00 AM 8.29 46.922 0.498 8.02 2.02 10.23
11/10/2022 4:00:00 AM 8.23 46.814 0.498 8.01 1.98 10.2
11/10/2022 4:15:00 AM 8.21 46.778 0.497 8 2 10.16
11/10/2022 4:30:00 AM 8.17 46.706 0.498 7.99 2.14 10.13
11/10/2022 4:45:00 AM 8.1 46.58 0.497 7.99 2.01 10.08
11/10/2022 5:00:00 AM 8.07 46.526 0.497 7.98 2.05 10.08
11/10/2022 5:15:00 AM 8.04 46.472 0.497 7.98 2.08 10.05
11/10/2022 5:30:00 AM 7.98 46.364 0.496 7.97 2.08 10.04
11/10/2022 5:45:00 AM 7.95 46.31 0.497 7.97 2.03 10.01
11/10/2022 6:00:00 AM 7.94 46.292 0.497 7.97 2.03 9.99
11/10/2022 6:15:00 AM 7.92 46.256 0.497 7.97 2.01 9.98
11/10/2022 6:30:00 AM 7.87 46.166 0.497 7.96 2.04 9.98
11/10/2022 6:45:00 AM 7.85 46.13 0.498 7.96 2.3 9.97
11/10/2022 7:00:00 AM 7.8 46.04 0.497 7.94 2.08 9.95
11/10/2022 7:15:00 AM 7.77 45.986 0.496 7.95 2.02 9.96
11/10/2022 7:30:00 AM 7.78 46.004 0.497 7.96 2.21 9.98
11/10/2022 7:45:00 AM 7.77 45.986 0.497 7.96 2.11 10.01
11/10/2022 8:00:00 AM 7.75 45.95 0.496 7.96 2.08 10.07
11/10/2022 8:15:00 AM 7.75 45.95 0.495 7.96 2.4 10.09
11/10/2022 8:30:00 AM 7.74 45.932 0.496 7.98 2.42 10.12
11/10/2022 8:45:00 AM 7.77 45.986 0.494 7.99 2.08 10.15